Darstellungsparameter: Aktuell verwendete Einstellungen:
Skalierung der Graphiken ... ?
xyx+y,   Skalierungsfaktor:      Skalierung: Modus: x, Faktor: 1
Darstellungszeitraum ... ?
Vom - - bis: - -   Zeitraum: 20.04.2009 - 19.05.2009
Min/Max/Avg-Anzeige ... ?
Zeige MMA aktuell
Zeige MMA Monat
Zeige MMA alles
Zeige --A aktuell
Zeige --A Monat
Zeige --A alles
Keine MMA-Anzeige
MMA:
Average (ber die Originaldaten)
MMA-Basis: 20.04.2009 - 19.05.2009
Quicknavigation für Darstellung... ?
Tage:      1T, 2T, 3T, 5T -1T -2T -3T -5T +1T +2T +3T +5T
Wochen: 1W, 2W, 3W -1W -2W -3W +1W +2W +3W
Monate: 1M, 3M, 6M -1M -3M -6M +1M +3M +6M
Jahre:    1J, 3J, 5J, 10J -1J -3J -5J -10J +1J +3J +5J +10J
Nutze für die Darstellung ... ?
Originaldaten oder Mittelwerte auf ...
Stundenbasis Tagesbasis Wochenbasis
Monatsbasis Jahresbasis      Datenbasis: Original-Daten
Darstellen als:
Statistik (Auto) Statistik J:M      Darstellung:
Zur Graphik,    zurück zur Übersicht aller Sensoren.
 
Tabellarische Datenbersicht: ?
 
Sensor: Nr:Datum:Temp:Abs-Feuchte:Windchill:Wind:
Aussen-T/F 1 20-04-2009 00:05:00 12.4 C 7.21 g/m*3 12.4 C 0 km/h
2 20-04-2009 00:17:00 12.2 C 7.23 g/m*3 12.2 C 0 km/h
3 20-04-2009 00:29:00 12.1 C 7.29 g/m*3 12.1 C 0 km/h
4 20-04-2009 00:41:00 11.8 C 7.37 g/m*3 11.8 C 0 km/h
5 20-04-2009 00:53:00 11.7 C 7.43 g/m*3 11.7 C 0 km/h
6 20-04-2009 01:05:00 11.6 C 7.38 g/m*3 11.6 C 0 km/h
7 20-04-2009 01:17:00 11.3 C 7.34 g/m*3 11.3 C 0 km/h
8 20-04-2009 01:28:00 11.1 C 7.35 g/m*3 11.1 C 0 km/h
9 20-04-2009 01:40:00 11 C 7.31 g/m*3 11 C 0 km/h
10 20-04-2009 01:52:00 10.9 C 7.36 g/m*3 10.9 C 0 km/h
11 20-04-2009 02:04:00 10.7 C 7.27 g/m*3 10.7 C 0 km/h
12 20-04-2009 02:16:00 10.4 C 7.13 g/m*3 10.4 C 0 km/h
13 20-04-2009 02:28:00 10.2 C 7.14 g/m*3 10.2 C 0 km/h
14 20-04-2009 02:40:00 10.1 C 7.19 g/m*3 10.1 C 0 km/h
15 20-04-2009 02:52:00 9.9 C 7.28 g/m*3 9.9 C 0 km/h
16 20-04-2009 03:04:00 9.7 C 7.28 g/m*3 9.7 C 0 km/h
17 20-04-2009 03:16:01 9.4 C 7.24 g/m*3 9.4 C 0 km/h
18 20-04-2009 03:28:01 9.3 C 7.28 g/m*3 9.3 C 0 km/h
19 20-04-2009 03:40:01 9.1 C 7.19 g/m*3 9.1 C 0 km/h
20 20-04-2009 03:52:01 9 C 7.14 g/m*3 9 C 0 km/h
21 20-04-2009 04:04:01 8.9 C 7.27 g/m*3 8.9 C 0 km/h
22 20-04-2009 04:16:01 8.7 C 7.18 g/m*3 8.7 C 0 km/h
23 20-04-2009 04:28:01 8.6 C 7.13 g/m*3 8.6 C 0 km/h
24 20-04-2009 04:40:01 8.4 C 7.04 g/m*3 8.4 C 0 km/h
25 20-04-2009 04:52:01 8.3 C 7.08 g/m*3 8.3 C 0 km/h
Sensor: Nr:Datum:Temp:Abs-Feuchte:Windchill:Wind:
Aussen-T/F 26 20-04-2009 05:04:01 8.1 C 6.99 g/m*3 8.1 C 0 km/h
27 20-04-2009 05:16:01 8 C 6.94 g/m*3 8 C 0 km/h
28 20-04-2009 05:28:01 7.8 C 7.02 g/m*3 7.8 C 0 km/h
29 20-04-2009 05:40:01 7.6 C 6.93 g/m*3 7.6 C 0 km/h
30 20-04-2009 05:52:01 7.5 C 6.96 g/m*3 7.5 C 0 km/h
31 20-04-2009 06:04:01 7.3 C 6.79 g/m*3 7.3 C 0 km/h
32 20-04-2009 06:16:01 7.3 C 6.87 g/m*3 7.3 C 0 km/h
33 20-04-2009 06:28:01 7.1 C 6.79 g/m*3 7.1 C 0 km/h
34 20-04-2009 06:40:01 7 C 6.74 g/m*3 7 C 0 km/h
35 20-04-2009 06:52:58 6.8 C 6.81 g/m*3 6.8 C 0 km/h
36 20-04-2009 07:04:58 6.8 C 6.81 g/m*3 6.8 C 0 km/h
37 20-04-2009 07:16:59 6.9 C 6.85 g/m*3 6.9 C 0 km/h
38 20-04-2009 07:28:59 7 C 6.9 g/m*3 7 C 0 km/h
39 20-04-2009 07:40:02 7.2 C 7.06 g/m*3 7.2 C 0 km/h
40 20-04-2009 07:52:01 7.1 C 7.02 g/m*3 7.1 C 0 km/h
41 20-04-2009 08:04:02 7.2 C 6.99 g/m*3 7.2 C 0 km/h
42 20-04-2009 08:16:01 7.3 C 7.03 g/m*3 7.3 C 0 km/h
43 20-04-2009 08:28:01 7.4 C 7.08 g/m*3 7.4 C 0 km/h
44 20-04-2009 08:40:01 7.7 C 7.22 g/m*3 7.7 C 0 km/h
45 20-04-2009 08:52:02 8 C 7.28 g/m*3 8 C 0 km/h
46 20-04-2009 09:04:01 7.9 C 7.31 g/m*3 7.9 C 0 km/h
47 20-04-2009 09:16:00 8.2 C 7.45 g/m*3 8.2 C 0 km/h
48 20-04-2009 09:28:00 8.4 C 7.55 g/m*3 8.4 C 0 km/h
49 20-04-2009 09:40:01 8.9 C 7.8 g/m*3 8.9 C 0 km/h
50 20-04-2009 09:52:00 9.6 C 8.06 g/m*3 9.6 C 0 km/h
Sensor: Nr:Datum:Temp:Abs-Feuchte:Windchill:Wind:
Aussen-T/F 51 20-04-2009 10:04:00 10.4 C 8.29 g/m*3 10.4 C 0 km/h
52 20-04-2009 10:16:00 11.1 C 8.26 g/m*3 11.1 C 0 km/h
53 20-04-2009 10:28:00 12.1 C 8.47 g/m*3 12.1 C 0 km/h
54 20-04-2009 10:40:00 13 C 8.28 g/m*3 13 C 0 km/h
55 20-04-2009 10:52:59 13.5 C 7.72 g/m*3 13.5 C 0 km/h
56 20-04-2009 11:04:00 14.1 C 7.77 g/m*3 14.1 C 0 km/h
57 20-04-2009 11:16:00 14.9 C 7.77 g/m*3 14.9 C 0 km/h
58 20-04-2009 11:28:00 15.7 C 7.76 g/m*3 15.7 C 0 km/h
59 20-04-2009 11:40:59 16.2 C 7.72 g/m*3 16.2 C 0 km/h
60 20-04-2009 11:52:59 16.8 C 7.43 g/m*3 16.8 C 0 km/h
61 20-04-2009 12:04:59 17.2 C 7.18 g/m*3 17.2 C 0 km/h
62 20-04-2009 12:16:59 17.6 C 6.9 g/m*3 17.6 C 0 km/h
63 20-04-2009 12:28:59 18.3 C 6.72 g/m*3 18.3 C 0 km/h
64 20-04-2009 12:40:58 18.7 C 6.88 g/m*3 18.7 C 0 km/h
65 20-04-2009 12:52:59 18.9 C 6.64 g/m*3 18.9 C 0 km/h
66 20-04-2009 13:04:58 19.2 C 6.1 g/m*3 19.2 C 0 km/h
67 20-04-2009 13:16:58 20 C 6.39 g/m*3 20 C 0 km/h
68 20-04-2009 13:28:58 20.9 C 6.37 g/m*3 20.9 C 0 km/h
69 20-04-2009 13:40:58 21.2 C 5.56 g/m*3 21.2 C 0 km/h
70 20-04-2009 13:52:58 21.4 C 5.44 g/m*3 21.4 C 0 km/h
71 20-04-2009 14:04:57 21.5 C 5.28 g/m*3 21.5 C 0 km/h
72 20-04-2009 14:16:58 21.4 C 5.25 g/m*3 21.4 C 0 km/h
73 20-04-2009 14:28:58 22 C 5.05 g/m*3 22 C 0 km/h
74 20-04-2009 14:40:58 23.1 C 5.17 g/m*3 23.1 C 0 km/h
75 20-04-2009 14:52:57 22.7 C 4.65 g/m*3 22.7 C 0 km/h
Sensor: Nr:Datum:Temp:Abs-Feuchte:Windchill:Wind:
Aussen-T/F 76 20-04-2009 15:04:58 23.7 C 4.49 g/m*3 23.7 C 0 km/h
77 20-04-2009 15:16:57 23.8 C 4.3 g/m*3 23.8 C 0 km/h
78 20-04-2009 15:28:57 23.7 C 4.28 g/m*3 23.7 C 0 km/h
79 20-04-2009 15:40:57 23.8 C 4.3 g/m*3 23.8 C 0 km/h
80 20-04-2009 15:52:56 24.1 C 4.38 g/m*3 24.1 C 0 km/h
81 20-04-2009 16:04:57 24.1 C 4.38 g/m*3 24.1 C 0 km/h
82 20-04-2009 16:16:56 24.3 C 4.43 g/m*3 24.3 C 0 km/h
83 20-04-2009 16:28:56 25.2 C 4.66 g/m*3 25.2 C 0 km/h
84 20-04-2009 16:40:56 25.7 C 4.79 g/m*3 25.7 C 0 km/h
85 20-04-2009 16:52:56 26 C 4.87 g/m*3 26 C 0 km/h
86 20-04-2009 17:04:56 26 C 4.87 g/m*3 26 C 0 km/h
87 20-04-2009 17:16:56 27 C 5.15 g/m*3 27 C 0 km/h
88 20-04-2009 17:28:56 26 C 4.87 g/m*3 26 C 0 km/h
89 20-04-2009 17:40:56 25.6 C 4.76 g/m*3 25.6 C 0 km/h
90 20-04-2009 17:52:56 27.1 C 5.18 g/m*3 27.1 C 0 km/h
91 20-04-2009 18:04:55 25.9 C 4.84 g/m*3 25.9 C 0 km/h
92 20-04-2009 18:16:55 25.7 C 4.79 g/m*3 25.7 C 0 km/h
93 20-04-2009 18:28:55 25.3 C 4.68 g/m*3 25.3 C 0 km/h
94 20-04-2009 18:40:55 23.9 C 5.19 g/m*3 23.9 C 0 km/h
95 20-04-2009 18:52:55 22.8 C 5.49 g/m*3 22.8 C 0 km/h
96 20-04-2009 19:04:54 22.4 C 5.16 g/m*3 22.4 C 0 km/h
97 20-04-2009 19:16:55 21.5 C 5.47 g/m*3 21.5 C 0 km/h
98 20-04-2009 19:28:55 21.2 C 5.37 g/m*3 21.2 C 0 km/h
99 20-04-2009 19:40:55 21.2 C 5.56 g/m*3 21.2 C 0 km/h
100 20-04-2009 19:52:54 20.9 C 5.83 g/m*3 20.9 C 0 km/h
Sensor: Nr:Datum:Temp:Abs-Feuchte:Windchill:Wind:
Aussen-T/F 101 20-04-2009 20:04:55 20.4 C 5.66 g/m*3 20.4 C 0 km/h
102 20-04-2009 20:16:54 19.7 C 5.77 g/m*3 19.7 C 0 km/h
103 20-04-2009 20:28:54 19 C 5.87 g/m*3 19 C 0 km/h
104 20-04-2009 20:40:54 18.5 C 6.33 g/m*3 18.5 C 0 km/h
105 20-04-2009 20:52:54 18.1 C 5.87 g/m*3 18.1 C 0 km/h
106 20-04-2009 21:04:53 17.6 C 5.7 g/m*3 17.6 C 0 km/h
107 20-04-2009 21:16:54 17 C 5.5 g/m*3 17 C 0 km/h
108 20-04-2009 21:28:54 16.7 C 5.68 g/m*3 16.7 C 0 km/h
109 20-04-2009 21:40:54 16.3 C 5.69 g/m*3 16.3 C 0 km/h
110 20-04-2009 21:52:53 16.1 C 5.89 g/m*3 16.1 C 0 km/h
111 20-04-2009 22:04:54 15.9 C 5.69 g/m*3 15.9 C 0 km/h
112 20-04-2009 22:16:53 15.5 C 5.68 g/m*3 15.5 C 0 km/h
113 20-04-2009 22:28:53 15.2 C 5.58 g/m*3 15.2 C 0 km/h
114 20-04-2009 22:41:55 14.8 C 5.7 g/m*3 14.8 C 0 km/h
115 20-04-2009 22:53:55 14.6 C 5.76 g/m*3 14.6 C 0 km/h
116 20-04-2009 23:05:55 14.2 C 5.74 g/m*3 14.2 C 0 km/h
117 20-04-2009 23:17:55 14 C 5.79 g/m*3 14 C 0 km/h
118 20-04-2009 23:29:55 13.7 C 5.8 g/m*3 13.7 C 0 km/h
119 20-04-2009 23:41:55 13.7 C 5.92 g/m*3 13.7 C 0 km/h
120 20-04-2009 23:53:55 13.6 C 5.77 g/m*3 13.6 C 0 km/h
121 21-04-2009 00:05:55 13.2 C 5.63 g/m*3 13.2 C 0 km/h
122 21-04-2009 00:17:55 13.2 C 5.74 g/m*3 13.2 C 0 km/h
123 21-04-2009 00:29:55 12.9 C 5.75 g/m*3 12.9 C 0 km/h
124 21-04-2009 00:41:55 12.8 C 5.71 g/m*3 12.8 C 0 km/h
125 21-04-2009 00:53:55 12.5 C 5.72 g/m*3 12.5 C 0 km/h
Sensor: Nr:Datum:Temp:Abs-Feuchte:Windchill:Wind:
Aussen-T/F 126 21-04-2009 01:05:55 12.3 C 5.75 g/m*3 12.3 C 0 km/h
127 21-04-2009 01:17:55 11.9 C 5.93 g/m*3 11.9 C 0 km/h
128 21-04-2009 01:29:55 11.5 C 5.99 g/m*3 11.5 C 0 km/h
129 21-04-2009 01:41:55 11.4 C 5.95 g/m*3 11.4 C 0 km/h
130 21-04-2009 01:53:55 11.1 C 6.04 g/m*3 11.1 C 0 km/h
131 21-04-2009 02:05:55 10.7 C 5.99 g/m*3 10.7 C 0 km/h
132 21-04-2009 02:17:56 10.6 C 5.86 g/m*3 10.6 C 0 km/h
133 21-04-2009 02:29:56 10.5 C 5.92 g/m*3 10.5 C 0 km/h
134 21-04-2009 02:41:56 10.2 C 6 g/m*3 10.2 C 0 km/h
135 21-04-2009 02:53:56 10 C 6.01 g/m*3 10 C 0 km/h
136 21-04-2009 03:05:56 9.8 C 6.03 g/m*3 9.8 C 0 km/h
137 21-04-2009 03:17:56 9.6 C 6.05 g/m*3 9.6 C 0 km/h
138 21-04-2009 03:29:56 9.3 C 5.93 g/m*3 9.3 C 0 km/h
139 21-04-2009 03:41:56 9.2 C 5.98 g/m*3 9.2 C 0 km/h
140 21-04-2009 03:53:56 9 C 5.99 g/m*3 9 C 0 km/h
141 21-04-2009 04:05:56 8.8 C 6.01 g/m*3 8.8 C 0 km/h
142 21-04-2009 04:17:56 8.7 C 6.05 g/m*3 8.7 C 0 km/h
143 21-04-2009 04:29:56 8.5 C 6.15 g/m*3 8.5 C 0 km/h
144 21-04-2009 04:41:56 8.2 C 6.2 g/m*3 8.2 C 0 km/h
145 21-04-2009 04:53:56 8.1 C 6.16 g/m*3 8.1 C 0 km/h
146 21-04-2009 05:05:56 7.9 C 6.16 g/m*3 7.9 C 0 km/h
147 21-04-2009 05:17:56 7.9 C 6.24 g/m*3 7.9 C 0 km/h
148 21-04-2009 05:29:56 7.7 C 6.16 g/m*3 7.7 C 0 km/h
149 21-04-2009 05:41:56 7.6 C 6.28 g/m*3 7.6 C 0 km/h
150 21-04-2009 05:53:56 7.5 C 6.24 g/m*3 7.5 C 0 km/h
Sensor: Nr:Datum:Temp:Abs-Feuchte:Windchill:Wind:
Aussen-T/F 151 21-04-2009 06:05:57 7.4 C 6.28 g/m*3 7.4 C 0 km/h
152 21-04-2009 06:17:57 7.2 C 6.2 g/m*3 7.2 C 0 km/h
153 21-04-2009 06:29:57 7.1 C 6.24 g/m*3 7.1 C 0 km/h
154 21-04-2009 06:41:57 7.1 C 6.24 g/m*3 7.1 C 0 km/h
155 21-04-2009 06:53:55 7.1 C 6.32 g/m*3 7.1 C 0 km/h
156 21-04-2009 07:05:55 7.1 C 6.32 g/m*3 7.1 C 0 km/h
157 21-04-2009 07:17:54 7.1 C 6.32 g/m*3 7.1 C 0 km/h
158 21-04-2009 07:29:54 7.1 C 6.4 g/m*3 7.1 C 0 km/h
159 21-04-2009 07:41:54 7.3 C 6.48 g/m*3 7.3 C 0 km/h
160 21-04-2009 07:53:54 7.4 C 6.52 g/m*3 7.4 C 0 km/h
161 21-04-2009 08:05:54 7.5 C 6.64 g/m*3 7.5 C 0 km/h
162 21-04-2009 08:17:54 7.8 C 6.69 g/m*3 7.8 C 0 km/h
163 21-04-2009 08:29:54 8 C 6.7 g/m*3 8 C 0 km/h
164 21-04-2009 08:41:54 8.2 C 6.78 g/m*3 8.2 C 0 km/h
165 21-04-2009 08:53:53 8.5 C 6.83 g/m*3 8.5 C 0 km/h
166 21-04-2009 09:05:53 8.9 C 6.92 g/m*3 8.9 C 0 km/h
167 21-04-2009 09:17:54 9.4 C 7.15 g/m*3 9.4 C 0 km/h
168 21-04-2009 09:29:54 10.2 C 7.23 g/m*3 10.2 C 0 km/h
169 21-04-2009 09:41:53 10.8 C 7.31 g/m*3 10.8 C 0 km/h
170 21-04-2009 09:53:53 11.5 C 7.33 g/m*3 11.5 C 0 km/h
171 21-04-2009 10:05:53 12.2 C 7.01 g/m*3 12.2 C 0 km/h
172 21-04-2009 10:17:53 12.7 C 7.01 g/m*3 12.7 C 0 km/h
173 21-04-2009 10:29:53 13.4 C 7.09 g/m*3 13.4 C 0 km/h
174 21-04-2009 10:41:52 14 C 7 g/m*3 14 C 0 km/h
175 21-04-2009 10:53:53 14.7 C 7.05 g/m*3 14.7 C 0 km/h
Sensor: Nr:Datum:Temp:Abs-Feuchte:Windchill:Wind:
Aussen-T/F 176 21-04-2009 11:05:52 15.3 C 6.66 g/m*3 15.3 C 0 km/h
177 21-04-2009 11:17:52 15.9 C 6.09 g/m*3 15.9 C 0 km/h
178 21-04-2009 11:29:52 16.4 C 6.14 g/m*3 16.4 C 0 km/h
179 21-04-2009 11:41:52 16.8 C 6 g/m*3 16.8 C 0 km/h
180 21-04-2009 11:53:52 16.9 C 5.32 g/m*3 16.9 C 0 km/h
181 21-04-2009 12:05:52 17.2 C 5.42 g/m*3 17.2 C 0 km/h
182 21-04-2009 12:17:52 17.8 C 5.46 g/m*3 17.8 C 0 km/h
183 21-04-2009 12:29:52 18.7 C 5.6 g/m*3 18.7 C 0 km/h
184 21-04-2009 12:41:52 19.2 C 5.28 g/m*3 19.2 C 0 km/h
185 21-04-2009 12:53:52 19.7 C 5.6 g/m*3 19.7 C 0 km/h
186 21-04-2009 13:05:51 20 C 5.53 g/m*3 20 C 0 km/h
187 21-04-2009 13:17:51 21 C 5.5 g/m*3 21 C 0 km/h
188 21-04-2009 13:29:51 20.6 C 5.19 g/m*3 20.6 C 0 km/h
189 21-04-2009 13:41:50 21.3 C 4.85 g/m*3 21.3 C 0 km/h
190 21-04-2009 13:53:51 21.3 C 4.85 g/m*3 21.3 C 0 km/h
191 21-04-2009 14:05:50 21.6 C 5.12 g/m*3 21.6 C 0 km/h
192 21-04-2009 14:17:50 22.3 C 4.54 g/m*3 22.3 C 0 km/h
193 21-04-2009 14:29:50 22.2 C 4.71 g/m*3 22.2 C 0 km/h
194 21-04-2009 14:41:51 23.1 C 4.55 g/m*3 23.1 C 0 km/h
195 21-04-2009 14:53:50 23.7 C 4.49 g/m*3 23.7 C 0 km/h
196 21-04-2009 15:05:50 24.6 C 4.5 g/m*3 24.6 C 0 km/h
197 21-04-2009 15:17:50 24 C 4.35 g/m*3 24 C 0 km/h
198 21-04-2009 15:29:50 23.6 C 4.25 g/m*3 23.6 C 0 km/h
199 21-04-2009 15:41:50 24.4 C 4.45 g/m*3 24.4 C 0 km/h
200 21-04-2009 15:53:49 24.6 C 4.5 g/m*3 24.6 C 0 km/h
Sensor: Nr:Datum:Temp:Abs-Feuchte:Windchill:Wind:
Aussen-T/F 201 21-04-2009 16:05:50 25.7 C 4.79 g/m*3 25.7 C 0 km/h
202 21-04-2009 16:17:49 25.9 C 4.84 g/m*3 25.9 C 0 km/h
203 21-04-2009 16:29:49 26.2 C 4.92 g/m*3 26.2 C 0 km/h
204 21-04-2009 16:41:49 25.5 C 4.73 g/m*3 25.5 C 0 km/h
205 21-04-2009 16:53:49 25.2 C 4.66 g/m*3 25.2 C 0 km/h
206 21-04-2009 17:05:49 25.5 C 4.73 g/m*3 25.5 C 0 km/h
207 21-04-2009 17:17:49 25.6 C 4.76 g/m*3 25.6 C 0 km/h
208 21-04-2009 17:29:49 26 C 4.87 g/m*3 26 C 0 km/h
209 21-04-2009 17:41:48 26.1 C 4.9 g/m*3 26.1 C 0 km/h
210 21-04-2009 17:53:49 25.4 C 4.71 g/m*3 25.4 C 0 km/h
211 21-04-2009 18:05:48 24.4 C 4.45 g/m*3 24.4 C 0 km/h
212 21-04-2009 18:17:48 25 C 4.6 g/m*3 25 C 0 km/h
213 21-04-2009 18:29:48 24.7 C 4.53 g/m*3 24.7 C 0 km/h
214 21-04-2009 18:41:48 24.4 C 4.45 g/m*3 24.4 C 0 km/h
215 21-04-2009 18:53:48 24.2 C 4.4 g/m*3 24.2 C 0 km/h
216 21-04-2009 19:05:47 23.7 C 4.28 g/m*3 23.7 C 0 km/h
217 21-04-2009 19:17:48 24 C 4.35 g/m*3 24 C 0 km/h
218 21-04-2009 19:29:48 23.4 C 4.21 g/m*3 23.4 C 0 km/h
219 21-04-2009 19:41:48 23 C 4.11 g/m*3 23 C 0 km/h
220 21-04-2009 19:53:47 22 C 4.08 g/m*3 22 C 0 km/h
221 21-04-2009 20:05:48 21.7 C 4.2 g/m*3 21.7 C 0 km/h
222 21-04-2009 20:17:47 20.4 C 4.42 g/m*3 20.4 C 0 km/h
223 21-04-2009 20:29:47 19.8 C 4.44 g/m*3 19.8 C 0 km/h
224 21-04-2009 20:41:47 19.2 C 4.12 g/m*3 19.2 C 0 km/h
225 21-04-2009 20:53:46 18.7 C 4.64 g/m*3 18.7 C 0 km/h
Sensor: Nr:Datum:Temp:Abs-Feuchte:Windchill:Wind:
Aussen-T/F 226 21-04-2009 21:05:46 18.4 C 4.72 g/m*3 18.4 C 0 km/h
227 21-04-2009 21:17:47 17.9 C 4.73 g/m*3 17.9 C 0 km/h
228 21-04-2009 21:29:48 17.8 C 4.86 g/m*3 17.8 C 0 km/h
229 21-04-2009 21:41:46 17.5 C 5.22 g/m*3 17.5 C 0 km/h
230 21-04-2009 21:53:46 17.3 C 5.3 g/m*3 17.3 C 0 km/h
231 21-04-2009 22:05:45 17.1 C 5.39 g/m*3 17.1 C 0 km/h
232 21-04-2009 22:17:46 16.9 C 5.61 g/m*3 16.9 C 0 km/h
233 21-04-2009 22:29:46 16.7 C 5.68 g/m*3 16.7 C 0 km/h
234 21-04-2009 22:41:46 16.3 C 5.55 g/m*3 16.3 C 0 km/h
235 21-04-2009 22:54:46 16.2 C 5.65 g/m*3 16.2 C 0 km/h
236 21-04-2009 23:06:46 16 C 5.72 g/m*3 16 C 0 km/h
237 21-04-2009 23:18:46 15.5 C 5.95 g/m*3 15.5 C 0 km/h
238 21-04-2009 23:30:46 15.5 C 5.82 g/m*3 15.5 C 0 km/h
239 21-04-2009 23:42:46 15.1 C 5.81 g/m*3 15.1 C 0 km/h
240 21-04-2009 23:54:46 15.1 C 5.81 g/m*3 15.1 C 0 km/h
241 22-04-2009 00:06:46 14.8 C 5.95 g/m*3 14.8 C 0 km/h
242 22-04-2009 00:18:46 14.7 C 6.04 g/m*3 14.7 C 0 km/h
243 22-04-2009 00:30:46 14.6 C 5.88 g/m*3 14.6 C 0 km/h
244 22-04-2009 00:42:47 14.5 C 5.97 g/m*3 14.5 C 0 km/h
245 22-04-2009 00:54:47 14.1 C 5.83 g/m*3 14.1 C 0 km/h
246 22-04-2009 01:06:47 13.9 C 5.99 g/m*3 13.9 C 0 km/h
247 22-04-2009 01:18:47 13.7 C 6.04 g/m*3 13.7 C 0 km/h
248 22-04-2009 01:30:47 13.2 C 6.09 g/m*3 13.2 C 0 km/h
249 22-04-2009 01:42:47 13.1 C 6.28 g/m*3 13.1 C 0 km/h
250 22-04-2009 01:54:47 13 C 6.01 g/m*3 13 C 0 km/h
Sensor: Nr:Datum:Temp:Abs-Feuchte:Windchill:Wind:
Aussen-T/F 251 22-04-2009 02:06:47 13 C 6.12 g/m*3 13 C 0 km/h
252 22-04-2009 02:18:47 12.8 C 6.16 g/m*3 12.8 C 0 km/h
253 22-04-2009 02:30:47 12.6 C 6.2 g/m*3 12.6 C 0 km/h
254 22-04-2009 02:42:47 12.3 C 6.19 g/m*3 12.3 C 0 km/h
255 22-04-2009 02:54:47 12.1 C 6.22 g/m*3 12.1 C 0 km/h
256 22-04-2009 03:06:47 11.8 C 6.31 g/m*3 11.8 C 0 km/h
257 22-04-2009 03:18:47 11.7 C 6.28 g/m*3 11.7 C 0 km/h
258 22-04-2009 03:30:47 11.8 C 6.21 g/m*3 11.8 C 0 km/h
259 22-04-2009 03:42:47 11.7 C 6.17 g/m*3 11.7 C 0 km/h
260 22-04-2009 03:54:47 11.3 C 6.12 g/m*3 11.3 C 0 km/h
261 22-04-2009 04:06:47 11 C 6.01 g/m*3 11 C 0 km/h
262 22-04-2009 04:18:47 10.9 C 5.97 g/m*3 10.9 C 0 km/h
263 22-04-2009 04:30:48 10.8 C 5.93 g/m*3 10.8 C 0 km/h
264 22-04-2009 04:42:48 10.7 C 5.99 g/m*3 10.7 C 0 km/h
265 22-04-2009 04:54:48 10.5 C 6.01 g/m*3 10.5 C 0 km/h
266 22-04-2009 05:06:48 10.7 C 6.09 g/m*3 10.7 C 0 km/h
267 22-04-2009 05:18:48 10.6 C 6.05 g/m*3 10.6 C 0 km/h
268 22-04-2009 05:30:48 10.3 C 6.13 g/m*3 10.3 C 0 km/h
269 22-04-2009 05:42:48 10 C 6.11 g/m*3 10 C 0 km/h
270 22-04-2009 05:54:48 9.9 C 6.26 g/m*3 9.9 C 0 km/h
271 22-04-2009 06:06:48 9.9 C 6.44 g/m*3 9.9 C 0 km/h
272 22-04-2009 06:18:48 9.7 C 6.45 g/m*3 9.7 C 0 km/h
273 22-04-2009 06:30:48 9.6 C 6.5 g/m*3 9.6 C 0 km/h
274 22-04-2009 06:42:48 9.6 C 6.69 g/m*3 9.6 C 0 km/h
275 22-04-2009 06:54:48 9.6 C 6.69 g/m*3 9.6 C 0 km/h
Sensor: Nr:Datum:Temp:Abs-Feuchte:Windchill:Wind:
Aussen-T/F 276 22-04-2009 07:06:48 9.7 C 6.82 g/m*3 9.7 C 0 km/h
277 22-04-2009 07:18:48 9.7 C 6.82 g/m*3 9.7 C 0 km/h
278 22-04-2009 07:30:48 9.8 C 6.87 g/m*3 9.8 C 0 km/h
279 22-04-2009 07:42:48 9.9 C 6.91 g/m*3 9.9 C 0 km/h
280 22-04-2009 07:54:46 10.1 C 7 g/m*3 10.1 C 0 km/h
281 22-04-2009 08:06:46 10.3 C 6.99 g/m*3 10.3 C 0 km/h
282 22-04-2009 08:18:47 10.4 C 6.84 g/m*3 10.4 C 0 km/h
283 22-04-2009 08:30:46 10.5 C 6.89 g/m*3 10.5 C 0 km/h
284 22-04-2009 08:42:46 10.5 C 6.79 g/m*3 10.5 C 0 km/h
285 22-04-2009 08:54:46 10.6 C 6.73 g/m*3 10.6 C 0 km/h
286 22-04-2009 09:06:46 10.7 C 6.68 g/m*3 10.7 C 0 km/h
287 22-04-2009 09:18:46 11 C 6.71 g/m*3 11 C 0 km/h
288 22-04-2009 09:30:45 11.2 C 6.69 g/m*3 11.2 C 0 km/h
289 22-04-2009 09:42:45 10.7 C 6.38 g/m*3 10.7 C 0 km/h
290 22-04-2009 09:54:46 11.2 C 6.49 g/m*3 11.2 C 0 km/h
291 22-04-2009 10:06:45 11.4 C 5.95 g/m*3 11.4 C 0 km/h
292 22-04-2009 10:18:45 11.8 C 5.79 g/m*3 11.8 C 0 km/h
293 22-04-2009 10:30:45 11.8 C 5.89 g/m*3 11.8 C 0 km/h
294 22-04-2009 10:42:45 12.4 C 6.01 g/m*3 12.4 C 0 km/h
295 22-04-2009 10:54:45 12.9 C 5.64 g/m*3 12.9 C 0 km/h
296 22-04-2009 11:06:45 13.1 C 5.59 g/m*3 13.1 C 0 km/h
297 22-04-2009 11:18:44 13.3 C 5.66 g/m*3 13.3 C 0 km/h
298 22-04-2009 11:30:45 14 C 5.67 g/m*3 14 C 0 km/h
299 22-04-2009 11:42:45 14.6 C 5.51 g/m*3 14.6 C 0 km/h
300 22-04-2009 11:54:44 15 C 5.39 g/m*3 15 C 0 km/h
Sensor: Nr:Datum:Temp:Abs-Feuchte:Windchill:Wind:
Aussen-T/F 301 22-04-2009 12:06:44 15.7 C 5.62 g/m*3 15.7 C 0 km/h
302 22-04-2009 12:18:44 16.1 C 5.76 g/m*3 16.1 C 0 km/h
303 22-04-2009 12:30:44 15.7 C 5.62 g/m*3 15.7 C 0 km/h
304 22-04-2009 12:42:44 16 C 5.59 g/m*3 16 C 0 km/h
305 22-04-2009 12:54:43 16.2 C 5.52 g/m*3 16.2 C 0 km/h
306 22-04-2009 13:06:44 17.1 C 5.68 g/m*3 17.1 C 0 km/h
307 22-04-2009 13:18:43 17.5 C 5.96 g/m*3 17.5 C 0 km/h
308 22-04-2009 13:30:43 16.7 C 5.4 g/m*3 16.7 C 0 km/h
309 22-04-2009 13:42:43 17.2 C 5.56 g/m*3 17.2 C 0 km/h
310 22-04-2009 13:54:43 17 C 5.35 g/m*3 17 C 0 km/h
311 22-04-2009 14:06:43 16.6 C 5.51 g/m*3 16.6 C 0 km/h
312 22-04-2009 14:18:43 17.2 C 5.42 g/m*3 17.2 C 0 km/h
313 22-04-2009 14:30:42 17.8 C 5.46 g/m*3 17.8 C 0 km/h
314 22-04-2009 14:42:42 16.8 C 5.15 g/m*3 16.8 C 0 km/h
315 22-04-2009 14:54:43 17.4 C 5.48 g/m*3 17.4 C 0 km/h
316 22-04-2009 15:06:42 16.9 C 5.03 g/m*3 16.9 C 0 km/h
317 22-04-2009 15:18:42 17.5 C 4.92 g/m*3 17.5 C 0 km/h
318 22-04-2009 15:30:42 17.1 C 4.8 g/m*3 17.1 C 0 km/h
319 22-04-2009 15:42:42 16.4 C 5.02 g/m*3 16.4 C 0 km/h
320 22-04-2009 15:54:42 16.7 C 5.12 g/m*3 16.7 C 0 km/h
321 22-04-2009 16:06:42 18 C 4.15 g/m*3 18 C 0 km/h
322 22-04-2009 16:18:41 18 C 3.38 g/m*3 18 C 0 km/h
323 22-04-2009 16:30:42 17.9 C 3.05 g/m*3 17.9 C 0 km/h
324 22-04-2009 16:42:42 18.2 C 3.11 g/m*3 18.2 C 0 km/h
325 22-04-2009 16:54:41 19.1 C 3.28 g/m*3 19.1 C 0 km/h
Sensor: Nr:Datum:Temp:Abs-Feuchte:Windchill:Wind:
Aussen-T/F 326 22-04-2009 17:06:41 18.4 C 3.15 g/m*3 18.4 C 0 km/h
327 22-04-2009 17:18:41 18.5 C 3.16 g/m*3 18.5 C 0 km/h
328 22-04-2009 17:30:41 19.6 C 3.38 g/m*3 19.6 C 0 km/h
329 22-04-2009 17:42:41 19 C 3.26 g/m*3 19 C 0 km/h
330 22-04-2009 17:54:41 19 C 3.26 g/m*3 19 C 0 km/h
331 22-04-2009 18:06:41 17.8 C 3.79 g/m*3 17.8 C 0 km/h
332 22-04-2009 18:18:40 18 C 3.84 g/m*3 18 C 0 km/h
333 22-04-2009 18:30:40 17.8 C 3.95 g/m*3 17.8 C 0 km/h
334 22-04-2009 18:42:40 17.1 C 3.93 g/m*3 17.1 C 0 km/h
335 22-04-2009 18:54:40 17.7 C 3.92 g/m*3 17.7 C 0 km/h
336 22-04-2009 19:06:40 17.4 C 4 g/m*3 17.4 C 0 km/h
337 22-04-2009 19:18:40 16.5 C 4.21 g/m*3 16.5 C 0 km/h
338 22-04-2009 19:30:40 16.1 C 4.11 g/m*3 16.1 C 0 km/h
339 22-04-2009 19:42:40 16.6 C 4.38 g/m*3 16.6 C 0 km/h
340 22-04-2009 19:54:39 16.5 C 4.21 g/m*3 16.5 C 0 km/h
341 22-04-2009 20:06:39 16.4 C 3.91 g/m*3 16.4 C 0 km/h
342 22-04-2009 20:18:40 15.6 C 3.59 g/m*3 15.6 C 0 km/h
343 22-04-2009 20:30:39 14.8 C 3.8 g/m*3 14.8 C 0 km/h
344 22-04-2009 20:42:39 14.2 C 3.66 g/m*3 14.2 C 0 km/h
345 22-04-2009 20:54:39 13.8 C 3.57 g/m*3 13.8 C 0 km/h
346 22-04-2009 21:06:39 13.3 C 3.47 g/m*3 13.3 C 0 km/h
347 22-04-2009 21:18:39 13 C 3.4 g/m*3 13 C 0 km/h
348 22-04-2009 21:30:39 12.7 C 3.67 g/m*3 12.7 C 0 km/h
349 22-04-2009 21:42:39 12.4 C 3.61 g/m*3 12.4 C 0 km/h
350 22-04-2009 21:54:38 12.1 C 3.54 g/m*3 12.1 C 0 km/h
Sensor: Nr:Datum:Temp:Abs-Feuchte:Windchill:Wind:
Aussen-T/F 351 22-04-2009 22:06:39 12 C 3.62 g/m*3 12 C 0 km/h
352 22-04-2009 22:19:39 11.9 C 3.71 g/m*3 11.9 C 0 km/h
353 22-04-2009 22:31:39 11.7 C 3.77 g/m*3 11.7 C 0 km/h
354 22-04-2009 22:43:39 11.4 C 3.8 g/m*3 11.4 C 0 km/h
355 22-04-2009 22:55:39 11.3 C 3.88 g/m*3 11.3 C 0 km/h
356 22-04-2009 23:07:39 11 C 3.9 g/m*3 11 C 0 km/h
357 22-04-2009 23:19:39 10.8 C 4.05 g/m*3 10.8 C 0 km/h
358 22-04-2009 23:31:39 10.2 C 4 g/m*3 10.2 C 0 km/h
359 22-04-2009 23:43:39 10.1 C 4.16 g/m*3 10.1 C 0 km/h
360 22-04-2009 23:55:39 10 C 4.23 g/m*3 10 C 0 km/h
361 23-04-2009 00:07:39 9.7 C 4.24 g/m*3 9.7 C 0 km/h
362 23-04-2009 00:19:39 9.5 C 4.28 g/m*3 9.5 C 0 km/h
363 23-04-2009 00:31:39 9.2 C 4.46 g/m*3 9.2 C 0 km/h
364 23-04-2009 00:43:39 8.9 C 4.47 g/m*3 8.9 C 0 km/h
365 23-04-2009 00:55:39 8.6 C 4.73 g/m*3 8.6 C 0 km/h
366 23-04-2009 01:07:39 8.5 C 4.7 g/m*3 8.5 C 0 km/h
367 23-04-2009 01:19:39 8.4 C 4.67 g/m*3 8.4 C 0 km/h
368 23-04-2009 01:31:39 8.1 C 4.66 g/m*3 8.1 C 0 km/h
369 23-04-2009 01:43:39 8.1 C 4.66 g/m*3 8.1 C 0 km/h
370 23-04-2009 01:55:39 7.8 C 4.82 g/m*3 7.8 C 0 km/h
371 23-04-2009 02:07:39 7.7 C 4.7 g/m*3 7.7 C 0 km/h
372 23-04-2009 02:19:40 7.4 C 4.85 g/m*3 7.4 C 0 km/h
373 23-04-2009 02:31:40 7.6 C 4.83 g/m*3 7.6 C 0 km/h
374 23-04-2009 02:43:40 7.7 C 4.87 g/m*3 7.7 C 0 km/h
375 23-04-2009 02:55:40 7.3 C 4.98 g/m*3 7.3 C 0 km/h
Sensor: Nr:Datum:Temp:Abs-Feuchte:Windchill:Wind:
Aussen-T/F 376 23-04-2009 03:07:40 7.1 C 4.91 g/m*3 7.1 C 0 km/h
377 23-04-2009 03:19:40 7.1 C 4.91 g/m*3 7.1 C 0 km/h
378 23-04-2009 03:31:40 7.1 C 4.91 g/m*3 7.1 C 0 km/h
379 23-04-2009 03:43:40 7 C 4.96 g/m*3 7 C 0 km/h
380 23-04-2009 03:55:40 6.9 C 5.08 g/m*3 6.9 C 0 km/h
381 23-04-2009 04:07:40 6.6 C 5.06 g/m*3 6.6 C 0 km/h
382 23-04-2009 04:19:40 6.2 C 5.15 g/m*3 6.2 C 0 km/h
383 23-04-2009 04:31:40 6.3 C 5.33 g/m*3 6.3 C 0 km/h
384 23-04-2009 04:43:40 6.3 C 5.4 g/m*3 6.3 C 0 km/h
385 23-04-2009 04:55:40 6.5 C 5.47 g/m*3 6.5 C 0 km/h
386 23-04-2009 05:07:40 6.7 C 5.47 g/m*3 6.7 C 0 km/h
387 23-04-2009 05:19:40 6.5 C 5.47 g/m*3 6.5 C 0 km/h
388 23-04-2009 05:31:40 6.5 C 5.55 g/m*3 6.5 C 0 km/h
389 23-04-2009 05:43:40 6.8 C 5.66 g/m*3 6.8 C 0 km/h
390 23-04-2009 05:55:40 6.8 C 5.58 g/m*3 6.8 C 0 km/h
391 23-04-2009 06:07:41 6.8 C 5.66 g/m*3 6.8 C 0 km/h
392 23-04-2009 06:19:41 7 C 5.66 g/m*3 7 C 0 km/h
393 23-04-2009 06:31:41 7 C 5.66 g/m*3 7 C 0 km/h
394 23-04-2009 06:43:41 6.9 C 5.62 g/m*3 6.9 C 0 km/h
395 23-04-2009 06:55:41 7 C 5.66 g/m*3 7 C 0 km/h
396 23-04-2009 07:07:39 7.1 C 5.69 g/m*3 7.1 C 0 km/h
397 23-04-2009 07:19:39 7 C 5.66 g/m*3 7 C 0 km/h
398 23-04-2009 07:31:38 7.1 C 5.77 g/m*3 7.1 C 0 km/h
399 23-04-2009 07:43:38 7.1 C 5.69 g/m*3 7.1 C 0 km/h
400 23-04-2009 07:55:39 7.4 C 5.81 g/m*3 7.4 C 0 km/h
Sensor: Nr:Datum:Temp:Abs-Feuchte:Windchill:Wind:
Aussen-T/F 401 23-04-2009 08:07:38 7.7 C 5.84 g/m*3 7.7 C 0 km/h
402 23-04-2009 08:19:38 7.9 C 5.83 g/m*3 7.9 C 0 km/h
403 23-04-2009 08:31:38 8.4 C 5.94 g/m*3 8.4 C 0 km/h
404 23-04-2009 08:43:38 8.5 C 5.89 g/m*3 8.5 C 0 km/h
405 23-04-2009 08:55:38 8.6 C 5.93 g/m*3 8.6 C 0 km/h
406 23-04-2009 09:07:38 9 C 5.82 g/m*3 9 C 0 km/h
407 23-04-2009 09:19:37 9.5 C 5.92 g/m*3 9.5 C 0 km/h
408 23-04-2009 09:31:37 9.8 C 5.85 g/m*3 9.8 C 0 km/h
409 23-04-2009 09:43:37 10.3 C 5.75 g/m*3 10.3 C 0 km/h
410 23-04-2009 09:55:37 11 C 5.81 g/m*3 11 C 0 km/h
411 23-04-2009 10:07:37 11.5 C 5.58 g/m*3 11.5 C 0 km/h
412 23-04-2009 10:19:37 11.7 C 5.33 g/m*3 11.7 C 0 km/h
413 23-04-2009 10:31:37 11.1 C 5.24 g/m*3 11.1 C 0 km/h
414 23-04-2009 10:43:37 10.8 C 5.24 g/m*3 10.8 C 0 km/h
415 23-04-2009 10:55:36 10.9 C 5.07 g/m*3 10.9 C 0 km/h
416 23-04-2009 11:07:36 11.2 C 5.07 g/m*3 11.2 C 0 km/h
417 23-04-2009 11:19:37 11.9 C 5.3 g/m*3 11.9 C 0 km/h
418 23-04-2009 11:31:36 12 C 4.9 g/m*3 12 C 0 km/h
419 23-04-2009 11:43:36 11.6 C 4.57 g/m*3 11.6 C 0 km/h
420 23-04-2009 11:55:36 12.7 C 4.79 g/m*3 12.7 C 0 km/h
421 23-04-2009 12:07:36 13.9 C 4.2 g/m*3 13.9 C 0 km/h
422 23-04-2009 12:19:36 13.3 C 4.39 g/m*3 13.3 C 0 km/h
423 23-04-2009 12:31:36 13.1 C 4.11 g/m*3 13.1 C 0 km/h
424 23-04-2009 12:43:36 14 C 4.34 g/m*3 14 C 0 km/h
425 23-04-2009 12:55:35 14 C 4.22 g/m*3 14 C 0 km/h
Sensor: Nr:Datum:Temp:Abs-Feuchte:Windchill:Wind:
Aussen-T/F 426 23-04-2009 13:07:36 14.1 C 4.37 g/m*3 14.1 C 0 km/h
427 23-04-2009 13:19:35 16 C 4.09 g/m*3 16 C 0 km/h
428 23-04-2009 13:31:35 15.2 C 4.15 g/m*3 15.2 C 0 km/h
429 23-04-2009 13:43:35 16.2 C 4.27 g/m*3 16.2 C 0 km/h
430 23-04-2009 13:55:35 16.9 C 4.46 g/m*3 16.9 C 0 km/h
431 23-04-2009 14:07:35 15 C 4.23 g/m*3 15 C 0 km/h
432 23-04-2009 14:19:34 15 C 4.49 g/m*3 15 C 0 km/h
433 23-04-2009 14:31:35 15 C 4.23 g/m*3 15 C 0 km/h
434 23-04-2009 14:43:36 15.2 C 4.54 g/m*3 15.2 C 0 km/h
435 23-04-2009 14:55:34 16.7 C 4.69 g/m*3 16.7 C 0 km/h
436 23-04-2009 15:07:34 17.9 C 4.43 g/m*3 17.9 C 0 km/h
437 23-04-2009 15:19:34 18.5 C 3.64 g/m*3 18.5 C 0 km/h
438 23-04-2009 15:31:34 17.5 C 3.88 g/m*3 17.5 C 0 km/h
439 23-04-2009 15:43:34 18 C 3.84 g/m*3 18 C 0 km/h
440 23-04-2009 15:55:33 18.1 C 3.55 g/m*3 18.1 C 0 km/h
441 23-04-2009 16:07:33 16.6 C 3.81 g/m*3 16.6 C 0 km/h
442 23-04-2009 16:19:34 17.7 C 3.92 g/m*3 17.7 C 0 km/h
443 23-04-2009 16:31:33 18.1 C 3.71 g/m*3 18.1 C 0 km/h
444 23-04-2009 16:43:33 19.5 C 3.86 g/m*3 19.5 C 0 km/h
445 23-04-2009 16:55:33 18.1 C 3.4 g/m*3 18.1 C 0 km/h
446 23-04-2009 17:07:33 20.1 C 3.65 g/m*3 20.1 C 0 km/h
447 23-04-2009 17:19:33 20.4 C 3.71 g/m*3 20.4 C 0 km/h
448 23-04-2009 17:31:32 19.7 C 3.57 g/m*3 19.7 C 0 km/h
449 23-04-2009 17:43:32 18.6 C 3.82 g/m*3 18.6 C 0 km/h
450 23-04-2009 17:55:33 18.1 C 4.02 g/m*3 18.1 C 0 km/h
Sensor: Nr:Datum:Temp:Abs-Feuchte:Windchill:Wind:
Aussen-T/F 451 23-04-2009 18:07:32 17.7 C 4.07 g/m*3 17.7 C 0 km/h
452 23-04-2009 18:19:32 17.7 C 4.07 g/m*3 17.7 C 0 km/h
453 23-04-2009 18:31:32 17.4 C 4.15 g/m*3 17.4 C 0 km/h
454 23-04-2009 18:43:32 17.1 C 4.08 g/m*3 17.1 C 0 km/h
455 23-04-2009 18:55:32 16.9 C 4.31 g/m*3 16.9 C 0 km/h
456 23-04-2009 19:07:32 17.9 C 4.12 g/m*3 17.9 C 0 km/h
457 23-04-2009 19:19:31 18.1 C 4.17 g/m*3 18.1 C 0 km/h
458 23-04-2009 19:31:32 16.6 C 4.1 g/m*3 16.6 C 0 km/h
459 23-04-2009 19:43:33 15.4 C 4.2 g/m*3 15.4 C 0 km/h
460 23-04-2009 19:55:31 14.3 C 4.55 g/m*3 14.3 C 0 km/h
461 23-04-2009 20:07:31 14 C 4.58 g/m*3 14 C 0 km/h
462 23-04-2009 20:19:31 13.5 C 4.68 g/m*3 13.5 C 0 km/h
463 23-04-2009 20:31:31 13.4 C 4.65 g/m*3 13.4 C 0 km/h
464 23-04-2009 20:43:31 13.2 C 4.59 g/m*3 13.2 C 0 km/h
465 23-04-2009 20:55:30 12.6 C 4.76 g/m*3 12.6 C 0 km/h
466 23-04-2009 21:07:31 12.2 C 4.75 g/m*3 12.2 C 0 km/h
467 23-04-2009 21:19:30 12.1 C 4.93 g/m*3 12.1 C 0 km/h
468 23-04-2009 21:31:31 11.8 C 5.16 g/m*3 11.8 C 0 km/h
469 23-04-2009 21:43:32 11.7 C 5.23 g/m*3 11.7 C 0 km/h
470 23-04-2009 21:55:30 11.2 C 5.17 g/m*3 11.2 C 0 km/h
471 23-04-2009 22:07:30 11.2 C 5.27 g/m*3 11.2 C 0 km/h
472 23-04-2009 22:19:30 11 C 5.2 g/m*3 11 C 0 km/h
473 23-04-2009 22:32:31 10.5 C 5.24 g/m*3 10.5 C 0 km/h
474 23-04-2009 22:44:31 10.4 C 5.4 g/m*3 10.4 C 0 km/h
475 23-04-2009 22:56:31 10.1 C 5.39 g/m*3 10.1 C 0 km/h
Sensor: Nr:Datum:Temp:Abs-Feuchte:Windchill:Wind:
Aussen-T/F 476 23-04-2009 23:08:32 9.9 C 5.51 g/m*3 9.9 C 0 km/h
477 23-04-2009 23:20:32 9.6 C 5.5 g/m*3 9.6 C 0 km/h
478 23-04-2009 23:32:32 9.5 C 5.55 g/m*3 9.5 C 0 km/h
479 23-04-2009 23:44:32 9.3 C 5.57 g/m*3 9.3 C 0 km/h
480 23-04-2009 23:56:32 9.2 C 5.63 g/m*3 9.2 C 0 km/h
481 24-04-2009 00:08:32 9 C 5.64 g/m*3 9 C 0 km/h
482 24-04-2009 00:20:32 8.7 C 5.62 g/m*3 8.7 C 0 km/h
483 24-04-2009 00:32:32 8.6 C 5.67 g/m*3 8.6 C 0 km/h
484 24-04-2009 00:44:32 8.5 C 5.72 g/m*3 8.5 C 0 km/h
485 24-04-2009 00:56:32 8.3 C 5.82 g/m*3 8.3 C 0 km/h
486 24-04-2009 01:08:32 8.1 C 5.74 g/m*3 8.1 C 0 km/h
487 24-04-2009 01:20:32 7.9 C 5.75 g/m*3 7.9 C 0 km/h
488 24-04-2009 01:32:32 8.1 C 5.82 g/m*3 8.1 C 0 km/h
489 24-04-2009 01:44:32 8.3 C 5.98 g/m*3 8.3 C 0 km/h
490 24-04-2009 01:56:32 8.2 C 6.03 g/m*3 8.2 C 0 km/h
491 24-04-2009 02:08:32 8.1 C 5.91 g/m*3 8.1 C 0 km/h
492 24-04-2009 02:20:32 8.1 C 5.99 g/m*3 8.1 C 0 km/h
493 24-04-2009 02:32:32 8.2 C 5.95 g/m*3 8.2 C 0 km/h
494 24-04-2009 02:44:32 7.9 C 5.91 g/m*3 7.9 C 0 km/h
495 24-04-2009 02:56:33 7.9 C 6 g/m*3 7.9 C 0 km/h
496 24-04-2009 03:08:33 8 C 5.95 g/m*3 8 C 0 km/h
497 24-04-2009 03:20:33 7.7 C 5.92 g/m*3 7.7 C 0 km/h
498 24-04-2009 03:32:33 7.3 C 5.85 g/m*3 7.3 C 0 km/h
499 24-04-2009 03:44:33 7 C 5.97 g/m*3 7 C 0 km/h
500 24-04-2009 03:56:33 6.6 C 5.96 g/m*3 6.6 C 0 km/h
Sensor: Nr:Datum:Temp:Abs-Feuchte:Windchill:Wind:
Aussen-T/F 501 24-04-2009 04:08:33 6.5 C 5.92 g/m*3 6.5 C 0 km/h
502 24-04-2009 04:20:33 6.4 C 5.96 g/m*3 6.4 C 0 km/h
503 24-04-2009 04:32:33 6.7 C 6.23 g/m*3 6.7 C 0 km/h
504 24-04-2009 04:44:33 6.9 C 6.24 g/m*3 6.9 C 0 km/h
505 24-04-2009 04:56:33 7 C 6.2 g/m*3 7 C 0 km/h
506 24-04-2009 05:08:33 6.9 C 6.24 g/m*3 6.9 C 0 km/h
507 24-04-2009 05:20:33 7 C 6.12 g/m*3 7 C 0 km/h
508 24-04-2009 05:32:33 7 C 6.12 g/m*3 7 C 0 km/h
509 24-04-2009 05:44:33 7.2 C 6.12 g/m*3 7.2 C 0 km/h
510 24-04-2009 05:56:33 7.1 C 6.01 g/m*3 7.1 C 0 km/h
511 24-04-2009 06:08:33 7 C 5.97 g/m*3 7 C 0 km/h
512 24-04-2009 06:20:33 7 C 5.97 g/m*3 7 C 0 km/h
513 24-04-2009 06:32:31 6.8 C 6.04 g/m*3 6.8 C 0 km/h
514 24-04-2009 06:44:31 6.9 C 6.08 g/m*3 6.9 C 0 km/h
515 24-04-2009 06:56:31 6.9 C 6 g/m*3 6.9 C 0 km/h
516 24-04-2009 07:08:31 6.9 C 6 g/m*3 6.9 C 0 km/h
517 24-04-2009 07:20:30 6.9 C 6 g/m*3 6.9 C 0 km/h
518 24-04-2009 07:32:31 7 C 6.04 g/m*3 7 C 0 km/h
519 24-04-2009 07:44:30 7.1 C 6.08 g/m*3 7.1 C 0 km/h
520 24-04-2009 07:56:30 7.3 C 6.16 g/m*3 7.3 C 0 km/h
521 24-04-2009 08:08:30 7.4 C 6.2 g/m*3 7.4 C 0 km/h
522 24-04-2009 08:20:30 7.6 C 6.2 g/m*3 7.6 C 0 km/h
523 24-04-2009 08:32:30 7.9 C 6.32 g/m*3 7.9 C 0 km/h
524 24-04-2009 08:44:29 8.1 C 6.16 g/m*3 8.1 C 0 km/h
525 24-04-2009 08:56:29 8.3 C 6.15 g/m*3 8.3 C 0 km/h
Sensor: Nr:Datum:Temp:Abs-Feuchte:Windchill:Wind:
Aussen-T/F 526 24-04-2009 09:08:29 8.7 C 6.23 g/m*3 8.7 C 0 km/h
527 24-04-2009 09:20:30 9.1 C 6.03 g/m*3 9.1 C 0 km/h
528 24-04-2009 09:32:29 9.5 C 6.01 g/m*3 9.5 C 0 km/h
529 24-04-2009 09:44:29 9.9 C 5.98 g/m*3 9.9 C 0 km/h
530 24-04-2009 09:56:29 10.4 C 5.98 g/m*3 10.4 C 0 km/h
531 24-04-2009 10:08:29 10.8 C 5.83 g/m*3 10.8 C 0 km/h
532 24-04-2009 10:20:29 11.3 C 5.81 g/m*3 11.3 C 0 km/h
533 24-04-2009 10:32:29 11.8 C 5.79 g/m*3 11.8 C 0 km/h
534 24-04-2009 10:44:29 12.4 C 5.68 g/m*3 12.4 C 0 km/h
535 24-04-2009 10:56:29 13 C 5.44 g/m*3 13 C 0 km/h
536 24-04-2009 11:08:29 13.3 C 5.31 g/m*3 13.3 C 0 km/h
537 24-04-2009 11:20:28 13.8 C 5.36 g/m*3 13.8 C 0 km/h
538 24-04-2009 11:32:28 14.3 C 5.41 g/m*3 14.3 C 0 km/h
539 24-04-2009 11:44:28 14.8 C 5.32 g/m*3 14.8 C 0 km/h
540 24-04-2009 11:56:28 15.3 C 5.09 g/m*3 15.3 C 0 km/h
541 24-04-2009 12:08:28 15.5 C 5.02 g/m*3 15.5 C 0 km/h
542 24-04-2009 12:20:27 15.6 C 4.79 g/m*3 15.6 C 0 km/h
543 24-04-2009 12:32:28 16.2 C 4.83 g/m*3 16.2 C 0 km/h
544 24-04-2009 12:44:27 16.8 C 4.72 g/m*3 16.8 C 0 km/h
545 24-04-2009 12:56:27 17.4 C 4.45 g/m*3 17.4 C 0 km/h
546 24-04-2009 13:08:27 18.3 C 3.91 g/m*3 18.3 C 0 km/h
547 24-04-2009 13:20:28 19.2 C 3.3 g/m*3 19.2 C 0 km/h
548 24-04-2009 13:32:27 19.6 C 3.38 g/m*3 19.6 C 0 km/h
549 24-04-2009 13:44:27 19.6 C 3.38 g/m*3 19.6 C 0 km/h
550 24-04-2009 13:56:27 19.5 C 3.36 g/m*3 19.5 C 0 km/h
Sensor: Nr:Datum:Temp:Abs-Feuchte:Windchill:Wind:
Aussen-T/F 551 24-04-2009 14:08:27 19.9 C 3.44 g/m*3 19.9 C 0 km/h
552 24-04-2009 14:20:27 20.6 C 3.58 g/m*3 20.6 C 0 km/h
553 24-04-2009 14:32:26 21 C 3.66 g/m*3 21 C 0 km/h
554 24-04-2009 14:44:26 20.8 C 3.62 g/m*3 20.8 C 0 km/h
555 24-04-2009 14:56:26 21 C 3.66 g/m*3 21 C 0 km/h
556 24-04-2009 15:08:26 21.8 C 3.84 g/m*3 21.8 C 0 km/h
557 24-04-2009 15:20:26 22.3 C 3.95 g/m*3 22.3 C 0 km/h
558 24-04-2009 15:32:26 22.8 C 4.06 g/m*3 22.8 C 0 km/h
559 24-04-2009 15:44:26 22.9 C 4.09 g/m*3 22.9 C 0 km/h
560 24-04-2009 15:56:26 23.7 C 4.28 g/m*3 23.7 C 0 km/h
561 24-04-2009 16:08:26 23.1 C 4.13 g/m*3 23.1 C 0 km/h
562 24-04-2009 16:20:25 24.2 C 4.4 g/m*3 24.2 C 0 km/h
563 24-04-2009 16:32:25 24 C 4.35 g/m*3 24 C 0 km/h
564 24-04-2009 16:44:25 24.4 C 4.45 g/m*3 24.4 C 0 km/h
565 24-04-2009 16:56:25 23.6 C 4.25 g/m*3 23.6 C 0 km/h
566 24-04-2009 17:08:25 23.6 C 4.25 g/m*3 23.6 C 0 km/h
567 24-04-2009 17:20:24 24.1 C 4.38 g/m*3 24.1 C 0 km/h
568 24-04-2009 17:32:25 24.2 C 4.4 g/m*3 24.2 C 0 km/h
569 24-04-2009 17:44:24 24.4 C 4.45 g/m*3 24.4 C 0 km/h
570 24-04-2009 17:56:24 24.5 C 4.48 g/m*3 24.5 C 0 km/h
571 24-04-2009 18:08:24 24.8 C 4.55 g/m*3 24.8 C 0 km/h
572 24-04-2009 18:20:25 24.2 C 4.4 g/m*3 24.2 C 0 km/h
573 24-04-2009 18:32:24 24.2 C 4.4 g/m*3 24.2 C 0 km/h
574 24-04-2009 18:44:24 24.5 C 4.48 g/m*3 24.5 C 0 km/h
575 24-04-2009 18:56:24 24.4 C 4.45 g/m*3 24.4 C 0 km/h
Sensor: Nr:Datum:Temp:Abs-Feuchte:Windchill:Wind:
Aussen-T/F 576 24-04-2009 19:08:24 24.1 C 4.38 g/m*3 24.1 C 0 km/h
577 24-04-2009 19:20:24 24.1 C 4.38 g/m*3 24.1 C 0 km/h
578 24-04-2009 19:32:23 22.9 C 4.09 g/m*3 22.9 C 0 km/h
579 24-04-2009 19:44:24 22.7 C 4.04 g/m*3 22.7 C 0 km/h
580 24-04-2009 19:56:24 22.2 C 4.32 g/m*3 22.2 C 0 km/h
581 24-04-2009 20:08:23 20.9 C 4.55 g/m*3 20.9 C 0 km/h
582 24-04-2009 20:20:23 19.6 C 4.9 g/m*3 19.6 C 0 km/h
583 24-04-2009 20:32:23 18.4 C 4.88 g/m*3 18.4 C 0 km/h
584 24-04-2009 20:44:23 17.3 C 4.86 g/m*3 17.3 C 0 km/h
585 24-04-2009 20:56:23 16.6 C 4.94 g/m*3 16.6 C 0 km/h
586 24-04-2009 21:08:23 15.9 C 5.01 g/m*3 15.9 C 0 km/h
587 24-04-2009 21:20:23 15.4 C 4.99 g/m*3 15.4 C 0 km/h
588 24-04-2009 21:32:22 15.1 C 5.16 g/m*3 15.1 C 0 km/h
589 24-04-2009 21:44:22 15 C 5.13 g/m*3 15 C 0 km/h
590 24-04-2009 21:56:22 14.8 C 5.19 g/m*3 14.8 C 0 km/h
591 24-04-2009 22:09:22 14.5 C 5.22 g/m*3 14.5 C 0 km/h
592 24-04-2009 22:21:22 14.2 C 5.25 g/m*3 14.2 C 0 km/h
593 24-04-2009 22:33:22 14.1 C 5.46 g/m*3 14.1 C 0 km/h
594 24-04-2009 22:45:23 14 C 5.31 g/m*3 14 C 0 km/h
595 24-04-2009 22:57:23 13.7 C 5.33 g/m*3 13.7 C 0 km/h
596 24-04-2009 23:09:23 13.3 C 5.43 g/m*3 13.3 C 0 km/h
597 24-04-2009 23:21:23 13.1 C 5.48 g/m*3 13.1 C 0 km/h
598 24-04-2009 23:33:23 13.1 C 5.71 g/m*3 13.1 C 0 km/h
599 24-04-2009 23:45:23 12.8 C 5.82 g/m*3 12.8 C 0 km/h
600 24-04-2009 23:57:23 12.4 C 5.79 g/m*3 12.4 C 0 km/h
Sensor: Nr:Datum:Temp:Abs-Feuchte:Windchill:Wind:
Aussen-T/F 601 25-04-2009 00:09:23 12.2 C 5.83 g/m*3 12.2 C 0 km/h
602 25-04-2009 00:21:23 11.9 C 6.04 g/m*3 11.9 C 0 km/h
603 25-04-2009 00:33:23 11.4 C 6.06 g/m*3 11.4 C 0 km/h
604 25-04-2009 00:45:23 11.3 C 6.12 g/m*3 11.3 C 0 km/h
605 25-04-2009 00:57:23 11 C 6.01 g/m*3 11 C 0 km/h
606 25-04-2009 01:09:23 10.9 C 6.07 g/m*3 10.9 C 0 km/h
607 25-04-2009 01:21:23 10.7 C 6.09 g/m*3 10.7 C 0 km/h
608 25-04-2009 01:33:23 10.4 C 6.07 g/m*3 10.4 C 0 km/h
609 25-04-2009 01:45:23 10.3 C 6.03 g/m*3 10.3 C 0 km/h
610 25-04-2009 01:57:23 10.1 C 6.05 g/m*3 10.1 C 0 km/h
611 25-04-2009 02:09:23 9.8 C 6.12 g/m*3 9.8 C 0 km/h
612 25-04-2009 02:21:23 9.6 C 6.05 g/m*3 9.6 C 0 km/h
613 25-04-2009 02:33:23 9.4 C 6.15 g/m*3 9.4 C 0 km/h
614 25-04-2009 02:45:24 9.1 C 6.12 g/m*3 9.1 C 0 km/h
615 25-04-2009 02:57:24 8.9 C 6.22 g/m*3 8.9 C 0 km/h
616 25-04-2009 03:09:24 8.7 C 6.14 g/m*3 8.7 C 0 km/h
617 25-04-2009 03:21:24 8.6 C 6.1 g/m*3 8.6 C 0 km/h
618 25-04-2009 03:33:24 8.4 C 6.11 g/m*3 8.4 C 0 km/h
619 25-04-2009 03:45:24 8.4 C 6.11 g/m*3 8.4 C 0 km/h
620 25-04-2009 03:57:24 8.1 C 6.07 g/m*3 8.1 C 0 km/h
621 25-04-2009 04:09:24 8.2 C 6.2 g/m*3 8.2 C 0 km/h
622 25-04-2009 04:21:24 8.1 C 6.57 g/m*3 8.1 C 0 km/h
623 25-04-2009 04:33:24 7.8 C 6.86 g/m*3 7.8 C 0 km/h
624 25-04-2009 04:45:24 7.3 C 6.79 g/m*3 7.3 C 0 km/h
625 25-04-2009 04:57:24 7.4 C 6.92 g/m*3 7.4 C 0 km/h
Sensor: Nr:Datum:Temp:Abs-Feuchte:Windchill:Wind:
Aussen-T/F 626 25-04-2009 05:09:24 7.3 C 6.87 g/m*3 7.3 C 0 km/h
627 25-04-2009 05:21:24 7.4 C 7 g/m*3 7.4 C 0 km/h
628 25-04-2009 05:33:24 7.2 C 6.91 g/m*3 7.2 C 0 km/h
629 25-04-2009 05:45:24 6.9 C 6.77 g/m*3 6.9 C 0 km/h
630 25-04-2009 05:57:24 6.9 C 6.77 g/m*3 6.9 C 0 km/h
631 25-04-2009 06:09:24 6.6 C 6.64 g/m*3 6.6 C 0 km/h
632 25-04-2009 06:21:24 6.5 C 6.6 g/m*3 6.5 C 0 km/h
633 25-04-2009 06:33:24 6.4 C 6.56 g/m*3 6.4 C 0 km/h
634 25-04-2009 06:45:24 6.4 C 6.56 g/m*3 6.4 C 0 km/h
635 25-04-2009 06:57:25 6.3 C 6.51 g/m*3 6.3 C 0 km/h
636 25-04-2009 07:09:25 6.3 C 6.51 g/m*3 6.3 C 0 km/h
637 25-04-2009 07:21:22 6.4 C 6.63 g/m*3 6.4 C 0 km/h
638 25-04-2009 07:33:22 6.5 C 6.67 g/m*3 6.5 C 0 km/h
639 25-04-2009 07:45:21 6.7 C 6.76 g/m*3 6.7 C 0 km/h
640 25-04-2009 07:57:21 7 C 6.82 g/m*3 7 C 0 km/h
641 25-04-2009 08:09:22 7.1 C 6.94 g/m*3 7.1 C 0 km/h
642 25-04-2009 08:21:21 7.5 C 7.12 g/m*3 7.5 C 0 km/h
643 25-04-2009 08:33:21 7.7 C 7.22 g/m*3 7.7 C 0 km/h
644 25-04-2009 08:45:21 8 C 7.28 g/m*3 8 C 0 km/h
645 25-04-2009 08:57:21 8.5 C 7.51 g/m*3 8.5 C 0 km/h
646 25-04-2009 09:09:20 8.9 C 7.62 g/m*3 8.9 C 0 km/h
647 25-04-2009 09:21:21 9.6 C 7.88 g/m*3 9.6 C 0 km/h
648 25-04-2009 09:33:20 10.4 C 8.1 g/m*3 10.4 C 0 km/h
649 25-04-2009 09:45:20 11.3 C 8.16 g/m*3 11.3 C 0 km/h
650 25-04-2009 09:57:20 12.1 C 8.26 g/m*3 12.1 C 0 km/h
Sensor: Nr:Datum:Temp:Abs-Feuchte:Windchill:Wind:
Aussen-T/F 651 25-04-2009 10:09:20 13 C 7.94 g/m*3 13 C 0 km/h
652 25-04-2009 10:21:20 14.1 C 6.67 g/m*3 14.1 C 0 km/h
653 25-04-2009 10:33:20 15.3 C 6.01 g/m*3 15.3 C 0 km/h
654 25-04-2009 10:45:20 15.8 C 6.06 g/m*3 15.8 C 0 km/h
655 25-04-2009 10:57:20 16.3 C 5.97 g/m*3 16.3 C 0 km/h
656 25-04-2009 11:09:20 16.9 C 6.04 g/m*3 16.9 C 0 km/h
657 25-04-2009 11:21:19 16.6 C 6.07 g/m*3 16.6 C 0 km/h
658 25-04-2009 11:33:19 16.6 C 6.22 g/m*3 16.6 C 0 km/h
659 25-04-2009 11:45:19 16.3 C 6.24 g/m*3 16.3 C 0 km/h
660 25-04-2009 11:57:19 17.3 C 6.33 g/m*3 17.3 C 0 km/h
661 25-04-2009 12:09:19 17.8 C 6.37 g/m*3 17.8 C 0 km/h
662 25-04-2009 12:21:18 17.6 C 6.45 g/m*3 17.6 C 0 km/h
663 25-04-2009 12:33:19 18.1 C 6.49 g/m*3 18.1 C 0 km/h
664 25-04-2009 12:45:19 18.3 C 6.41 g/m*3 18.3 C 0 km/h
665 25-04-2009 12:57:19 18.5 C 6.49 g/m*3 18.5 C 0 km/h
666 25-04-2009 13:09:18 18.8 C 6.44 g/m*3 18.8 C 0 km/h
667 25-04-2009 13:21:19 18.9 C 6.32 g/m*3 18.9 C 0 km/h
668 25-04-2009 13:33:18 19.5 C 6.38 g/m*3 19.5 C 0 km/h
669 25-04-2009 13:45:18 19.6 C 6.42 g/m*3 19.6 C 0 km/h
670 25-04-2009 13:57:18 19.9 C 6.53 g/m*3 19.9 C 0 km/h
671 25-04-2009 14:09:18 20.3 C 6.51 g/m*3 20.3 C 0 km/h
672 25-04-2009 14:21:18 20.3 C 6.51 g/m*3 20.3 C 0 km/h
673 25-04-2009 14:33:17 20.9 C 6.74 g/m*3 20.9 C 0 km/h
674 25-04-2009 14:45:17 20.7 C 6.48 g/m*3 20.7 C 0 km/h
675 25-04-2009 14:57:17 19.9 C 6.36 g/m*3 19.9 C 0 km/h
Sensor: Nr:Datum:Temp:Abs-Feuchte:Windchill:Wind:
Aussen-T/F 676 25-04-2009 15:09:17 19.5 C 6.55 g/m*3 19.5 C 0 km/h
677 25-04-2009 15:21:17 19.9 C 6.53 g/m*3 19.9 C 0 km/h
678 25-04-2009 15:33:17 20.8 C 6.34 g/m*3 20.8 C 0 km/h
679 25-04-2009 15:45:17 21.7 C 6.29 g/m*3 21.7 C 0 km/h
680 25-04-2009 15:57:17 21.8 C 6.14 g/m*3 21.8 C 0 km/h
681 25-04-2009 16:09:17 21.5 C 6.03 g/m*3 21.5 C 0 km/h
682 25-04-2009 16:21:16 21.6 C 6.07 g/m*3 21.6 C 0 km/h
683 25-04-2009 16:33:16 22 C 6.02 g/m*3 22 C 0 km/h
684 25-04-2009 16:45:16 21 C 6.23 g/m*3 21 C 0 km/h
685 25-04-2009 16:57:16 20.9 C 6.37 g/m*3 20.9 C 0 km/h
686 25-04-2009 17:09:16 20.9 C 6.56 g/m*3 20.9 C 0 km/h
687 25-04-2009 17:21:15 20.6 C 6.44 g/m*3 20.6 C 0 km/h
688 25-04-2009 17:33:16 21.4 C 6.37 g/m*3 21.4 C 0 km/h
689 25-04-2009 17:45:16 22.1 C 6.05 g/m*3 22.1 C 0 km/h
690 25-04-2009 17:57:16 22.7 C 6.26 g/m*3 22.7 C 0 km/h
691 25-04-2009 18:09:15 22.4 C 6.16 g/m*3 22.4 C 0 km/h
692 25-04-2009 18:21:16 22.7 C 6.26 g/m*3 22.7 C 0 km/h
693 25-04-2009 18:33:15 22.4 C 6.16 g/m*3 22.4 C 0 km/h
694 25-04-2009 18:45:15 22.9 C 6.34 g/m*3 22.9 C 0 km/h
695 25-04-2009 18:57:15 22.6 C 6.03 g/m*3 22.6 C 0 km/h
696 25-04-2009 19:09:15 23.2 C 6.24 g/m*3 23.2 C 0 km/h
697 25-04-2009 19:21:15 23.7 C 6.42 g/m*3 23.7 C 0 km/h
698 25-04-2009 19:33:15 23.2 C 6.24 g/m*3 23.2 C 0 km/h
699 25-04-2009 19:45:15 22.2 C 6.87 g/m*3 22.2 C 0 km/h
700 25-04-2009 19:57:15 21.2 C 7.04 g/m*3 21.2 C 0 km/h
Sensor: Nr:Datum:Temp:Abs-Feuchte:Windchill:Wind:
Aussen-T/F 701 25-04-2009 20:09:14 20.2 C 7.17 g/m*3 20.2 C 0 km/h
702 25-04-2009 20:21:14 19.3 C 7.3 g/m*3 19.3 C 0 km/h
703 25-04-2009 20:33:14 18.6 C 7.48 g/m*3 18.6 C 0 km/h
704 25-04-2009 20:45:14 18.2 C 7.46 g/m*3 18.2 C 0 km/h
705 25-04-2009 20:57:14 17.6 C 7.35 g/m*3 17.6 C 0 km/h
706 25-04-2009 21:09:14 17.2 C 7.32 g/m*3 17.2 C 0 km/h
707 25-04-2009 21:21:14 17 C 7.52 g/m*3 17 C 0 km/h
708 25-04-2009 21:33:13 17 C 7.52 g/m*3 17 C 0 km/h
709 25-04-2009 21:45:14 17 C 7.52 g/m*3 17 C 0 km/h
710 25-04-2009 21:57:14 17 C 7.52 g/m*3 17 C 0 km/h
711 25-04-2009 22:10:14 16.5 C 7.58 g/m*3 16.5 C 0 km/h
712 25-04-2009 22:22:14 16.4 C 7.54 g/m*3 16.4 C 0 km/h
713 25-04-2009 22:34:14 16.1 C 7.54 g/m*3 16.1 C 0 km/h
714 25-04-2009 22:46:14 16.1 C 7.54 g/m*3 16.1 C 0 km/h
715 25-04-2009 22:58:14 16 C 7.63 g/m*3 16 C 0 km/h
716 25-04-2009 23:10:14 15.6 C 7.98 g/m*3 15.6 C 0 km/h
717 25-04-2009 23:22:14 15.1 C 7.87 g/m*3 15.1 C 0 km/h
718 25-04-2009 23:34:14 14.9 C 7.9 g/m*3 14.9 C 0 km/h
719 25-04-2009 23:46:15 15 C 7.82 g/m*3 15 C 0 km/h
720 25-04-2009 23:58:15 14.9 C 8.03 g/m*3 14.9 C 0 km/h
721 26-04-2009 00:10:15 14.8 C 7.98 g/m*3 14.8 C 0 km/h
722 26-04-2009 00:22:15 14.9 C 8.16 g/m*3 14.9 C 0 km/h
723 26-04-2009 00:34:15 14.8 C 8.11 g/m*3 14.8 C 0 km/h
724 26-04-2009 00:46:15 14.8 C 8.23 g/m*3 14.8 C 0 km/h
725 26-04-2009 00:58:15 14.7 C 8.18 g/m*3 14.7 C 0 km/h
Sensor: Nr:Datum:Temp:Abs-Feuchte:Windchill:Wind:
Aussen-T/F 726 26-04-2009 01:10:15 14.2 C 8.06 g/m*3 14.2 C 0 km/h
727 26-04-2009 01:22:15 14 C 8.08 g/m*3 14 C 0 km/h
728 26-04-2009 01:34:15 14 C 8.2 g/m*3 14 C 0 km/h
729 26-04-2009 01:46:15 14.1 C 8.25 g/m*3 14.1 C 0 km/h
730 26-04-2009 01:58:15 14 C 8.08 g/m*3 14 C 0 km/h
731 26-04-2009 02:10:15 14.1 C 8.25 g/m*3 14.1 C 0 km/h
732 26-04-2009 02:22:15 14 C 8.2 g/m*3 14 C 0 km/h
733 26-04-2009 02:34:15 14 C 8.2 g/m*3 14 C 0 km/h
734 26-04-2009 02:46:15 14 C 8.08 g/m*3 14 C 0 km/h
735 26-04-2009 02:58:15 13.9 C 8.15 g/m*3 13.9 C 0 km/h
736 26-04-2009 03:10:15 13.8 C 8.22 g/m*3 13.8 C 0 km/h
737 26-04-2009 03:22:15 13.7 C 8.17 g/m*3 13.7 C 0 km/h
738 26-04-2009 03:34:15 13.6 C 8.12 g/m*3 13.6 C 0 km/h
739 26-04-2009 03:46:16 13.5 C 8.07 g/m*3 13.5 C 0 km/h
740 26-04-2009 03:58:16 13.4 C 8.14 g/m*3 13.4 C 0 km/h
741 26-04-2009 04:10:16 13.4 C 8.25 g/m*3 13.4 C 0 km/h
742 26-04-2009 04:22:16 13.3 C 8.2 g/m*3 13.3 C 0 km/h
743 26-04-2009 04:34:16 13.2 C 8.15 g/m*3 13.2 C 0 km/h
744 26-04-2009 04:46:16 13 C 8.05 g/m*3 13 C 0 km/h
745 26-04-2009 04:58:16 13.1 C 8.22 g/m*3 13.1 C 0 km/h
746 26-04-2009 05:10:16 13 C 8.17 g/m*3 13 C 0 km/h
747 26-04-2009 05:22:16 12.9 C 8.23 g/m*3 12.9 C 0 km/h
748 26-04-2009 05:34:16 12.8 C 8.29 g/m*3 12.8 C 0 km/h
749 26-04-2009 05:46:16 12.8 C 8.18 g/m*3 12.8 C 0 km/h
750 26-04-2009 05:58:16 12.6 C 8.19 g/m*3 12.6 C 0 km/h
Sensor: Nr:Datum:Temp:Abs-Feuchte:Windchill:Wind:
Aussen-T/F 751 26-04-2009 06:10:16 12.4 C 8.09 g/m*3 12.4 C 0 km/h
752 26-04-2009 06:22:16 12.2 C 8.2 g/m*3 12.2 C 0 km/h
753 26-04-2009 06:34:16 12 C 8.1 g/m*3 12 C 0 km/h
754 26-04-2009 06:46:15 11.9 C 8.26 g/m*3 11.9 C 0 km/h
755 26-04-2009 06:58:15 11.7 C 8.37 g/m*3 11.7 C 0 km/h
756 26-04-2009 07:10:14 11.8 C 8.42 g/m*3 11.8 C 0 km/h
757 26-04-2009 07:22:14 11.8 C 8.42 g/m*3 11.8 C 0 km/h
758 26-04-2009 07:34:14 11.8 C 8.42 g/m*3 11.8 C 0 km/h
759 26-04-2009 07:46:14 12.2 C 8.63 g/m*3 12.2 C 0 km/h
760 26-04-2009 07:58:14 12.3 C 8.58 g/m*3 12.3 C 0 km/h
761 26-04-2009 08:10:13 12.6 C 8.63 g/m*3 12.6 C 0 km/h
762 26-04-2009 08:22:14 12.9 C 8.68 g/m*3 12.9 C 0 km/h
763 26-04-2009 08:34:13 13.3 C 8.78 g/m*3 13.3 C 0 km/h
764 26-04-2009 08:46:14 13.6 C 8.71 g/m*3 13.6 C 0 km/h
765 26-04-2009 08:58:14 14.2 C 8.55 g/m*3 14.2 C 0 km/h
766 26-04-2009 09:10:13 14.9 C 8.54 g/m*3 14.9 C 0 km/h
767 26-04-2009 09:22:13 15.1 C 8.39 g/m*3 15.1 C 0 km/h
768 26-04-2009 09:34:13 15.9 C 8.53 g/m*3 15.9 C 0 km/h
769 26-04-2009 09:46:13 16.4 C 8.23 g/m*3 16.4 C 0 km/h
770 26-04-2009 09:58:13 16.8 C 8.29 g/m*3 16.8 C 0 km/h
771 26-04-2009 10:10:12 17.2 C 8.05 g/m*3 17.2 C 0 km/h
772 26-04-2009 10:22:13 17.2 C 8.05 g/m*3 17.2 C 0 km/h
773 26-04-2009 10:34:13 17.5 C 8.2 g/m*3 17.5 C 0 km/h
774 26-04-2009 10:46:12 17.1 C 8.01 g/m*3 17.1 C 0 km/h
775 26-04-2009 10:58:12 17.7 C 8.3 g/m*3 17.7 C 0 km/h
Sensor: Nr:Datum:Temp:Abs-Feuchte:Windchill:Wind:
Aussen-T/F 776 26-04-2009 11:10:12 17.8 C 8.2 g/m*3 17.8 C 0 km/h
777 26-04-2009 11:22:12 18.4 C 8.18 g/m*3 18.4 C 0 km/h
778 26-04-2009 11:34:12 19.1 C 7.54 g/m*3 19.1 C 0 km/h
779 26-04-2009 11:46:11 20.1 C 7.47 g/m*3 20.1 C 0 km/h
780 26-04-2009 11:58:11 20.4 C 7.08 g/m*3 20.4 C 0 km/h
781 26-04-2009 12:10:12 20.5 C 6.94 g/m*3 20.5 C 0 km/h
782 26-04-2009 12:22:11 21.1 C 6.82 g/m*3 21.1 C 0 km/h
783 26-04-2009 12:34:11 21.8 C 6.72 g/m*3 21.8 C 0 km/h
784 26-04-2009 12:46:11 22.3 C 6.52 g/m*3 22.3 C 0 km/h
785 26-04-2009 12:58:11 22 C 6.21 g/m*3 22 C 0 km/h
786 26-04-2009 13:10:11 22.6 C 6.63 g/m*3 22.6 C 0 km/h
787 26-04-2009 13:22:11 23.5 C 6.34 g/m*3 23.5 C 0 km/h
788 26-04-2009 13:34:10 24.3 C 6.2 g/m*3 24.3 C 0 km/h
789 26-04-2009 13:46:11 24.1 C 5.91 g/m*3 24.1 C 0 km/h
790 26-04-2009 13:58:11 24.3 C 6.2 g/m*3 24.3 C 0 km/h
791 26-04-2009 14:10:10 22.8 C 5.49 g/m*3 22.8 C 0 km/h
792 26-04-2009 14:22:10 23.9 C 5.62 g/m*3 23.9 C 0 km/h
793 26-04-2009 14:34:10 24.6 C 5.85 g/m*3 24.6 C 0 km/h
794 26-04-2009 14:46:10 25.4 C 5.89 g/m*3 25.4 C 0 km/h
795 26-04-2009 14:58:11 25.5 C 5.68 g/m*3 25.5 C 0 km/h
796 26-04-2009 15:10:09 25.1 C 5.56 g/m*3 25.1 C 0 km/h
797 26-04-2009 15:22:10 25.2 C 5.82 g/m*3 25.2 C 0 km/h
798 26-04-2009 15:34:10 25.7 C 5.51 g/m*3 25.7 C 0 km/h
799 26-04-2009 15:46:09 24.7 C 5.66 g/m*3 24.7 C 0 km/h
800 26-04-2009 15:58:09 24 C 5.66 g/m*3 24 C 0 km/h
Sensor: Nr:Datum:Temp:Abs-Feuchte:Windchill:Wind:
Aussen-T/F 801 26-04-2009 16:10:10 23.5 C 5.71 g/m*3 23.5 C 0 km/h
802 26-04-2009 16:22:09 26 C 5.6 g/m*3 26 C 0 km/h
803 26-04-2009 16:34:09 27.5 C 5.29 g/m*3 27.5 C 0 km/h
804 26-04-2009 16:46:08 26.5 C 5.01 g/m*3 26.5 C 0 km/h
805 26-04-2009 16:58:08 27.7 C 5.35 g/m*3 27.7 C 0 km/h
806 26-04-2009 17:10:09 26.8 C 5.09 g/m*3 26.8 C 0 km/h
807 26-04-2009 17:22:08 28 C 5.44 g/m*3 28 C 0 km/h
808 26-04-2009 17:34:08 28.2 C 5.5 g/m*3 28.2 C 0 km/h
809 26-04-2009 17:46:08 29.5 C 5.9 g/m*3 29.5 C 0 km/h
810 26-04-2009 17:58:08 28.5 C 5.59 g/m*3 28.5 C 0 km/h
811 26-04-2009 18:10:08 26.7 C 5.06 g/m*3 26.7 C 0 km/h
812 26-04-2009 18:22:08 27.1 C 5.18 g/m*3 27.1 C 0 km/h
813 26-04-2009 18:34:07 26.4 C 4.98 g/m*3 26.4 C 0 km/h
814 26-04-2009 18:46:08 25.1 C 5.79 g/m*3 25.1 C 0 km/h
815 26-04-2009 18:58:08 24.1 C 5.69 g/m*3 24.1 C 0 km/h
816 26-04-2009 19:10:07 23.6 C 6.17 g/m*3 23.6 C 0 km/h
817 26-04-2009 19:22:07 22.7 C 6.26 g/m*3 22.7 C 0 km/h
818 26-04-2009 19:34:07 22.2 C 6.28 g/m*3 22.2 C 0 km/h
819 26-04-2009 19:46:07 21.8 C 6.52 g/m*3 21.8 C 0 km/h
820 26-04-2009 19:58:07 21.3 C 6.52 g/m*3 21.3 C 0 km/h
821 26-04-2009 20:10:06 21.1 C 6.63 g/m*3 21.1 C 0 km/h
822 26-04-2009 20:22:07 20.7 C 6.84 g/m*3 20.7 C 0 km/h
823 26-04-2009 20:34:07 20.2 C 6.82 g/m*3 20.2 C 0 km/h
824 26-04-2009 20:46:06 20.1 C 7.13 g/m*3 20.1 C 0 km/h
825 26-04-2009 20:58:06 19.6 C 7.09 g/m*3 19.6 C 0 km/h
Sensor: Nr:Datum:Temp:Abs-Feuchte:Windchill:Wind:
Aussen-T/F 826 26-04-2009 21:10:06 19.5 C 7.05 g/m*3 19.5 C 0 km/h
827 26-04-2009 21:22:06 19.3 C 7.13 g/m*3 19.3 C 0 km/h
828 26-04-2009 21:34:06 19.2 C 7.42 g/m*3 19.2 C 0 km/h
829 26-04-2009 21:46:06 18.8 C 7.73 g/m*3 18.8 C 0 km/h
830 26-04-2009 21:58:07 17.7 C 8.6 g/m*3 17.7 C 0 km/h
831 26-04-2009 22:10:05 16.6 C 9.46 g/m*3 16.6 C 0 km/h
832 26-04-2009 22:22:06 16.3 C 10.13 g/m*3 16.3 C 0 km/h
833 26-04-2009 22:34:06 15.9 C 9.62 g/m*3 15.9 C 0 km/h
834 26-04-2009 22:47:05 15.6 C 9.97 g/m*3 15.6 C 0 km/h
835 26-04-2009 22:59:05 15.4 C 10.25 g/m*3 15.4 C 0 km/h
836 26-04-2009 23:11:05 15.4 C 10.25 g/m*3 15.4 C 0 km/h
837 26-04-2009 23:23:05 15.6 C 10.24 g/m*3 15.6 C 0 km/h
838 26-04-2009 23:35:05 15.8 C 9.83 g/m*3 15.8 C 0 km/h
839 26-04-2009 23:47:06 16 C 9.67 g/m*3 16 C 0 km/h
840 26-04-2009 23:59:06 15.9 C 9.75 g/m*3 15.9 C 0 km/h
841 27-04-2009 00:11:06 16 C 9.67 g/m*3 16 C 0 km/h
842 27-04-2009 00:23:06 15.8 C 9.69 g/m*3 15.8 C 0 km/h
843 27-04-2009 00:35:06 15.7 C 9.63 g/m*3 15.7 C 0 km/h
844 27-04-2009 00:47:06 15.7 C 9.63 g/m*3 15.7 C 0 km/h
845 27-04-2009 00:59:06 15.7 C 9.63 g/m*3 15.7 C 0 km/h
846 27-04-2009 01:11:06 15.5 C 9.52 g/m*3 15.5 C 0 km/h
847 27-04-2009 01:23:06 15.3 C 9.53 g/m*3 15.3 C 0 km/h
848 27-04-2009 01:35:06 15 C 9.36 g/m*3 15 C 0 km/h
849 27-04-2009 01:47:06 14.9 C 9.43 g/m*3 14.9 C 0 km/h
850 27-04-2009 01:59:06 14.7 C 9.32 g/m*3 14.7 C 0 km/h
Sensor: Nr:Datum:Temp:Abs-Feuchte:Windchill:Wind:
Aussen-T/F 851 27-04-2009 02:11:06 14.5 C 9.08 g/m*3 14.5 C 0 km/h
852 27-04-2009 02:23:06 14.2 C 9.04 g/m*3 14.2 C 0 km/h
853 27-04-2009 02:35:06 14 C 8.93 g/m*3 14 C 0 km/h
854 27-04-2009 02:47:06 14.1 C 8.86 g/m*3 14.1 C 0 km/h
855 27-04-2009 02:59:06 14.1 C 8.74 g/m*3 14.1 C 0 km/h
856 27-04-2009 03:11:06 14.1 C 8.62 g/m*3 14.1 C 0 km/h
857 27-04-2009 03:23:06 14.1 C 8.5 g/m*3 14.1 C 0 km/h
858 27-04-2009 03:35:06 14.1 C 8.5 g/m*3 14.1 C 0 km/h
859 27-04-2009 03:47:07 14 C 8.32 g/m*3 14 C 0 km/h
860 27-04-2009 03:59:07 13.8 C 8.34 g/m*3 13.8 C 0 km/h
861 27-04-2009 04:11:07 14 C 8.32 g/m*3 14 C 0 km/h
862 27-04-2009 04:23:07 12.8 C 8.62 g/m*3 12.8 C 0 km/h
863 27-04-2009 04:35:07 12.6 C 9.18 g/m*3 12.6 C 0 km/h
864 27-04-2009 04:47:07 12.1 C 9.01 g/m*3 12.1 C 0 km/h
865 27-04-2009 04:59:07 11.5 C 8.99 g/m*3 11.5 C 0 km/h
866 27-04-2009 05:11:07 11.5 C 8.99 g/m*3 11.5 C 0 km/h
867 27-04-2009 05:23:07 11.8 C 9.26 g/m*3 11.8 C 0 km/h
868 27-04-2009 05:35:07 11.9 C 9.32 g/m*3 11.9 C 0 km/h
869 27-04-2009 05:47:07 11.8 C 9.16 g/m*3 11.8 C 0 km/h
870 27-04-2009 05:59:07 11.5 C 8.88 g/m*3 11.5 C 0 km/h
871 27-04-2009 06:11:07 11.3 C 8.77 g/m*3 11.3 C 0 km/h
872 27-04-2009 06:23:07 11.5 C 8.88 g/m*3 11.5 C 0 km/h
873 27-04-2009 06:35:07 11.7 C 8.99 g/m*3 11.7 C 0 km/h
874 27-04-2009 06:47:07 12 C 9.06 g/m*3 12 C 0 km/h
875 27-04-2009 06:59:07 12.1 C 9.01 g/m*3 12.1 C 0 km/h
Sensor: Nr:Datum:Temp:Abs-Feuchte:Windchill:Wind:
Aussen-T/F 876 27-04-2009 07:11:05 12.1 C 8.79 g/m*3 12.1 C 0 km/h
877 27-04-2009 07:23:05 12.2 C 8.74 g/m*3 12.2 C 0 km/h
878 27-04-2009 07:35:05 12.4 C 8.85 g/m*3 12.4 C 0 km/h
879 27-04-2009 07:47:04 12.7 C 8.68 g/m*3 12.7 C 0 km/h
880 27-04-2009 07:59:04 12.7 C 8.68 g/m*3 12.7 C 0 km/h
881 27-04-2009 08:11:05 13 C 8.51 g/m*3 13 C 0 km/h
882 27-04-2009 08:23:04 13.1 C 8.1 g/m*3 13.1 C 0 km/h
883 27-04-2009 08:35:04 13.4 C 8.14 g/m*3 13.4 C 0 km/h
884 27-04-2009 08:47:04 13.6 C 8.12 g/m*3 13.6 C 0 km/h
885 27-04-2009 08:59:04 13.5 C 7.84 g/m*3 13.5 C 0 km/h
886 27-04-2009 09:11:04 13.2 C 7.46 g/m*3 13.2 C 0 km/h
887 27-04-2009 09:23:04 13.1 C 7.53 g/m*3 13.1 C 0 km/h
888 27-04-2009 09:35:04 13.2 C 7.46 g/m*3 13.2 C 0 km/h
889 27-04-2009 09:47:03 13.4 C 7.44 g/m*3 13.4 C 0 km/h
890 27-04-2009 09:59:03 14 C 7.24 g/m*3 14 C 0 km/h
891 27-04-2009 10:11:04 14.5 C 7.09 g/m*3 14.5 C 0 km/h
892 27-04-2009 10:23:03 14.7 C 6.92 g/m*3 14.7 C 0 km/h
893 27-04-2009 10:35:03 14.4 C 6.55 g/m*3 14.4 C 0 km/h
894 27-04-2009 10:47:03 14.6 C 6.63 g/m*3 14.6 C 0 km/h
895 27-04-2009 10:59:03 14.8 C 6.46 g/m*3 14.8 C 0 km/h
896 27-04-2009 11:11:03 14.8 C 6.33 g/m*3 14.8 C 0 km/h
897 27-04-2009 11:23:02 14.9 C 6.12 g/m*3 14.9 C 0 km/h
898 27-04-2009 11:35:03 15.5 C 6.08 g/m*3 15.5 C 0 km/h
899 27-04-2009 11:47:02 14.9 C 6.12 g/m*3 14.9 C 0 km/h
900 27-04-2009 11:59:02 15.5 C 5.95 g/m*3 15.5 C 0 km/h
Sensor: Nr:Datum:Temp:Abs-Feuchte:Windchill:Wind:
Aussen-T/F 901 27-04-2009 12:11:02 15.6 C 5.72 g/m*3 15.6 C 0 km/h
902 27-04-2009 12:23:01 15.3 C 5.75 g/m*3 15.3 C 0 km/h
903 27-04-2009 12:35:02 15.4 C 5.91 g/m*3 15.4 C 0 km/h
904 27-04-2009 12:47:02 15.5 C 5.95 g/m*3 15.5 C 0 km/h
905 27-04-2009 12:59:02 15.6 C 5.98 g/m*3 15.6 C 0 km/h
906 27-04-2009 13:11:01 15.4 C 5.78 g/m*3 15.4 C 0 km/h
907 27-04-2009 13:23:02 15.4 C 5.91 g/m*3 15.4 C 0 km/h
908 27-04-2009 13:35:01 15.7 C 6.15 g/m*3 15.7 C 0 km/h
909 27-04-2009 13:47:01 16.6 C 5.93 g/m*3 16.6 C 0 km/h
910 27-04-2009 13:59:01 16.2 C 5.79 g/m*3 16.2 C 0 km/h
911 27-04-2009 14:11:01 17 C 5.93 g/m*3 17 C 0 km/h
912 27-04-2009 14:23:01 16.6 C 5.65 g/m*3 16.6 C 0 km/h
913 27-04-2009 14:35:01 16.4 C 5.58 g/m*3 16.4 C 0 km/h
914 27-04-2009 14:47:01 16.6 C 5.51 g/m*3 16.6 C 0 km/h
915 27-04-2009 14:59:01 16.6 C 5.37 g/m*3 16.6 C 0 km/h
916 27-04-2009 15:11:01 16.6 C 5.37 g/m*3 16.6 C 0 km/h
917 27-04-2009 15:23:00 16.6 C 5.65 g/m*3 16.6 C 0 km/h
918 27-04-2009 15:35:00 17 C 5.5 g/m*3 17 C 0 km/h
919 27-04-2009 15:47:00 17.1 C 5.24 g/m*3 17.1 C 0 km/h
920 27-04-2009 15:59:00 17.2 C 5.27 g/m*3 17.2 C 0 km/h
921 27-04-2009 16:11:00 18.5 C 5.38 g/m*3 18.5 C 0 km/h
922 27-04-2009 16:23:59 18 C 5.38 g/m*3 18 C 0 km/h
923 27-04-2009 16:35:00 17.4 C 5.19 g/m*3 17.4 C 0 km/h
924 27-04-2009 16:47:59 17.2 C 5.13 g/m*3 17.2 C 0 km/h
925 27-04-2009 16:59:59 17.6 C 5.25 g/m*3 17.6 C 0 km/h
Sensor: Nr:Datum:Temp:Abs-Feuchte:Windchill:Wind:
Aussen-T/F 926 27-04-2009 17:11:59 18 C 5.22 g/m*3 18 C 0 km/h
927 27-04-2009 17:23:59 19.3 C 4.98 g/m*3 19.3 C 0 km/h
928 27-04-2009 17:35:02 19.2 C 4.78 g/m*3 19.2 C 0 km/h
929 27-04-2009 17:47:01 19.3 C 4.98 g/m*3 19.3 C 0 km/h
930 27-04-2009 17:59:01 19.3 C 4.64 g/m*3 19.3 C 0 km/h
931 27-04-2009 18:11:01 19.8 C 5.12 g/m*3 19.8 C 0 km/h
932 27-04-2009 18:23:01 19.6 C 4.9 g/m*3 19.6 C 0 km/h
933 27-04-2009 18:35:01 18.4 C 5.03 g/m*3 18.4 C 0 km/h
934 27-04-2009 18:47:01 18.1 C 5.1 g/m*3 18.1 C 0 km/h
935 27-04-2009 18:59:01 18 C 4.92 g/m*3 18 C 0 km/h
936 27-04-2009 19:11:01 17.8 C 5.16 g/m*3 17.8 C 0 km/h
937 27-04-2009 19:23:00 18 C 5.07 g/m*3 18 C 0 km/h
938 27-04-2009 19:35:01 17.2 C 5.13 g/m*3 17.2 C 0 km/h
939 27-04-2009 19:47:00 16.9 C 5.32 g/m*3 16.9 C 0 km/h
940 27-04-2009 19:59:00 16.7 C 5.54 g/m*3 16.7 C 0 km/h
941 27-04-2009 20:11:00 16.2 C 5.52 g/m*3 16.2 C 0 km/h
942 27-04-2009 20:22:59 15.8 C 5.92 g/m*3 15.8 C 0 km/h
943 27-04-2009 20:35:00 15.4 C 5.91 g/m*3 15.4 C 0 km/h
944 27-04-2009 20:47:59 14.9 C 5.86 g/m*3 14.9 C 0 km/h
945 27-04-2009 20:59:59 14.3 C 5.9 g/m*3 14.3 C 0 km/h
946 27-04-2009 21:11:59 14.2 C 6.11 g/m*3 14.2 C 0 km/h
947 27-04-2009 21:23:00 14.3 C 6.14 g/m*3 14.3 C 0 km/h
948 27-04-2009 21:35:59 14.3 C 6.14 g/m*3 14.3 C 0 km/h
949 27-04-2009 21:48:01 14.1 C 6.07 g/m*3 14.1 C 0 km/h
950 27-04-2009 22:00:01 14.1 C 6.07 g/m*3 14.1 C 0 km/h
Sensor: Nr:Datum:Temp:Abs-Feuchte:Windchill:Wind:
Aussen-T/F 951 27-04-2009 22:12:01 14.1 C 6.19 g/m*3 14.1 C 0 km/h
952 27-04-2009 22:24:01 14.1 C 6.19 g/m*3 14.1 C 0 km/h
953 27-04-2009 22:36:01 13.2 C 6.89 g/m*3 13.2 C 0 km/h
954 27-04-2009 22:48:01 12.6 C 7.19 g/m*3 12.6 C 0 km/h
955 27-04-2009 23:00:01 12.5 C 7.37 g/m*3 12.5 C 0 km/h
956 27-04-2009 23:12:01 12.8 C 7.06 g/m*3 12.8 C 0 km/h
957 27-04-2009 23:24:01 12.9 C 6.99 g/m*3 12.9 C 0 km/h
958 27-04-2009 23:36:01 12.4 C 6.99 g/m*3 12.4 C 0 km/h
959 27-04-2009 23:48:01 12 C 7.25 g/m*3 12 C 0 km/h
960 28-04-2009 00:00:01 12.4 C 7.43 g/m*3 12.4 C 0 km/h
961 28-04-2009 00:12:01 12.5 C 7.48 g/m*3 12.5 C 0 km/h
962 28-04-2009 00:24:01 12.1 C 7.29 g/m*3 12.1 C 0 km/h
963 28-04-2009 00:36:01 11.5 C 7.23 g/m*3 11.5 C 0 km/h
964 28-04-2009 00:48:01 10.8 C 7.71 g/m*3 10.8 C 0 km/h
965 28-04-2009 01:00:01 10.7 C 8.05 g/m*3 10.7 C 0 km/h
966 28-04-2009 01:12:01 10.6 C 8.2 g/m*3 10.6 C 0 km/h
967 28-04-2009 01:24:01 10.5 C 8.24 g/m*3 10.5 C 0 km/h
968 28-04-2009 01:36:01 10.5 C 8.34 g/m*3 10.5 C 0 km/h
969 28-04-2009 01:48:02 10.6 C 8.49 g/m*3 10.6 C 0 km/h
970 28-04-2009 02:00:02 10.7 C 8.55 g/m*3 10.7 C 0 km/h
971 28-04-2009 02:12:02 10.7 C 8.55 g/m*3 10.7 C 0 km/h
972 28-04-2009 02:24:02 10.8 C 8.6 g/m*3 10.8 C 0 km/h
973 28-04-2009 02:36:02 10.9 C 8.65 g/m*3 10.9 C 0 km/h
974 28-04-2009 02:48:02 10.6 C 8.49 g/m*3 10.6 C 0 km/h
975 28-04-2009 03:00:02 10.5 C 8.53 g/m*3 10.5 C 0 km/h
Sensor: Nr:Datum:Temp:Abs-Feuchte:Windchill:Wind:
Aussen-T/F 976 28-04-2009 03:12:02 10.5 C 8.63 g/m*3 10.5 C 0 km/h
977 28-04-2009 03:24:02 10.6 C 8.69 g/m*3 10.6 C 0 km/h
978 28-04-2009 03:36:02 10.6 C 8.69 g/m*3 10.6 C 0 km/h
979 28-04-2009 03:48:02 10.5 C 8.63 g/m*3 10.5 C 0 km/h
980 28-04-2009 04:00:02 10.5 C 8.63 g/m*3 10.5 C 0 km/h
981 28-04-2009 04:12:02 10.4 C 8.67 g/m*3 10.4 C 0 km/h
982 28-04-2009 04:24:02 10.4 C 8.58 g/m*3 10.4 C 0 km/h
983 28-04-2009 04:36:02 10.2 C 8.56 g/m*3 10.2 C 0 km/h
984 28-04-2009 04:48:02 10.4 C 8.67 g/m*3 10.4 C 0 km/h
985 28-04-2009 05:00:02 10.2 C 8.56 g/m*3 10.2 C 0 km/h
986 28-04-2009 05:12:02 10.3 C 8.62 g/m*3 10.3 C 0 km/h
987 28-04-2009 05:24:02 10.1 C 8.51 g/m*3 10.1 C 0 km/h
988 28-04-2009 05:36:02 10.1 C 8.51 g/m*3 10.1 C 0 km/h
989 28-04-2009 05:48:03 10.2 C 8.56 g/m*3 10.2 C 0 km/h
990 28-04-2009 06:00:03 10.1 C 8.51 g/m*3 10.1 C 0 km/h
991 28-04-2009 06:12:03 10.1 C 8.61 g/m*3 10.1 C 0 km/h
992 28-04-2009 06:24:03 10 C 8.55 g/m*3 10 C 0 km/h
993 28-04-2009 06:36:00 9.9 C 8.59 g/m*3 9.9 C 0 km/h
994 28-04-2009 06:48:00 9.9 C 8.59 g/m*3 9.9 C 0 km/h
995 28-04-2009 07:00:00 10 C 8.55 g/m*3 10 C 0 km/h
996 28-04-2009 07:12:00 10.2 C 8.66 g/m*3 10.2 C 0 km/h
997 28-04-2009 07:24:00 10.2 C 8.66 g/m*3 10.2 C 0 km/h
998 28-04-2009 07:36:00 10.3 C 8.71 g/m*3 10.3 C 0 km/h
999 28-04-2009 07:48:59 10.3 C 8.71 g/m*3 10.3 C 0 km/h
1000 28-04-2009 08:00:00 10.4 C 8.77 g/m*3 10.4 C 0 km/h
Sensor: Nr:Datum:Temp:Abs-Feuchte:Windchill:Wind:
Aussen-T/F 1001 28-04-2009 08:12:01 10.5 C 8.83 g/m*3 10.5 C 0 km/h
1002 28-04-2009 08:24:59 10.5 C 8.83 g/m*3 10.5 C 0 km/h
1003 28-04-2009 08:36:59 10.8 C 8.99 g/m*3 10.8 C 0 km/h
1004 28-04-2009 08:48:59 10.9 C 9.05 g/m*3 10.9 C 0 km/h
1005 28-04-2009 09:00:59 10.9 C 9.05 g/m*3 10.9 C 0 km/h
1006 28-04-2009 09:12:59 11 C 9.01 g/m*3 11 C 0 km/h
1007 28-04-2009 09:24:59 11 C 9.01 g/m*3 11 C 0 km/h
1008 28-04-2009 09:36:58 10.8 C 8.9 g/m*3 10.8 C 0 km/h
1009 28-04-2009 09:48:59 10.8 C 8.9 g/m*3 10.8 C 0 km/h
1010 28-04-2009 10:00:58 11 C 9.01 g/m*3 11 C 0 km/h
1011 28-04-2009 10:12:58 11.1 C 9.07 g/m*3 11.1 C 0 km/h
1012 28-04-2009 10:24:58 11.1 C 9.07 g/m*3 11.1 C 0 km/h
1013 28-04-2009 10:36:58 11.5 C 9.3 g/m*3 11.5 C 0 km/h
1014 28-04-2009 10:48:58 11.4 C 9.24 g/m*3 11.4 C 0 km/h
1015 28-04-2009 11:00:57 11.5 C 9.3 g/m*3 11.5 C 0 km/h
1016 28-04-2009 11:12:57 11.2 C 9.02 g/m*3 11.2 C 0 km/h
1017 28-04-2009 11:24:58 11.3 C 9.08 g/m*3 11.3 C 0 km/h
1018 28-04-2009 11:36:58 11.5 C 9.19 g/m*3 11.5 C 0 km/h
1019 28-04-2009 11:48:57 11.6 C 9.15 g/m*3 11.6 C 0 km/h
1020 28-04-2009 12:00:58 11.9 C 9.32 g/m*3 11.9 C 0 km/h
1021 28-04-2009 12:12:58 11.6 C 9.04 g/m*3 11.6 C 0 km/h
1022 28-04-2009 12:24:57 12.1 C 9.22 g/m*3 12.1 C 0 km/h
1023 28-04-2009 12:36:57 12.2 C 9.06 g/m*3 12.2 C 0 km/h
1024 28-04-2009 12:48:57 12.6 C 9.29 g/m*3 12.6 C 0 km/h
1025 28-04-2009 13:00:57 12.8 C 9.3 g/m*3 12.8 C 0 km/h
Sensor: Nr:Datum:Temp:Abs-Feuchte:Windchill:Wind:
Aussen-T/F 1026 28-04-2009 13:12:57 12.7 C 9.24 g/m*3 12.7 C 0 km/h
1027 28-04-2009 13:24:56 12.7 C 9.02 g/m*3 12.7 C 0 km/h
1028 28-04-2009 13:36:56 11.5 C 8.47 g/m*3 11.5 C 0 km/h
1029 28-04-2009 13:48:56 10.4 C 7.9 g/m*3 10.4 C 0 km/h
1030 28-04-2009 14:00:56 10.5 C 7.95 g/m*3 10.5 C 0 km/h
1031 28-04-2009 14:12:56 10.5 C 8.05 g/m*3 10.5 C 0 km/h
1032 28-04-2009 14:24:56 10.7 C 8.05 g/m*3 10.7 C 0 km/h
1033 28-04-2009 14:36:56 11.5 C 8.06 g/m*3 11.5 C 0 km/h
1034 28-04-2009 14:48:56 11.6 C 7.8 g/m*3 11.6 C 0 km/h
1035 28-04-2009 15:00:55 11.5 C 7.64 g/m*3 11.5 C 0 km/h
1036 28-04-2009 15:12:55 11.5 C 7.44 g/m*3 11.5 C 0 km/h
1037 28-04-2009 15:24:56 11.6 C 7.48 g/m*3 11.6 C 0 km/h
1038 28-04-2009 15:36:55 11.9 C 7.52 g/m*3 11.9 C 0 km/h
1039 28-04-2009 15:48:55 11.9 C 7.52 g/m*3 11.9 C 0 km/h
1040 28-04-2009 16:00:55 12.1 C 7.4 g/m*3 12.1 C 0 km/h
1041 28-04-2009 16:12:55 12.2 C 7.34 g/m*3 12.2 C 0 km/h
1042 28-04-2009 16:24:55 12.5 C 7.26 g/m*3 12.5 C 0 km/h
1043 28-04-2009 16:36:54 13.1 C 7.07 g/m*3 13.1 C 0 km/h
1044 28-04-2009 16:48:55 13.3 C 6.82 g/m*3 13.3 C 0 km/h
1045 28-04-2009 17:00:55 13.4 C 6.74 g/m*3 13.4 C 0 km/h
1046 28-04-2009 17:12:55 13.6 C 6.59 g/m*3 13.6 C 0 km/h
1047 28-04-2009 17:24:54 13.4 C 6.39 g/m*3 13.4 C 0 km/h
1048 28-04-2009 17:36:54 13.3 C 6.47 g/m*3 13.3 C 0 km/h
1049 28-04-2009 17:48:54 13.4 C 6.51 g/m*3 13.4 C 0 km/h
1050 28-04-2009 18:00:54 13.2 C 6.09 g/m*3 13.2 C 0 km/h
Sensor: Nr:Datum:Temp:Abs-Feuchte:Windchill:Wind:
Aussen-T/F 1051 28-04-2009 18:12:54 13.2 C 6.2 g/m*3 13.2 C 0 km/h
1052 28-04-2009 18:24:53 12.9 C 5.97 g/m*3 12.9 C 0 km/h
1053 28-04-2009 18:36:54 13 C 6.12 g/m*3 13 C 0 km/h
1054 28-04-2009 18:48:53 13.1 C 6.28 g/m*3 13.1 C 0 km/h
1055 28-04-2009 19:00:53 12.9 C 6.2 g/m*3 12.9 C 0 km/h
1056 28-04-2009 19:12:53 12.9 C 6.88 g/m*3 12.9 C 0 km/h
1057 28-04-2009 19:24:53 12.8 C 7.17 g/m*3 12.8 C 0 km/h
1058 28-04-2009 19:36:53 12.8 C 7.17 g/m*3 12.8 C 0 km/h
1059 28-04-2009 19:48:52 12.7 C 7.01 g/m*3 12.7 C 0 km/h
1060 28-04-2009 20:00:53 12.6 C 7.08 g/m*3 12.6 C 0 km/h
1061 28-04-2009 20:12:53 12.5 C 7.04 g/m*3 12.5 C 0 km/h
1062 28-04-2009 20:24:53 11.6 C 6.96 g/m*3 11.6 C 0 km/h
1063 28-04-2009 20:36:52 10.8 C 6.92 g/m*3 10.8 C 0 km/h
1064 28-04-2009 20:48:53 10.1 C 6.71 g/m*3 10.1 C 0 km/h
1065 28-04-2009 21:00:52 9.6 C 6.69 g/m*3 9.6 C 0 km/h
1066 28-04-2009 21:12:52 9.2 C 6.79 g/m*3 9.2 C 0 km/h
1067 28-04-2009 21:24:52 9.1 C 6.83 g/m*3 9.1 C 0 km/h
1068 28-04-2009 21:36:52 9.2 C 6.88 g/m*3 9.2 C 0 km/h
1069 28-04-2009 21:49:53 9.3 C 6.92 g/m*3 9.3 C 0 km/h
1070 28-04-2009 22:01:53 9.2 C 6.88 g/m*3 9.2 C 0 km/h
1071 28-04-2009 22:13:53 9.1 C 7.01 g/m*3 9.1 C 0 km/h
1072 28-04-2009 22:25:53 9 C 6.96 g/m*3 9 C 0 km/h
1073 28-04-2009 22:37:53 8.9 C 7.01 g/m*3 8.9 C 0 km/h
1074 28-04-2009 22:49:53 8.6 C 6.87 g/m*3 8.6 C 0 km/h
1075 28-04-2009 23:01:53 8.7 C 6.92 g/m*3 8.7 C 0 km/h
Sensor: Nr:Datum:Temp:Abs-Feuchte:Windchill:Wind:
Aussen-T/F 1076 28-04-2009 23:13:53 8.8 C 6.96 g/m*3 8.8 C 0 km/h
1077 28-04-2009 23:25:53 8.9 C 7.01 g/m*3 8.9 C 0 km/h
1078 28-04-2009 23:37:53 8.8 C 6.96 g/m*3 8.8 C 0 km/h
1079 28-04-2009 23:49:53 8.7 C 6.92 g/m*3 8.7 C 0 km/h
1080 29-04-2009 00:01:53 8.6 C 6.96 g/m*3 8.6 C 0 km/h
1081 29-04-2009 00:13:53 8.6 C 6.96 g/m*3 8.6 C 0 km/h
1082 29-04-2009 00:25:53 8.6 C 7.05 g/m*3 8.6 C 0 km/h
1083 29-04-2009 00:37:53 8.5 C 7 g/m*3 8.5 C 0 km/h
1084 29-04-2009 00:49:54 8.4 C 7.04 g/m*3 8.4 C 0 km/h
1085 29-04-2009 01:01:54 8.4 C 7.04 g/m*3 8.4 C 0 km/h
1086 29-04-2009 01:13:54 8.3 C 7 g/m*3 8.3 C 0 km/h
1087 29-04-2009 01:25:54 8.2 C 6.95 g/m*3 8.2 C 0 km/h
1088 29-04-2009 01:37:54 8.1 C 6.91 g/m*3 8.1 C 0 km/h
1089 29-04-2009 01:49:54 8 C 6.86 g/m*3 8 C 0 km/h
1090 29-04-2009 02:01:54 7.9 C 6.9 g/m*3 7.9 C 0 km/h
1091 29-04-2009 02:13:54 7.7 C 6.81 g/m*3 7.7 C 0 km/h
1092 29-04-2009 02:25:54 7.7 C 6.89 g/m*3 7.7 C 0 km/h
1093 29-04-2009 02:37:54 7.6 C 6.85 g/m*3 7.6 C 0 km/h
1094 29-04-2009 02:49:54 7.4 C 6.76 g/m*3 7.4 C 0 km/h
1095 29-04-2009 03:01:54 7.3 C 6.79 g/m*3 7.3 C 0 km/h
1096 29-04-2009 03:13:54 7.3 C 6.87 g/m*3 7.3 C 0 km/h
1097 29-04-2009 03:25:54 7.3 C 6.87 g/m*3 7.3 C 0 km/h
1098 29-04-2009 03:37:54 7.2 C 6.83 g/m*3 7.2 C 0 km/h
1099 29-04-2009 03:49:54 7.2 C 6.83 g/m*3 7.2 C 0 km/h
1100 29-04-2009 04:01:54 7.1 C 6.79 g/m*3 7.1 C 0 km/h
Sensor: Nr:Datum:Temp:Abs-Feuchte:Windchill:Wind:
Aussen-T/F 1101 29-04-2009 04:13:54 6.9 C 6.77 g/m*3 6.9 C 0 km/h
1102 29-04-2009 04:25:54 6.9 C 6.77 g/m*3 6.9 C 0 km/h
1103 29-04-2009 04:37:54 6.8 C 6.73 g/m*3 6.8 C 0 km/h
1104 29-04-2009 04:49:55 6.7 C 6.69 g/m*3 6.7 C 0 km/h
1105 29-04-2009 05:01:55 6.6 C 6.72 g/m*3 6.6 C 0 km/h
1106 29-04-2009 05:13:55 6.6 C 6.72 g/m*3 6.6 C 0 km/h
1107 29-04-2009 05:25:55 7 C 6.9 g/m*3 7 C 0 km/h
1108 29-04-2009 05:37:55 7.2 C 6.99 g/m*3 7.2 C 0 km/h
1109 29-04-2009 05:49:55 7.3 C 7.11 g/m*3 7.3 C 0 km/h
1110 29-04-2009 06:01:55 7.1 C 6.94 g/m*3 7.1 C 0 km/h
1111 29-04-2009 06:13:55 7 C 6.97 g/m*3 7 C 0 km/h
1112 29-04-2009 06:25:55 6.9 C 6.93 g/m*3 6.9 C 0 km/h
1113 29-04-2009 06:37:55 7 C 6.97 g/m*3 7 C 0 km/h
1114 29-04-2009 06:49:55 7 C 6.97 g/m*3 7 C 0 km/h
1115 29-04-2009 07:01:55 7 C 6.97 g/m*3 7 C 0 km/h
1116 29-04-2009 07:13:55 7.1 C 7.02 g/m*3 7.1 C 0 km/h
1117 29-04-2009 07:25:53 7.4 C 7.16 g/m*3 7.4 C 0 km/h
1118 29-04-2009 07:37:52 7.6 C 7.25 g/m*3 7.6 C 0 km/h
1119 29-04-2009 07:49:52 7.8 C 7.26 g/m*3 7.8 C 0 km/h
1120 29-04-2009 08:01:52 8 C 7.19 g/m*3 8 C 0 km/h
1121 29-04-2009 08:13:52 8.1 C 7.07 g/m*3 8.1 C 0 km/h
1122 29-04-2009 08:25:52 8.1 C 6.99 g/m*3 8.1 C 0 km/h
1123 29-04-2009 08:37:51 8.2 C 7.03 g/m*3 8.2 C 0 km/h
1124 29-04-2009 08:49:51 8.5 C 7.17 g/m*3 8.5 C 0 km/h
1125 29-04-2009 09:01:51 8.7 C 7.18 g/m*3 8.7 C 0 km/h
Sensor: Nr:Datum:Temp:Abs-Feuchte:Windchill:Wind:
Aussen-T/F 1126 29-04-2009 09:13:51 9.3 C 7.28 g/m*3 9.3 C 0 km/h
1127 29-04-2009 09:25:51 9.7 C 7.28 g/m*3 9.7 C 0 km/h
1128 29-04-2009 09:37:51 10.3 C 7.28 g/m*3 10.3 C 0 km/h
1129 29-04-2009 09:49:51 10.8 C 7.31 g/m*3 10.8 C 0 km/h
1130 29-04-2009 10:01:50 11.5 C 7.33 g/m*3 11.5 C 0 km/h
1131 29-04-2009 10:13:50 12.2 C 7.45 g/m*3 12.2 C 0 km/h
1132 29-04-2009 10:25:51 12.9 C 7.44 g/m*3 12.9 C 0 km/h
1133 29-04-2009 10:37:50 13.2 C 7.23 g/m*3 13.2 C 0 km/h
1134 29-04-2009 10:49:50 13.5 C 7.25 g/m*3 13.5 C 0 km/h
1135 29-04-2009 11:01:50 14.1 C 7.04 g/m*3 14.1 C 0 km/h
1136 29-04-2009 11:13:50 14.7 C 6.92 g/m*3 14.7 C 0 km/h
1137 29-04-2009 11:25:50 15.5 C 6.87 g/m*3 15.5 C 0 km/h
1138 29-04-2009 11:37:50 15.5 C 6.74 g/m*3 15.5 C 0 km/h
1139 29-04-2009 11:49:50 16.3 C 6.66 g/m*3 16.3 C 0 km/h
1140 29-04-2009 12:01:50 16.6 C 6.5 g/m*3 16.6 C 0 km/h
1141 29-04-2009 12:13:50 16.4 C 5.44 g/m*3 16.4 C 0 km/h
1142 29-04-2009 12:25:49 17.3 C 5.6 g/m*3 17.3 C 0 km/h
1143 29-04-2009 12:37:50 17 C 5.35 g/m*3 17 C 0 km/h
1144 29-04-2009 12:49:49 17.9 C 5.65 g/m*3 17.9 C 0 km/h
1145 29-04-2009 13:01:49 18.5 C 5.22 g/m*3 18.5 C 0 km/h
1146 29-04-2009 13:13:50 18.6 C 4.93 g/m*3 18.6 C 0 km/h
1147 29-04-2009 13:25:49 18.3 C 5 g/m*3 18.3 C 0 km/h
1148 29-04-2009 13:37:49 18.5 C 4.59 g/m*3 18.5 C 0 km/h
1149 29-04-2009 13:49:48 18.1 C 3.86 g/m*3 18.1 C 0 km/h
1150 29-04-2009 14:01:48 17.9 C 4.12 g/m*3 17.9 C 0 km/h
Sensor: Nr:Datum:Temp:Abs-Feuchte:Windchill:Wind:
Aussen-T/F 1151 29-04-2009 14:13:48 17.5 C 4.47 g/m*3 17.5 C 0 km/h
1152 29-04-2009 14:25:49 18.5 C 4.75 g/m*3 18.5 C 0 km/h
1153 29-04-2009 14:37:48 18.6 C 4.77 g/m*3 18.6 C 0 km/h
1154 29-04-2009 14:49:48 20.3 C 5.1 g/m*3 20.3 C 0 km/h
1155 29-04-2009 15:01:48 20.2 C 4.37 g/m*3 20.2 C 0 km/h
1156 29-04-2009 15:13:48 18.1 C 4.94 g/m*3 18.1 C 0 km/h
1157 29-04-2009 15:25:48 17.5 C 5.22 g/m*3 17.5 C 0 km/h
1158 29-04-2009 15:37:47 18 C 4.92 g/m*3 18 C 0 km/h
1159 29-04-2009 15:49:48 20 C 5.01 g/m*3 20 C 0 km/h
1160 29-04-2009 16:01:47 21.1 C 4.97 g/m*3 21.1 C 0 km/h
1161 29-04-2009 16:13:47 20.5 C 4.45 g/m*3 20.5 C 0 km/h
1162 29-04-2009 16:25:47 20.7 C 4.5 g/m*3 20.7 C 0 km/h
1163 29-04-2009 16:37:48 21.2 C 4.63 g/m*3 21.2 C 0 km/h
1164 29-04-2009 16:49:47 21.8 C 4.22 g/m*3 21.8 C 0 km/h
1165 29-04-2009 17:01:47 19.5 C 4.36 g/m*3 19.5 C 0 km/h
1166 29-04-2009 17:13:47 17.6 C 4.65 g/m*3 17.6 C 0 km/h
1167 29-04-2009 17:25:47 17.3 C 5.01 g/m*3 17.3 C 0 km/h
1168 29-04-2009 17:37:47 16.8 C 5 g/m*3 16.8 C 0 km/h
1169 29-04-2009 17:49:46 14.9 C 6.37 g/m*3 14.9 C 0 km/h
1170 29-04-2009 18:01:47 13.7 C 8.64 g/m*3 13.7 C 0 km/h
1171 29-04-2009 18:13:47 12.5 C 8.36 g/m*3 12.5 C 0 km/h
1172 29-04-2009 18:25:46 12 C 8.42 g/m*3 12 C 0 km/h
1173 29-04-2009 18:37:46 11.2 C 8.11 g/m*3 11.2 C 0 km/h
1174 29-04-2009 18:49:46 11.8 C 8.63 g/m*3 11.8 C 0 km/h
1175 29-04-2009 19:01:46 12.7 C 9.02 g/m*3 12.7 C 0 km/h
Sensor: Nr:Datum:Temp:Abs-Feuchte:Windchill:Wind:
Aussen-T/F 1176 29-04-2009 19:13:46 12.8 C 8.62 g/m*3 12.8 C 0 km/h
1177 29-04-2009 19:25:45 12.7 C 8.68 g/m*3 12.7 C 0 km/h
1178 29-04-2009 19:37:46 12.5 C 8.58 g/m*3 12.5 C 0 km/h
1179 29-04-2009 19:49:45 12.5 C 8.47 g/m*3 12.5 C 0 km/h
1180 29-04-2009 20:01:45 12.2 C 8.09 g/m*3 12.2 C 0 km/h
1181 29-04-2009 20:13:45 12.3 C 8.25 g/m*3 12.3 C 0 km/h
1182 29-04-2009 20:25:45 12 C 7.99 g/m*3 12 C 0 km/h
1183 29-04-2009 20:37:45 11.7 C 8.05 g/m*3 11.7 C 0 km/h
1184 29-04-2009 20:49:44 11.7 C 8.05 g/m*3 11.7 C 0 km/h
1185 29-04-2009 21:01:45 11.3 C 7.65 g/m*3 11.3 C 0 km/h
1186 29-04-2009 21:13:46 11.1 C 7.55 g/m*3 11.1 C 0 km/h
1187 29-04-2009 21:25:44 11 C 7.41 g/m*3 11 C 0 km/h
1188 29-04-2009 21:37:44 10.8 C 7.41 g/m*3 10.8 C 0 km/h
1189 29-04-2009 21:49:44 10.7 C 7.27 g/m*3 10.7 C 0 km/h
1190 29-04-2009 22:01:44 10.6 C 7.22 g/m*3 10.6 C 0 km/h
1191 29-04-2009 22:13:44 10.7 C 7.07 g/m*3 10.7 C 0 km/h
1192 29-04-2009 22:25:44 10.7 C 7.07 g/m*3 10.7 C 0 km/h
1193 29-04-2009 22:38:45 10.7 C 7.07 g/m*3 10.7 C 0 km/h
1194 29-04-2009 22:50:45 10.7 C 7.07 g/m*3 10.7 C 0 km/h
1195 29-04-2009 23:02:45 10.7 C 7.17 g/m*3 10.7 C 0 km/h
1196 29-04-2009 23:14:46 10.6 C 7.12 g/m*3 10.6 C 0 km/h
1197 29-04-2009 23:26:46 10.5 C 7.18 g/m*3 10.5 C 0 km/h
1198 29-04-2009 23:38:46 10.3 C 7.18 g/m*3 10.3 C 0 km/h
1199 29-04-2009 23:50:46 10 C 7.14 g/m*3 10 C 0 km/h
1200 30-04-2009 00:02:46 9.7 C 7.19 g/m*3 9.7 C 0 km/h
Sensor: Nr:Datum:Temp:Abs-Feuchte:Windchill:Wind:
Aussen-T/F 1201 30-04-2009 00:14:46 9.5 C 7.19 g/m*3 9.5 C 0 km/h
1202 30-04-2009 00:26:46 9.5 C 7.28 g/m*3 9.5 C 0 km/h
1203 30-04-2009 00:38:46 9.6 C 7.33 g/m*3 9.6 C 0 km/h
1204 30-04-2009 00:50:46 9.6 C 7.42 g/m*3 9.6 C 0 km/h
1205 30-04-2009 01:02:46 9.6 C 7.42 g/m*3 9.6 C 0 km/h
1206 30-04-2009 01:14:46 9.5 C 7.37 g/m*3 9.5 C 0 km/h
1207 30-04-2009 01:26:46 9.2 C 7.32 g/m*3 9.2 C 0 km/h
1208 30-04-2009 01:38:46 9.1 C 7.28 g/m*3 9.1 C 0 km/h
1209 30-04-2009 01:50:46 9 C 7.32 g/m*3 9 C 0 km/h
1210 30-04-2009 02:02:46 8.9 C 7.36 g/m*3 8.9 C 0 km/h
1211 30-04-2009 02:14:46 8.7 C 7.35 g/m*3 8.7 C 0 km/h
1212 30-04-2009 02:26:46 8.8 C 7.4 g/m*3 8.8 C 0 km/h
1213 30-04-2009 02:38:46 8.9 C 7.45 g/m*3 8.9 C 0 km/h
1214 30-04-2009 02:50:46 8.9 C 7.45 g/m*3 8.9 C 0 km/h
1215 30-04-2009 03:02:47 8.9 C 7.45 g/m*3 8.9 C 0 km/h
1216 30-04-2009 03:14:47 8.6 C 7.3 g/m*3 8.6 C 0 km/h
1217 30-04-2009 03:26:47 8.4 C 7.21 g/m*3 8.4 C 0 km/h
1218 30-04-2009 03:38:47 8.2 C 7.12 g/m*3 8.2 C 0 km/h
1219 30-04-2009 03:50:47 8 C 7.11 g/m*3 8 C 0 km/h
1220 30-04-2009 04:02:47 7.8 C 7.18 g/m*3 7.8 C 0 km/h
1221 30-04-2009 04:14:47 7.8 C 7.18 g/m*3 7.8 C 0 km/h
1222 30-04-2009 04:26:47 7.6 C 7.09 g/m*3 7.6 C 0 km/h
1223 30-04-2009 04:38:47 7.4 C 7.08 g/m*3 7.4 C 0 km/h
1224 30-04-2009 04:50:47 7.4 C 7.08 g/m*3 7.4 C 0 km/h
1225 30-04-2009 05:02:47 7.6 C 7.25 g/m*3 7.6 C 0 km/h
Sensor: Nr:Datum:Temp:Abs-Feuchte:Windchill:Wind:
Aussen-T/F 1226 30-04-2009 05:14:47 7.8 C 7.43 g/m*3 7.8 C 0 km/h
1227 30-04-2009 05:26:47 7.9 C 7.47 g/m*3 7.9 C 0 km/h
1228 30-04-2009 05:38:47 8 C 7.36 g/m*3 8 C 0 km/h
1229 30-04-2009 05:50:47 8.1 C 7.41 g/m*3 8.1 C 0 km/h
1230 30-04-2009 06:02:47 8.1 C 7.41 g/m*3 8.1 C 0 km/h
1231 30-04-2009 06:14:47 8.1 C 7.32 g/m*3 8.1 C 0 km/h
1232 30-04-2009 06:26:47 8.2 C 7.37 g/m*3 8.2 C 0 km/h
1233 30-04-2009 06:38:47 8.2 C 7.37 g/m*3 8.2 C 0 km/h
1234 30-04-2009 06:50:44 8.3 C 7.33 g/m*3 8.3 C 0 km/h
1235 30-04-2009 07:02:45 8.3 C 7.33 g/m*3 8.3 C 0 km/h
1236 30-04-2009 07:14:44 8.4 C 7.38 g/m*3 8.4 C 0 km/h
1237 30-04-2009 07:26:44 8.4 C 7.38 g/m*3 8.4 C 0 km/h
1238 30-04-2009 07:38:44 8.6 C 7.48 g/m*3 8.6 C 0 km/h
1239 30-04-2009 07:50:44 8.7 C 7.52 g/m*3 8.7 C 0 km/h
1240 30-04-2009 08:02:44 9 C 7.49 g/m*3 9 C 0 km/h
1241 30-04-2009 08:14:43 9.1 C 7.45 g/m*3 9.1 C 0 km/h
1242 30-04-2009 08:26:43 9.3 C 7.55 g/m*3 9.3 C 0 km/h
1243 30-04-2009 08:38:43 9.6 C 7.6 g/m*3 9.6 C 0 km/h
1244 30-04-2009 08:50:44 9.8 C 7.52 g/m*3 9.8 C 0 km/h
1245 30-04-2009 09:02:43 9.8 C 7.42 g/m*3 9.8 C 0 km/h
1246 30-04-2009 09:14:43 10.1 C 7.47 g/m*3 10.1 C 0 km/h
1247 30-04-2009 09:26:43 10.3 C 7.47 g/m*3 10.3 C 0 km/h
1248 30-04-2009 09:38:44 10.6 C 7.52 g/m*3 10.6 C 0 km/h
1249 30-04-2009 09:50:43 10.8 C 7.41 g/m*3 10.8 C 0 km/h
1250 30-04-2009 10:02:43 11 C 7.41 g/m*3 11 C 0 km/h
Sensor: Nr:Datum:Temp:Abs-Feuchte:Windchill:Wind:
Aussen-T/F 1251 30-04-2009 10:14:42 11.2 C 7.5 g/m*3 11.2 C 0 km/h
1252 30-04-2009 10:26:42 11.4 C 7.49 g/m*3 11.4 C 0 km/h
1253 30-04-2009 10:38:43 11.7 C 7.53 g/m*3 11.7 C 0 km/h
1254 30-04-2009 10:50:42 12 C 7.46 g/m*3 12 C 0 km/h
1255 30-04-2009 11:02:42 12.2 C 7.45 g/m*3 12.2 C 0 km/h
1256 30-04-2009 11:14:42 12.4 C 7.65 g/m*3 12.4 C 0 km/h
1257 30-04-2009 11:26:42 12.6 C 7.63 g/m*3 12.6 C 0 km/h
1258 30-04-2009 11:38:42 12.8 C 7.73 g/m*3 12.8 C 0 km/h
1259 30-04-2009 11:50:41 13.2 C 7.69 g/m*3 13.2 C 0 km/h
1260 30-04-2009 12:02:42 13.4 C 7.56 g/m*3 13.4 C 0 km/h
1261 30-04-2009 12:14:42 13.8 C 7.63 g/m*3 13.8 C 0 km/h
1262 30-04-2009 12:26:42 13.8 C 7.39 g/m*3 13.8 C 0 km/h
1263 30-04-2009 12:38:41 14.2 C 7.45 g/m*3 14.2 C 0 km/h
1264 30-04-2009 12:50:42 15 C 7.44 g/m*3 15 C 0 km/h
1265 30-04-2009 13:02:41 15.3 C 7.31 g/m*3 15.3 C 0 km/h
1266 30-04-2009 13:14:41 16.1 C 7.13 g/m*3 16.1 C 0 km/h
1267 30-04-2009 13:26:41 16.1 C 6.72 g/m*3 16.1 C 0 km/h
1268 30-04-2009 13:38:41 16.9 C 6.9 g/m*3 16.9 C 0 km/h
1269 30-04-2009 13:50:41 18.1 C 6.49 g/m*3 18.1 C 0 km/h
1270 30-04-2009 14:02:40 18.1 C 6.33 g/m*3 18.1 C 0 km/h
1271 30-04-2009 14:14:40 18 C 6.3 g/m*3 18 C 0 km/h
1272 30-04-2009 14:26:40 19.1 C 6.23 g/m*3 19.1 C 0 km/h
1273 30-04-2009 14:38:40 19 C 6.36 g/m*3 19 C 0 km/h
1274 30-04-2009 14:50:40 17.8 C 6.53 g/m*3 17.8 C 0 km/h
1275 30-04-2009 15:02:40 17.9 C 6.57 g/m*3 17.9 C 0 km/h
Sensor: Nr:Datum:Temp:Abs-Feuchte:Windchill:Wind:
Aussen-T/F 1276 30-04-2009 15:14:40 18 C 6.45 g/m*3 18 C 0 km/h
1277 30-04-2009 15:26:40 18.4 C 6.45 g/m*3 18.4 C 0 km/h
1278 30-04-2009 15:38:40 18 C 6.6 g/m*3 18 C 0 km/h
1279 30-04-2009 15:50:39 17.6 C 6.75 g/m*3 17.6 C 0 km/h
1280 30-04-2009 16:02:40 17.6 C 6.6 g/m*3 17.6 C 0 km/h
1281 30-04-2009 16:14:39 17.8 C 6.37 g/m*3 17.8 C 0 km/h
1282 30-04-2009 16:26:39 17.9 C 6.57 g/m*3 17.9 C 0 km/h
1283 30-04-2009 16:38:39 18.1 C 6.64 g/m*3 18.1 C 0 km/h
1284 30-04-2009 16:50:39 18.3 C 6.57 g/m*3 18.3 C 0 km/h
1285 30-04-2009 17:02:39 18.9 C 6.64 g/m*3 18.9 C 0 km/h
1286 30-04-2009 17:14:38 18.9 C 6.64 g/m*3 18.9 C 0 km/h
1287 30-04-2009 17:26:38 18.3 C 6.41 g/m*3 18.3 C 0 km/h
1288 30-04-2009 17:38:39 18.1 C 6.49 g/m*3 18.1 C 0 km/h
1289 30-04-2009 17:50:38 18 C 6.45 g/m*3 18 C 0 km/h
1290 30-04-2009 18:02:38 17.9 C 6.72 g/m*3 17.9 C 0 km/h
1291 30-04-2009 18:14:39 18.1 C 6.49 g/m*3 18.1 C 0 km/h
1292 30-04-2009 18:26:39 17.9 C 6.57 g/m*3 17.9 C 0 km/h
1293 30-04-2009 18:38:38 17.7 C 6.79 g/m*3 17.7 C 0 km/h
1294 30-04-2009 18:50:38 17.9 C 6.87 g/m*3 17.9 C 0 km/h
1295 30-04-2009 19:02:37 18.7 C 6.72 g/m*3 18.7 C 0 km/h
1296 30-04-2009 19:14:38 19.3 C 6.63 g/m*3 19.3 C 0 km/h
1297 30-04-2009 19:26:39 19.5 C 6.71 g/m*3 19.5 C 0 km/h
1298 30-04-2009 19:38:37 19.1 C 6.88 g/m*3 19.1 C 0 km/h
1299 30-04-2009 19:50:37 18.5 C 6.8 g/m*3 18.5 C 0 km/h
1300 30-04-2009 20:02:37 18.2 C 7.15 g/m*3 18.2 C 0 km/h
Sensor: Nr:Datum:Temp:Abs-Feuchte:Windchill:Wind:
Aussen-T/F 1301 30-04-2009 20:14:37 17.6 C 7.5 g/m*3 17.6 C 0 km/h
1302 30-04-2009 20:26:37 16.5 C 7.44 g/m*3 16.5 C 0 km/h
1303 30-04-2009 20:38:37 15.7 C 7.63 g/m*3 15.7 C 0 km/h
1304 30-04-2009 20:50:37 14.9 C 7.52 g/m*3 14.9 C 0 km/h
1305 30-04-2009 21:02:36 14.1 C 7.28 g/m*3 14.1 C 0 km/h
1306 30-04-2009 21:14:37 13.8 C 7.51 g/m*3 13.8 C 0 km/h
1307 30-04-2009 21:26:37 13.9 C 7.55 g/m*3 13.9 C 0 km/h
1308 30-04-2009 21:38:36 13.9 C 7.67 g/m*3 13.9 C 0 km/h
1309 30-04-2009 21:50:36 13.8 C 7.74 g/m*3 13.8 C 0 km/h
1310 30-04-2009 22:02:36 13.7 C 7.82 g/m*3 13.7 C 0 km/h
1311 30-04-2009 22:14:36 13.6 C 7.77 g/m*3 13.6 C 0 km/h
1312 30-04-2009 22:26:36 13.5 C 7.95 g/m*3 13.5 C 0 km/h
1313 30-04-2009 22:39:30 13.3 C 7.97 g/m*3 13.3 C 0 km/h
1314 30-04-2009 22:51:30 13 C 7.94 g/m*3 13 C 0 km/h
1315 30-04-2009 23:03:30 12.8 C 7.95 g/m*3 12.8 C 0 km/h
1316 30-04-2009 23:15:30 12.6 C 7.85 g/m*3 12.6 C 0 km/h
1317 30-04-2009 23:27:30 12.4 C 7.87 g/m*3 12.4 C 0 km/h
1318 30-04-2009 23:39:30 12.3 C 7.93 g/m*3 12.3 C 0 km/h
1319 30-04-2009 23:51:30 12.1 C 7.83 g/m*3 12.1 C 0 km/h
1320 01-05-2009 00:03:30 11.9 C 7.94 g/m*3 11.9 C 0 km/h
1321 01-05-2009 00:15:31 11.7 C 7.95 g/m*3 11.7 C 0 km/h
1322 01-05-2009 00:27:31 11.5 C 7.85 g/m*3 11.5 C 0 km/h
1323 01-05-2009 00:39:31 11.3 C 7.85 g/m*3 11.3 C 0 km/h
1324 01-05-2009 00:51:31 11.2 C 7.8 g/m*3 11.2 C 0 km/h
1325 01-05-2009 01:03:31 11 C 7.71 g/m*3 11 C 0 km/h
Sensor: Nr:Datum:Temp:Abs-Feuchte:Windchill:Wind:
Aussen-T/F 1326 01-05-2009 01:15:31 10.9 C 7.76 g/m*3 10.9 C 0 km/h
1327 01-05-2009 01:27:31 10.7 C 7.66 g/m*3 10.7 C 0 km/h
1328 01-05-2009 01:39:31 10.5 C 7.66 g/m*3 10.5 C 0 km/h
1329 01-05-2009 01:51:31 10.4 C 7.61 g/m*3 10.4 C 0 km/h
1330 01-05-2009 02:03:31 10.2 C 7.61 g/m*3 10.2 C 0 km/h
1331 01-05-2009 02:15:31 10 C 7.52 g/m*3 10 C 0 km/h
1332 01-05-2009 02:27:31 9.9 C 7.66 g/m*3 9.9 C 0 km/h
1333 01-05-2009 02:39:31 9.8 C 7.7 g/m*3 9.8 C 0 km/h
1334 01-05-2009 02:51:31 9.7 C 7.65 g/m*3 9.7 C 0 km/h
1335 01-05-2009 03:03:31 9.5 C 7.65 g/m*3 9.5 C 0 km/h
1336 01-05-2009 03:15:31 9.3 C 7.55 g/m*3 9.3 C 0 km/h
1337 01-05-2009 03:27:31 9.3 C 7.64 g/m*3 9.3 C 0 km/h
1338 01-05-2009 03:39:31 9.2 C 7.59 g/m*3 9.2 C 0 km/h
1339 01-05-2009 03:51:31 9 C 7.49 g/m*3 9 C 0 km/h
1340 01-05-2009 04:03:32 8.8 C 7.49 g/m*3 8.8 C 0 km/h
1341 01-05-2009 04:15:32 8.7 C 7.44 g/m*3 8.7 C 0 km/h
1342 01-05-2009 04:27:32 8.6 C 7.39 g/m*3 8.6 C 0 km/h
1343 01-05-2009 04:39:32 8.4 C 7.3 g/m*3 8.4 C 0 km/h
1344 01-05-2009 04:51:32 8.3 C 7.33 g/m*3 8.3 C 0 km/h
1345 01-05-2009 05:03:32 8.1 C 7.24 g/m*3 8.1 C 0 km/h
1346 01-05-2009 05:15:32 8.1 C 7.32 g/m*3 8.1 C 0 km/h
1347 01-05-2009 05:27:32 8 C 7.36 g/m*3 8 C 0 km/h
1348 01-05-2009 05:39:32 8.2 C 7.45 g/m*3 8.2 C 0 km/h
1349 01-05-2009 05:51:32 8.3 C 7.59 g/m*3 8.3 C 0 km/h
1350 01-05-2009 06:03:32 8.2 C 7.54 g/m*3 8.2 C 0 km/h
Sensor: Nr:Datum:Temp:Abs-Feuchte:Windchill:Wind:
Aussen-T/F 1351 01-05-2009 06:15:32 8.2 C 7.54 g/m*3 8.2 C 0 km/h
1352 01-05-2009 06:27:32 8 C 7.36 g/m*3 8 C 0 km/h
1353 01-05-2009 06:39:32 8 C 7.44 g/m*3 8 C 0 km/h
1354 01-05-2009 06:51:32 8 C 7.44 g/m*3 8 C 0 km/h
1355 01-05-2009 07:03:32 8 C 7.44 g/m*3 8 C 0 km/h
1356 01-05-2009 07:15:32 8 C 7.52 g/m*3 8 C 0 km/h
1357 01-05-2009 07:27:32 8.2 C 7.62 g/m*3 8.2 C 0 km/h
1358 01-05-2009 07:39:32 8.3 C 7.67 g/m*3 8.3 C 0 km/h
1359 01-05-2009 07:51:36 8.5 C 7.77 g/m*3 8.5 C 0 km/h
1360 01-05-2009 08:03:36 8.6 C 7.73 g/m*3 8.6 C 0 km/h
1361 01-05-2009 08:15:36 9 C 7.85 g/m*3 9 C 0 km/h
1362 01-05-2009 08:27:36 9 C 7.76 g/m*3 9 C 0 km/h
1363 01-05-2009 08:39:36 9.3 C 8 g/m*3 9.3 C 0 km/h
1364 01-05-2009 08:51:36 9.7 C 8.11 g/m*3 9.7 C 0 km/h
1365 01-05-2009 09:03:36 9.7 C 8.02 g/m*3 9.7 C 0 km/h
1366 01-05-2009 09:15:35 9.9 C 8.12 g/m*3 9.9 C 0 km/h
1367 01-05-2009 09:27:35 10.9 C 8.45 g/m*3 10.9 C 0 km/h
1368 01-05-2009 09:39:36 11.7 C 8.47 g/m*3 11.7 C 0 km/h
1369 01-05-2009 09:51:35 11.6 C 8 g/m*3 11.6 C 0 km/h
1370 01-05-2009 10:03:35 11.5 C 7.95 g/m*3 11.5 C 0 km/h
1371 01-05-2009 10:15:35 11.6 C 8.11 g/m*3 11.6 C 0 km/h
1372 01-05-2009 10:27:35 12.2 C 8.2 g/m*3 12.2 C 0 km/h
1373 01-05-2009 10:39:35 13.2 C 8.5 g/m*3 13.2 C 0 km/h
1374 01-05-2009 10:51:34 14 C 8.44 g/m*3 14 C 0 km/h
1375 01-05-2009 11:03:35 14.9 C 8.79 g/m*3 14.9 C 0 km/h
Sensor: Nr:Datum:Temp:Abs-Feuchte:Windchill:Wind:
Aussen-T/F 1376 01-05-2009 11:15:35 15.9 C 8.67 g/m*3 15.9 C 0 km/h
1377 01-05-2009 11:27:35 16.6 C 8.76 g/m*3 16.6 C 0 km/h
1378 01-05-2009 11:39:34 17.2 C 8.79 g/m*3 17.2 C 0 km/h
1379 01-05-2009 11:51:35 18 C 8.75 g/m*3 18 C 0 km/h
1380 01-05-2009 12:03:34 18.4 C 8.34 g/m*3 18.4 C 0 km/h
1381 01-05-2009 12:15:34 19.2 C 8.57 g/m*3 19.2 C 0 km/h
1382 01-05-2009 12:27:34 19.5 C 7.89 g/m*3 19.5 C 0 km/h
1383 01-05-2009 12:39:33 19.3 C 7.46 g/m*3 19.3 C 0 km/h
1384 01-05-2009 12:51:34 20.1 C 7.65 g/m*3 20.1 C 0 km/h
1385 01-05-2009 13:03:33 21.6 C 7.21 g/m*3 21.6 C 0 km/h
1386 01-05-2009 13:15:33 21.5 C 6.79 g/m*3 21.5 C 0 km/h
1387 01-05-2009 13:27:33 22.7 C 6.87 g/m*3 22.7 C 0 km/h
1388 01-05-2009 13:39:34 23.6 C 6.81 g/m*3 23.6 C 0 km/h
1389 01-05-2009 13:51:33 23.3 C 6.27 g/m*3 23.3 C 0 km/h
1390 01-05-2009 14:03:33 23.4 C 6.31 g/m*3 23.4 C 0 km/h
1391 01-05-2009 14:15:33 23.7 C 6.2 g/m*3 23.7 C 0 km/h
1392 01-05-2009 14:27:33 23.3 C 6.27 g/m*3 23.3 C 0 km/h
1393 01-05-2009 14:39:33 24.9 C 6.41 g/m*3 24.9 C 0 km/h
1394 01-05-2009 14:51:32 24.2 C 5.94 g/m*3 24.2 C 0 km/h
1395 01-05-2009 15:03:33 25.8 C 6.02 g/m*3 25.8 C 0 km/h
1396 01-05-2009 15:15:32 24.8 C 5.92 g/m*3 24.8 C 0 km/h
1397 01-05-2009 15:27:32 25 C 5.75 g/m*3 25 C 0 km/h
1398 01-05-2009 15:39:32 26.5 C 6.26 g/m*3 26.5 C 0 km/h
1399 01-05-2009 15:51:31 25.3 C 5.85 g/m*3 25.3 C 0 km/h
1400 01-05-2009 16:03:32 26.4 C 5.23 g/m*3 26.4 C 0 km/h
Sensor: Nr:Datum:Temp:Abs-Feuchte:Windchill:Wind:
Aussen-T/F 1401 01-05-2009 16:15:32 27.1 C 5.43 g/m*3 27.1 C 0 km/h
1402 01-05-2009 16:27:32 27.7 C 5.62 g/m*3 27.7 C 0 km/h
1403 01-05-2009 16:39:31 26.4 C 5.23 g/m*3 26.4 C 0 km/h
1404 01-05-2009 16:51:32 26.4 C 5.23 g/m*3 26.4 C 0 km/h
1405 01-05-2009 17:03:31 26.9 C 5.37 g/m*3 26.9 C 0 km/h
1406 01-05-2009 17:15:31 25.6 C 4.76 g/m*3 25.6 C 0 km/h
1407 01-05-2009 17:27:32 26.8 C 5.09 g/m*3 26.8 C 0 km/h
1408 01-05-2009 17:39:31 26 C 4.87 g/m*3 26 C 0 km/h
1409 01-05-2009 17:51:31 25.5 C 5.21 g/m*3 25.5 C 0 km/h
1410 01-05-2009 18:03:30 26.6 C 5.29 g/m*3 26.6 C 0 km/h
1411 01-05-2009 18:15:30 26.9 C 5.37 g/m*3 26.9 C 0 km/h
1412 01-05-2009 18:27:30 26.3 C 5.2 g/m*3 26.3 C 0 km/h
1413 01-05-2009 18:39:31 25.4 C 5.18 g/m*3 25.4 C 0 km/h
1414 01-05-2009 18:51:30 25.8 C 5.54 g/m*3 25.8 C 0 km/h
1415 01-05-2009 19:03:30 25 C 5.29 g/m*3 25 C 0 km/h
1416 01-05-2009 19:15:30 25.4 C 5.41 g/m*3 25.4 C 0 km/h
1417 01-05-2009 19:27:30 24.9 C 5.49 g/m*3 24.9 C 0 km/h
1418 01-05-2009 19:39:30 24.8 C 5.69 g/m*3 24.8 C 0 km/h
1419 01-05-2009 19:51:29 23.9 C 5.84 g/m*3 23.9 C 0 km/h
1420 01-05-2009 20:03:30 22.9 C 6.34 g/m*3 22.9 C 0 km/h
1421 01-05-2009 20:15:29 22.6 C 7.23 g/m*3 22.6 C 0 km/h
1422 01-05-2009 20:27:29 21.5 C 7.35 g/m*3 21.5 C 0 km/h
1423 01-05-2009 20:39:29 20.7 C 7.56 g/m*3 20.7 C 0 km/h
1424 01-05-2009 20:51:30 19.7 C 7.13 g/m*3 19.7 C 0 km/h
1425 01-05-2009 21:03:29 19 C 7.01 g/m*3 19 C 0 km/h
Sensor: Nr:Datum:Temp:Abs-Feuchte:Windchill:Wind:
Aussen-T/F 1426 01-05-2009 21:15:28 18.5 C 7.12 g/m*3 18.5 C 0 km/h
1427 01-05-2009 21:27:28 18.2 C 7.15 g/m*3 18.2 C 0 km/h
1428 01-05-2009 21:39:29 17.8 C 7.29 g/m*3 17.8 C 0 km/h
1429 01-05-2009 21:51:28 17.6 C 7.2 g/m*3 17.6 C 0 km/h
1430 01-05-2009 22:03:28 17.4 C 7.11 g/m*3 17.4 C 0 km/h
1431 01-05-2009 22:15:29 17 C 7.38 g/m*3 17 C 0 km/h
1432 01-05-2009 22:27:29 16.6 C 7.49 g/m*3 16.6 C 0 km/h
1433 01-05-2009 22:40:28 16.8 C 7.43 g/m*3 16.8 C 0 km/h
1434 01-05-2009 22:52:28 16.2 C 7.17 g/m*3 16.2 C 0 km/h
1435 01-05-2009 23:04:29 15.8 C 7.4 g/m*3 15.8 C 0 km/h
1436 01-05-2009 23:16:29 15.5 C 7.4 g/m*3 15.5 C 0 km/h
1437 01-05-2009 23:28:29 15.1 C 7.48 g/m*3 15.1 C 0 km/h
1438 01-05-2009 23:40:29 14.9 C 7.65 g/m*3 14.9 C 0 km/h
1439 01-05-2009 23:52:29 14.6 C 7.76 g/m*3 14.6 C 0 km/h
1440 02-05-2009 00:04:29 14.4 C 7.91 g/m*3 14.4 C 0 km/h
1441 02-05-2009 00:16:29 14.2 C 7.94 g/m*3 14.2 C 0 km/h
1442 02-05-2009 00:28:29 14.2 C 7.94 g/m*3 14.2 C 0 km/h
1443 02-05-2009 00:40:29 13.9 C 8.15 g/m*3 13.9 C 0 km/h
1444 02-05-2009 00:52:29 13.7 C 8.17 g/m*3 13.7 C 0 km/h
1445 02-05-2009 01:04:29 13.3 C 8.09 g/m*3 13.3 C 0 km/h
1446 02-05-2009 01:16:29 13.1 C 8.1 g/m*3 13.1 C 0 km/h
1447 02-05-2009 01:28:29 12.9 C 8.23 g/m*3 12.9 C 0 km/h
1448 02-05-2009 01:40:29 12.7 C 8.24 g/m*3 12.7 C 0 km/h
1449 02-05-2009 01:52:29 12.5 C 8.14 g/m*3 12.5 C 0 km/h
1450 02-05-2009 02:04:29 12.4 C 8.19 g/m*3 12.4 C 0 km/h
Sensor: Nr:Datum:Temp:Abs-Feuchte:Windchill:Wind:
Aussen-T/F 1451 02-05-2009 02:16:29 12.2 C 8.09 g/m*3 12.2 C 0 km/h
1452 02-05-2009 02:28:29 12.1 C 8.15 g/m*3 12.1 C 0 km/h
1453 02-05-2009 02:40:29 12 C 8.1 g/m*3 12 C 0 km/h
1454 02-05-2009 02:52:30 11.9 C 8.15 g/m*3 11.9 C 0 km/h
1455 02-05-2009 03:04:30 11.8 C 8.1 g/m*3 11.8 C 0 km/h
1456 02-05-2009 03:16:30 11.8 C 8.21 g/m*3 11.8 C 0 km/h
1457 02-05-2009 03:28:30 11.3 C 8.06 g/m*3 11.3 C 0 km/h
1458 02-05-2009 03:40:30 11.2 C 8.01 g/m*3 11.2 C 0 km/h
1459 02-05-2009 03:52:30 11 C 8.01 g/m*3 11 C 0 km/h
1460 02-05-2009 04:04:30 10.9 C 8.16 g/m*3 10.9 C 0 km/h
1461 02-05-2009 04:16:30 10.7 C 8.05 g/m*3 10.7 C 0 km/h
1462 02-05-2009 04:28:30 10.6 C 8 g/m*3 10.6 C 0 km/h
1463 02-05-2009 04:40:30 10.6 C 8.1 g/m*3 10.6 C 0 km/h
1464 02-05-2009 04:52:30 10.5 C 8.05 g/m*3 10.5 C 0 km/h
1465 02-05-2009 05:04:30 10.4 C 8 g/m*3 10.4 C 0 km/h
1466 02-05-2009 05:16:30 10.3 C 7.95 g/m*3 10.3 C 0 km/h
1467 02-05-2009 05:28:30 10.2 C 7.99 g/m*3 10.2 C 0 km/h
1468 02-05-2009 05:40:30 10.2 C 7.99 g/m*3 10.2 C 0 km/h
1469 02-05-2009 05:52:30 10 C 7.89 g/m*3 10 C 0 km/h
1470 02-05-2009 06:04:30 10 C 7.89 g/m*3 10 C 0 km/h
1471 02-05-2009 06:16:30 10 C 7.99 g/m*3 10 C 0 km/h
1472 02-05-2009 06:28:30 10 C 7.99 g/m*3 10 C 0 km/h
1473 02-05-2009 06:40:31 10 C 7.99 g/m*3 10 C 0 km/h
1474 02-05-2009 06:52:31 10.3 C 8.14 g/m*3 10.3 C 0 km/h
1475 02-05-2009 07:04:31 10.6 C 8.2 g/m*3 10.6 C 0 km/h
Sensor: Nr:Datum:Temp:Abs-Feuchte:Windchill:Wind:
Aussen-T/F 1476 02-05-2009 07:16:31 11.2 C 8.51 g/m*3 11.2 C 0 km/h
1477 02-05-2009 07:28:31 11.5 C 8.47 g/m*3 11.5 C 0 km/h
1478 02-05-2009 07:40:31 12.2 C 8.63 g/m*3 12.2 C 0 km/h
1479 02-05-2009 07:52:31 12.7 C 8.46 g/m*3 12.7 C 0 km/h
1480 02-05-2009 08:04:28 13.3 C 8.55 g/m*3 13.3 C 0 km/h
1481 02-05-2009 08:16:28 13.5 C 8.19 g/m*3 13.5 C 0 km/h
1482 02-05-2009 08:28:28 13.5 C 8.07 g/m*3 13.5 C 0 km/h
1483 02-05-2009 08:40:27 13.6 C 8 g/m*3 13.6 C 0 km/h
1484 02-05-2009 08:52:27 13.7 C 7.93 g/m*3 13.7 C 0 km/h
1485 02-05-2009 09:04:27 14.1 C 7.89 g/m*3 14.1 C 0 km/h
1486 02-05-2009 09:16:27 14.4 C 7.66 g/m*3 14.4 C 0 km/h
1487 02-05-2009 09:28:27 14.8 C 7.6 g/m*3 14.8 C 0 km/h
1488 02-05-2009 09:40:27 15.2 C 7.66 g/m*3 15.2 C 0 km/h
1489 02-05-2009 09:52:27 15.6 C 7.85 g/m*3 15.6 C 0 km/h
1490 02-05-2009 10:04:26 16.1 C 7.54 g/m*3 16.1 C 0 km/h
1491 02-05-2009 10:16:27 16.1 C 7.68 g/m*3 16.1 C 0 km/h
1492 02-05-2009 10:28:27 16.8 C 7.72 g/m*3 16.8 C 0 km/h
1493 02-05-2009 10:40:26 17.5 C 7.6 g/m*3 17.5 C 0 km/h
1494 02-05-2009 10:52:26 18.3 C 7.66 g/m*3 18.3 C 0 km/h
1495 02-05-2009 11:04:26 18.1 C 7.42 g/m*3 18.1 C 0 km/h
1496 02-05-2009 11:16:26 17.3 C 7.51 g/m*3 17.3 C 0 km/h
1497 02-05-2009 11:28:26 18.1 C 7.57 g/m*3 18.1 C 0 km/h
1498 02-05-2009 11:40:26 17.3 C 7.37 g/m*3 17.3 C 0 km/h
1499 02-05-2009 11:52:26 18.5 C 7.91 g/m*3 18.5 C 0 km/h
1500 02-05-2009 12:04:26 18.8 C 7.41 g/m*3 18.8 C 0 km/h
Sensor: Nr:Datum:Temp:Abs-Feuchte:Windchill:Wind:
Aussen-T/F 1501 02-05-2009 12:16:25 18.9 C 7.78 g/m*3 18.9 C 0 km/h
1502 02-05-2009 12:28:25 20 C 7.6 g/m*3 20 C 0 km/h
1503 02-05-2009 12:40:25 20 C 7.6 g/m*3 20 C 0 km/h
1504 02-05-2009 12:52:25 21.5 C 7.73 g/m*3 21.5 C 0 km/h
1505 02-05-2009 13:04:25 21.9 C 7.72 g/m*3 21.9 C 0 km/h
1506 02-05-2009 13:16:25 22.3 C 7.11 g/m*3 22.3 C 0 km/h
1507 02-05-2009 13:28:25 23 C 6.78 g/m*3 23 C 0 km/h
1508 02-05-2009 13:40:25 22.3 C 6.91 g/m*3 22.3 C 0 km/h
1509 02-05-2009 13:52:25 22.8 C 6.5 g/m*3 22.8 C 0 km/h
1510 02-05-2009 14:04:24 22.3 C 6.12 g/m*3 22.3 C 0 km/h
1511 02-05-2009 14:16:25 22.8 C 6.5 g/m*3 22.8 C 0 km/h
1512 02-05-2009 14:28:25 22.7 C 6.47 g/m*3 22.7 C 0 km/h
1513 02-05-2009 14:40:24 23.1 C 6.61 g/m*3 23.1 C 0 km/h
1514 02-05-2009 14:52:24 23.9 C 6.06 g/m*3 23.9 C 0 km/h
1515 02-05-2009 15:04:24 24 C 5.87 g/m*3 24 C 0 km/h
1516 02-05-2009 15:16:24 23.8 C 5.81 g/m*3 23.8 C 0 km/h
1517 02-05-2009 15:28:24 24.7 C 5.66 g/m*3 24.7 C 0 km/h
1518 02-05-2009 15:40:24 25.8 C 5.78 g/m*3 25.8 C 0 km/h
1519 02-05-2009 15:52:24 24.3 C 5.31 g/m*3 24.3 C 0 km/h
1520 02-05-2009 16:04:24 26.1 C 5.39 g/m*3 26.1 C 0 km/h
1521 02-05-2009 16:16:23 26.7 C 5.06 g/m*3 26.7 C 0 km/h
1522 02-05-2009 16:28:23 26.7 C 5.06 g/m*3 26.7 C 0 km/h
1523 02-05-2009 16:40:23 25.9 C 4.84 g/m*3 25.9 C 0 km/h
1524 02-05-2009 16:52:23 25.5 C 4.73 g/m*3 25.5 C 0 km/h
1525 02-05-2009 17:04:23 26.1 C 4.9 g/m*3 26.1 C 0 km/h
Sensor: Nr:Datum:Temp:Abs-Feuchte:Windchill:Wind:
Aussen-T/F 1526 02-05-2009 17:16:22 27.3 C 5.23 g/m*3 27.3 C 0 km/h
1527 02-05-2009 17:28:22 27.6 C 5.32 g/m*3 27.6 C 0 km/h
1528 02-05-2009 17:40:23 26.8 C 5.09 g/m*3 26.8 C 0 km/h
1529 02-05-2009 17:52:22 26.6 C 5.03 g/m*3 26.6 C 0 km/h
1530 02-05-2009 18:04:22 26.3 C 4.95 g/m*3 26.3 C 0 km/h
1531 02-05-2009 18:16:23 27 C 5.15 g/m*3 27 C 0 km/h
1532 02-05-2009 18:28:23 27.1 C 5.18 g/m*3 27.1 C 0 km/h
1533 02-05-2009 18:40:22 25.9 C 4.84 g/m*3 25.9 C 0 km/h
1534 02-05-2009 18:52:22 26.9 C 5.12 g/m*3 26.9 C 0 km/h
1535 02-05-2009 19:04:22 26 C 4.87 g/m*3 26 C 0 km/h
1536 02-05-2009 19:16:22 24.1 C 4.38 g/m*3 24.1 C 0 km/h
1537 02-05-2009 19:28:22 24.5 C 4.7 g/m*3 24.5 C 0 km/h
1538 02-05-2009 19:40:21 23.9 C 4.54 g/m*3 23.9 C 0 km/h
1539 02-05-2009 19:52:22 23.2 C 4.99 g/m*3 23.2 C 0 km/h
1540 02-05-2009 20:04:21 22.9 C 5.11 g/m*3 22.9 C 0 km/h
1541 02-05-2009 20:16:21 22.5 C 5.59 g/m*3 22.5 C 0 km/h
1542 02-05-2009 20:28:21 21.8 C 5.76 g/m*3 21.8 C 0 km/h
1543 02-05-2009 20:40:21 21 C 5.5 g/m*3 21 C 0 km/h
1544 02-05-2009 20:52:21 20.3 C 5.45 g/m*3 20.3 C 0 km/h
1545 02-05-2009 21:04:21 19.6 C 5.57 g/m*3 19.6 C 0 km/h
1546 02-05-2009 21:16:20 18.7 C 5.6 g/m*3 18.7 C 0 km/h
1547 02-05-2009 21:28:20 17.9 C 5.5 g/m*3 17.9 C 0 km/h
1548 02-05-2009 21:40:20 17.6 C 5.55 g/m*3 17.6 C 0 km/h
1549 02-05-2009 21:52:20 17.2 C 5.71 g/m*3 17.2 C 0 km/h
1550 02-05-2009 22:04:20 16.9 C 5.75 g/m*3 16.9 C 0 km/h
Sensor: Nr:Datum:Temp:Abs-Feuchte:Windchill:Wind:
Aussen-T/F 1551 02-05-2009 22:16:20 16.7 C 5.83 g/m*3 16.7 C 0 km/h
1552 02-05-2009 22:28:20 16.8 C 6 g/m*3 16.8 C 0 km/h
1553 02-05-2009 22:41:22 16.5 C 6.18 g/m*3 16.5 C 0 km/h
1554 02-05-2009 22:53:22 16.4 C 6.28 g/m*3 16.4 C 0 km/h
1555 02-05-2009 23:05:22 16.1 C 6.44 g/m*3 16.1 C 0 km/h
1556 02-05-2009 23:17:22 16 C 6.54 g/m*3 16 C 0 km/h
1557 02-05-2009 23:29:22 16 C 6.4 g/m*3 16 C 0 km/h
1558 02-05-2009 23:41:22 15.6 C 6.52 g/m*3 15.6 C 0 km/h
1559 02-05-2009 23:53:22 15.3 C 6.66 g/m*3 15.3 C 0 km/h
1560 03-05-2009 00:05:22 14.9 C 6.75 g/m*3 14.9 C 0 km/h
1561 03-05-2009 00:17:22 14.6 C 6.88 g/m*3 14.6 C 0 km/h
1562 03-05-2009 00:29:22 14.4 C 6.92 g/m*3 14.4 C 0 km/h
1563 03-05-2009 00:41:22 13.9 C 7.07 g/m*3 13.9 C 0 km/h
1564 03-05-2009 00:53:22 13.2 C 7 g/m*3 13.2 C 0 km/h
1565 03-05-2009 01:05:22 13.2 C 7.12 g/m*3 13.2 C 0 km/h
1566 03-05-2009 01:17:22 13.2 C 7.23 g/m*3 13.2 C 0 km/h
1567 03-05-2009 01:29:22 12.9 C 7.33 g/m*3 12.9 C 0 km/h
1568 03-05-2009 01:41:22 12.6 C 7.3 g/m*3 12.6 C 0 km/h
1569 03-05-2009 01:53:23 12.4 C 7.32 g/m*3 12.4 C 0 km/h
1570 03-05-2009 02:05:23 12.2 C 7.34 g/m*3 12.2 C 0 km/h
1571 03-05-2009 02:17:23 12.2 C 7.34 g/m*3 12.2 C 0 km/h
1572 03-05-2009 02:29:23 12 C 7.35 g/m*3 12 C 0 km/h
1573 03-05-2009 02:41:23 11.8 C 7.37 g/m*3 11.8 C 0 km/h
1574 03-05-2009 02:53:23 11.8 C 7.47 g/m*3 11.8 C 0 km/h
1575 03-05-2009 03:05:23 11.4 C 7.39 g/m*3 11.4 C 0 km/h
Sensor: Nr:Datum:Temp:Abs-Feuchte:Windchill:Wind:
Aussen-T/F 1576 03-05-2009 03:17:23 11.2 C 7.4 g/m*3 11.2 C 0 km/h
1577 03-05-2009 03:29:23 10.9 C 7.36 g/m*3 10.9 C 0 km/h
1578 03-05-2009 03:41:23 10.8 C 7.41 g/m*3 10.8 C 0 km/h
1579 03-05-2009 03:53:23 10.6 C 7.42 g/m*3 10.6 C 0 km/h
1580 03-05-2009 04:05:23 10.5 C 7.37 g/m*3 10.5 C 0 km/h
1581 03-05-2009 04:17:23 10.2 C 7.33 g/m*3 10.2 C 0 km/h
1582 03-05-2009 04:29:23 9.9 C 7.38 g/m*3 9.9 C 0 km/h
1583 03-05-2009 04:41:23 9.9 C 7.38 g/m*3 9.9 C 0 km/h
1584 03-05-2009 04:53:23 9.8 C 7.33 g/m*3 9.8 C 0 km/h
1585 03-05-2009 05:05:23 9.7 C 7.38 g/m*3 9.7 C 0 km/h
1586 03-05-2009 05:17:23 9.3 C 7.19 g/m*3 9.3 C 0 km/h
1587 03-05-2009 05:29:23 9.1 C 7.19 g/m*3 9.1 C 0 km/h
1588 03-05-2009 05:41:23 9.1 C 7.19 g/m*3 9.1 C 0 km/h
1589 03-05-2009 05:53:24 9 C 7.23 g/m*3 9 C 0 km/h
1590 03-05-2009 06:05:24 9.1 C 7.28 g/m*3 9.1 C 0 km/h
1591 03-05-2009 06:17:24 9.5 C 7.46 g/m*3 9.5 C 0 km/h
1592 03-05-2009 06:29:24 9.6 C 7.42 g/m*3 9.6 C 0 km/h
1593 03-05-2009 06:41:24 9.5 C 7.28 g/m*3 9.5 C 0 km/h
1594 03-05-2009 06:53:24 9.6 C 7.42 g/m*3 9.6 C 0 km/h
1595 03-05-2009 07:05:24 9.8 C 7.42 g/m*3 9.8 C 0 km/h
1596 03-05-2009 07:17:24 10.1 C 7.38 g/m*3 10.1 C 0 km/h
1597 03-05-2009 07:29:24 9.9 C 7.38 g/m*3 9.9 C 0 km/h
1598 03-05-2009 07:41:24 9.9 C 7.47 g/m*3 9.9 C 0 km/h
1599 03-05-2009 07:53:24 10.3 C 7.47 g/m*3 10.3 C 0 km/h
1600 03-05-2009 08:05:21 10.6 C 7.52 g/m*3 10.6 C 0 km/h
Sensor: Nr:Datum:Temp:Abs-Feuchte:Windchill:Wind:
Aussen-T/F 1601 03-05-2009 08:17:20 11.1 C 7.55 g/m*3 11.1 C 0 km/h
1602 03-05-2009 08:29:20 11.5 C 7.54 g/m*3 11.5 C 0 km/h
1603 03-05-2009 08:41:20 11.6 C 7.59 g/m*3 11.6 C 0 km/h
1604 03-05-2009 08:53:21 12 C 7.57 g/m*3 12 C 0 km/h
1605 03-05-2009 09:05:20 12.2 C 7.66 g/m*3 12.2 C 0 km/h
1606 03-05-2009 09:17:20 12.9 C 7.89 g/m*3 12.9 C 0 km/h
1607 03-05-2009 09:29:20 13.1 C 7.76 g/m*3 13.1 C 0 km/h
1608 03-05-2009 09:41:21 13.7 C 7.93 g/m*3 13.7 C 0 km/h
1609 03-05-2009 09:53:20 14.1 C 8.01 g/m*3 14.1 C 0 km/h
1610 03-05-2009 10:05:20 14.6 C 8.01 g/m*3 14.6 C 0 km/h
1611 03-05-2009 10:17:20 14.9 C 8.03 g/m*3 14.9 C 0 km/h
1612 03-05-2009 10:29:20 15.4 C 8.15 g/m*3 15.4 C 0 km/h
1613 03-05-2009 10:41:20 16.8 C 8.44 g/m*3 16.8 C 0 km/h
1614 03-05-2009 10:53:19 17.3 C 8.1 g/m*3 17.3 C 0 km/h
1615 03-05-2009 11:05:20 17.5 C 8.05 g/m*3 17.5 C 0 km/h
1616 03-05-2009 11:17:19 17.8 C 8.04 g/m*3 17.8 C 0 km/h
1617 03-05-2009 11:29:19 18.4 C 8.02 g/m*3 18.4 C 0 km/h
1618 03-05-2009 11:41:19 18.9 C 7.78 g/m*3 18.9 C 0 km/h
1619 03-05-2009 11:53:18 19 C 7.99 g/m*3 19 C 0 km/h
1620 03-05-2009 12:05:19 19.4 C 7.67 g/m*3 19.4 C 0 km/h
1621 03-05-2009 12:17:19 19.9 C 7.56 g/m*3 19.9 C 0 km/h
1622 03-05-2009 12:29:19 20.2 C 7.52 g/m*3 20.2 C 0 km/h
1623 03-05-2009 12:41:18 20.7 C 7.56 g/m*3 20.7 C 0 km/h
1624 03-05-2009 12:53:19 21.4 C 7.5 g/m*3 21.4 C 0 km/h
1625 03-05-2009 13:05:18 22.5 C 7.59 g/m*3 22.5 C 0 km/h
Sensor: Nr:Datum:Temp:Abs-Feuchte:Windchill:Wind:
Aussen-T/F 1626 03-05-2009 13:17:18 23.3 C 7.32 g/m*3 23.3 C 0 km/h
1627 03-05-2009 13:29:18 21.7 C 7.44 g/m*3 21.7 C 0 km/h
1628 03-05-2009 13:41:18 22.2 C 7.66 g/m*3 22.2 C 0 km/h
1629 03-05-2009 13:53:18 21.1 C 7.74 g/m*3 21.1 C 0 km/h
1630 03-05-2009 14:05:18 20.6 C 8.23 g/m*3 20.6 C 0 km/h
1631 03-05-2009 14:17:17 19.8 C 8.03 g/m*3 19.8 C 0 km/h
1632 03-05-2009 14:29:17 16.8 C 9.44 g/m*3 16.8 C 0 km/h
1633 03-05-2009 14:41:18 17.3 C 9.72 g/m*3 17.3 C 0 km/h
1634 03-05-2009 14:53:17 18.3 C 8.29 g/m*3 18.3 C 0 km/h
1635 03-05-2009 15:05:17 19 C 8.15 g/m*3 19 C 0 km/h
1636 03-05-2009 15:17:17 18.8 C 7.57 g/m*3 18.8 C 0 km/h
1637 03-05-2009 15:29:17 20.6 C 7.87 g/m*3 20.6 C 0 km/h
1638 03-05-2009 15:41:17 20.9 C 7.47 g/m*3 20.9 C 0 km/h
1639 03-05-2009 15:53:17 20.4 C 7.25 g/m*3 20.4 C 0 km/h
1640 03-05-2009 16:05:02 21.5 C 7.35 g/m*3 21.5 C 0 km/h
1641 03-05-2009 16:17:02 19.9 C 6.53 g/m*3 19.9 C 0 km/h
1642 03-05-2009 16:29:02 17.1 C 5.68 g/m*3 17.1 C 0 km/h
1643 03-05-2009 16:41:02 16.9 C 5.9 g/m*3 16.9 C 0 km/h
1644 03-05-2009 16:53:02 16.1 C 5.76 g/m*3 16.1 C 0 km/h
1645 03-05-2009 17:05:01 16.2 C 5.79 g/m*3 16.2 C 0 km/h
1646 03-05-2009 17:17:02 16.1 C 5.76 g/m*3 16.1 C 0 km/h
1647 03-05-2009 17:29:02 16.4 C 6.28 g/m*3 16.4 C 0 km/h
1648 03-05-2009 17:41:01 16.4 C 6.28 g/m*3 16.4 C 0 km/h
1649 03-05-2009 17:53:01 16.3 C 5.83 g/m*3 16.3 C 0 km/h
1650 03-05-2009 18:05:01 16.6 C 5.93 g/m*3 16.6 C 0 km/h
Sensor: Nr:Datum:Temp:Abs-Feuchte:Windchill:Wind:
Aussen-T/F 1651 03-05-2009 18:17:01 16.6 C 5.51 g/m*3 16.6 C 0 km/h
1652 03-05-2009 18:29:01 17.1 C 5.24 g/m*3 17.1 C 0 km/h
1653 03-05-2009 18:41:01 16.5 C 5.34 g/m*3 16.5 C 0 km/h
1654 03-05-2009 18:53:01 16.5 C 5.34 g/m*3 16.5 C 0 km/h
1655 03-05-2009 19:05:01 17.3 C 5.45 g/m*3 17.3 C 0 km/h
1656 03-05-2009 19:17:00 16.4 C 5.44 g/m*3 16.4 C 0 km/h
1657 03-05-2009 19:29:00 16.1 C 5.62 g/m*3 16.1 C 0 km/h
1658 03-05-2009 19:41:00 16.8 C 5.72 g/m*3 16.8 C 0 km/h
1659 03-05-2009 19:53:00 16.8 C 5.72 g/m*3 16.8 C 0 km/h
1660 03-05-2009 20:05:00 16.1 C 5.35 g/m*3 16.1 C 0 km/h
1661 03-05-2009 20:17:59 15.4 C 5.39 g/m*3 15.4 C 0 km/h
1662 03-05-2009 20:29:59 14.8 C 5.7 g/m*3 14.8 C 0 km/h
1663 03-05-2009 20:41:00 14.5 C 5.72 g/m*3 14.5 C 0 km/h
1664 03-05-2009 20:53:59 14.5 C 5.85 g/m*3 14.5 C 0 km/h
1665 03-05-2009 21:05:59 14.4 C 5.93 g/m*3 14.4 C 0 km/h
1666 03-05-2009 21:17:59 14.2 C 5.74 g/m*3 14.2 C 0 km/h
1667 03-05-2009 21:29:59 14 C 5.79 g/m*3 14 C 0 km/h
1668 03-05-2009 21:41:59 13.6 C 5.77 g/m*3 13.6 C 0 km/h
1669 03-05-2009 21:53:58 13.5 C 5.61 g/m*3 13.5 C 0 km/h
1670 03-05-2009 22:05:59 13.1 C 5.36 g/m*3 13.1 C 0 km/h
1671 03-05-2009 22:17:59 12.9 C 5.3 g/m*3 12.9 C 0 km/h
1672 03-05-2009 22:29:59 12.7 C 5.12 g/m*3 12.7 C 0 km/h
1673 03-05-2009 22:41:58 12.5 C 5.06 g/m*3 12.5 C 0 km/h
1674 03-05-2009 22:53:59 12.3 C 5.1 g/m*3 12.3 C 0 km/h
1675 03-05-2009 23:05:58 12.2 C 5.07 g/m*3 12.2 C 0 km/h
Sensor: Nr:Datum:Temp:Abs-Feuchte:Windchill:Wind:
Aussen-T/F 1676 03-05-2009 23:17:58 12.1 C 5.15 g/m*3 12.1 C 0 km/h
1677 03-05-2009 23:29:58 11.8 C 5.16 g/m*3 11.8 C 0 km/h
1678 03-05-2009 23:41:58 11.7 C 5.23 g/m*3 11.7 C 0 km/h
1679 03-05-2009 23:53:58 11.8 C 5.37 g/m*3 11.8 C 0 km/h
1680 04-05-2009 00:06:59 11.8 C 5.47 g/m*3 11.8 C 0 km/h
1681 04-05-2009 00:18:59 11.5 C 5.47 g/m*3 11.5 C 0 km/h
1682 04-05-2009 00:30:59 11.5 C 5.47 g/m*3 11.5 C 0 km/h
1683 04-05-2009 00:42:59 11.2 C 5.37 g/m*3 11.2 C 0 km/h
1684 04-05-2009 00:54:59 11 C 5.1 g/m*3 11 C 0 km/h
1685 04-05-2009 01:06:59 10.7 C 5.11 g/m*3 10.7 C 0 km/h
1686 04-05-2009 01:18:59 10.6 C 5.17 g/m*3 10.6 C 0 km/h
1687 04-05-2009 01:30:59 10.5 C 4.95 g/m*3 10.5 C 0 km/h
1688 04-05-2009 01:42:59 10.4 C 4.72 g/m*3 10.4 C 0 km/h
1689 04-05-2009 01:54:59 10.2 C 4.66 g/m*3 10.2 C 0 km/h
1690 04-05-2009 02:06:59 10 C 4.51 g/m*3 10 C 0 km/h
1691 04-05-2009 02:18:59 9.8 C 4.55 g/m*3 9.8 C 0 km/h
1692 04-05-2009 02:30:59 9.7 C 4.61 g/m*3 9.7 C 0 km/h
1693 04-05-2009 02:42:59 9.3 C 4.49 g/m*3 9.3 C 0 km/h
1694 04-05-2009 03:05:59 8.9 C 4.56 g/m*3 8.9 C 0 km/h
1695 04-05-2009 03:17:59 8.6 C 4.55 g/m*3 8.6 C 0 km/h
1696 04-05-2009 03:30:00 8.5 C 4.61 g/m*3 8.5 C 0 km/h
1697 04-05-2009 03:42:00 8.3 C 4.64 g/m*3 8.3 C 0 km/h
1698 04-05-2009 03:54:00 8.2 C 4.69 g/m*3 8.2 C 0 km/h
1699 04-05-2009 04:06:00 8.2 C 4.69 g/m*3 8.2 C 0 km/h
1700 04-05-2009 04:18:00 7.9 C 4.68 g/m*3 7.9 C 0 km/h
Sensor: Nr:Datum:Temp:Abs-Feuchte:Windchill:Wind:
Aussen-T/F 1701 04-05-2009 04:30:00 7.8 C 4.82 g/m*3 7.8 C 0 km/h
1702 04-05-2009 04:42:00 7.5 C 4.8 g/m*3 7.5 C 0 km/h
1703 04-05-2009 04:54:00 7.2 C 4.79 g/m*3 7.2 C 0 km/h
1704 04-05-2009 05:06:00 7 C 4.88 g/m*3 7 C 0 km/h
1705 04-05-2009 05:18:00 6.9 C 4.93 g/m*3 6.9 C 0 km/h
1706 04-05-2009 05:30:00 6.8 C 5.05 g/m*3 6.8 C 0 km/h
1707 04-05-2009 05:42:00 7 C 4.96 g/m*3 7 C 0 km/h
1708 04-05-2009 05:54:00 7.3 C 5.06 g/m*3 7.3 C 0 km/h
1709 04-05-2009 06:06:00 7.4 C 5.01 g/m*3 7.4 C 0 km/h
1710 04-05-2009 06:18:00 7.1 C 4.99 g/m*3 7.1 C 0 km/h
1711 04-05-2009 06:30:00 6.9 C 5.16 g/m*3 6.9 C 0 km/h
1712 04-05-2009 06:42:00 6.7 C 5.17 g/m*3 6.7 C 0 km/h
1713 04-05-2009 06:54:00 6.5 C 5.17 g/m*3 6.5 C 0 km/h
1714 04-05-2009 07:06:00 6.4 C 5.22 g/m*3 6.4 C 0 km/h
1715 04-05-2009 07:18:00 7.1 C 5.46 g/m*3 7.1 C 0 km/h
1716 04-05-2009 07:30:00 7.1 C 5.38 g/m*3 7.1 C 0 km/h
1717 04-05-2009 07:30:58 7 C 5.27 g/m*3 7 C 0 km/h
1718 04-05-2009 07:42:58 7.1 C 5.3 g/m*3 7.1 C 0 km/h
1719 04-05-2009 07:54:58 8.1 C 5.41 g/m*3 8.1 C 0 km/h
1720 04-05-2009 08:06:57 7.9 C 5.42 g/m*3 7.9 C 0 km/h
1721 04-05-2009 08:18:58 7.8 C 5.47 g/m*3 7.8 C 0 km/h
1722 04-05-2009 08:30:58 7.9 C 5.5 g/m*3 7.9 C 0 km/h
1723 04-05-2009 08:42:58 8 C 5.37 g/m*3 8 C 0 km/h
1724 04-05-2009 08:54:57 8.1 C 5.41 g/m*3 8.1 C 0 km/h
1725 04-05-2009 09:06:57 8.3 C 5.31 g/m*3 8.3 C 0 km/h
Sensor: Nr:Datum:Temp:Abs-Feuchte:Windchill:Wind:
Aussen-T/F 1726 04-05-2009 09:18:58 8.6 C 5.07 g/m*3 8.6 C 0 km/h
1727 04-05-2009 09:30:57 9 C 5.2 g/m*3 9 C 0 km/h
1728 04-05-2009 09:42:57 9.6 C 5.04 g/m*3 9.6 C 0 km/h
1729 04-05-2009 09:54:57 9.3 C 4.76 g/m*3 9.3 C 0 km/h
1730 04-05-2009 10:06:57 9.7 C 4.98 g/m*3 9.7 C 0 km/h
1731 04-05-2009 10:18:57 10.8 C 4.65 g/m*3 10.8 C 0 km/h
1732 04-05-2009 10:30:56 10.9 C 4.48 g/m*3 10.9 C 0 km/h
1733 04-05-2009 10:42:56 10.8 C 4.55 g/m*3 10.8 C 0 km/h
1734 04-05-2009 10:54:56 10.3 C 4.12 g/m*3 10.3 C 0 km/h
1735 04-05-2009 11:06:56 11.3 C 4.49 g/m*3 11.3 C 0 km/h
1736 04-05-2009 11:18:56 11.9 C 4.45 g/m*3 11.9 C 0 km/h
1737 04-05-2009 11:30:56 13.4 C 4.42 g/m*3 13.4 C 0 km/h
1738 04-05-2009 11:42:56 11.7 C 3.97 g/m*3 11.7 C 0 km/h
1739 04-05-2009 11:54:56 12.4 C 3.93 g/m*3 12.4 C 0 km/h
1740 04-05-2009 12:06:56 12.6 C 3.98 g/m*3 12.6 C 0 km/h
1741 04-05-2009 12:18:55 13.2 C 4.02 g/m*3 13.2 C 0 km/h
1742 04-05-2009 12:30:55 13.8 C 4.05 g/m*3 13.8 C 0 km/h
1743 04-05-2009 12:42:55 14 C 3.62 g/m*3 14 C 0 km/h
1744 04-05-2009 12:54:55 14 C 3.74 g/m*3 14 C 0 km/h
1745 04-05-2009 13:06:55 14.6 C 3.5 g/m*3 14.6 C 0 km/h
1746 04-05-2009 13:18:54 15.4 C 3.28 g/m*3 15.4 C 0 km/h
1747 04-05-2009 13:30:55 15.6 C 3.46 g/m*3 15.6 C 0 km/h
1748 04-05-2009 13:42:55 15.4 C 3.28 g/m*3 15.4 C 0 km/h
1749 04-05-2009 13:54:54 16.2 C 2.9 g/m*3 16.2 C 0 km/h
1750 04-05-2009 14:06:54 15.5 C 2.64 g/m*3 15.5 C 0 km/h
Sensor: Nr:Datum:Temp:Abs-Feuchte:Windchill:Wind:
Aussen-T/F 1751 04-05-2009 14:18:55 15.9 C 3.25 g/m*3 15.9 C 0 km/h
1752 04-05-2009 14:30:54 15.6 C 2.66 g/m*3 15.6 C 0 km/h
1753 04-05-2009 14:42:54 16.8 C 3 g/m*3 16.8 C 0 km/h
1754 04-05-2009 14:54:54 16.8 C 2.86 g/m*3 16.8 C 0 km/h
1755 04-05-2009 15:06:54 15 C 2.56 g/m*3 15 C 0 km/h
1756 04-05-2009 15:18:54 14.6 C 3.25 g/m*3 14.6 C 0 km/h
1757 04-05-2009 15:30:54 16.2 C 3.31 g/m*3 16.2 C 0 km/h
1758 04-05-2009 15:42:54 17.1 C 2.91 g/m*3 17.1 C 0 km/h
1759 04-05-2009 15:54:54 15.2 C 2.86 g/m*3 15.2 C 0 km/h
1760 04-05-2009 16:06:54 15.8 C 2.96 g/m*3 15.8 C 0 km/h
1761 04-05-2009 16:18:53 16.8 C 3.15 g/m*3 16.8 C 0 km/h
1762 04-05-2009 16:30:53 16.6 C 2.83 g/m*3 16.6 C 0 km/h
1763 04-05-2009 16:42:53 15.8 C 2.96 g/m*3 15.8 C 0 km/h
1764 04-05-2009 16:54:53 16.2 C 3.17 g/m*3 16.2 C 0 km/h
1765 04-05-2009 17:06:53 15 C 3.08 g/m*3 15 C 0 km/h
1766 04-05-2009 17:18:52 17 C 2.89 g/m*3 17 C 0 km/h
1767 04-05-2009 17:30:53 16 C 2.72 g/m*3 16 C 0 km/h
1768 04-05-2009 17:42:53 15.4 C 3.02 g/m*3 15.4 C 0 km/h
1769 04-05-2009 17:54:53 16 C 3.13 g/m*3 16 C 0 km/h
1770 04-05-2009 18:06:52 16.4 C 3.07 g/m*3 16.4 C 0 km/h
1771 04-05-2009 18:18:52 17.3 C 2.95 g/m*3 17.3 C 0 km/h
1772 04-05-2009 18:30:51 17.5 C 2.98 g/m*3 17.5 C 0 km/h
1773 04-05-2009 18:42:51 18.7 C 3.2 g/m*3 18.7 C 0 km/h
1774 04-05-2009 18:54:52 18 C 3.07 g/m*3 18 C 0 km/h
1775 04-05-2009 19:06:51 18.1 C 3.09 g/m*3 18.1 C 0 km/h
Sensor: Nr:Datum:Temp:Abs-Feuchte:Windchill:Wind:
Aussen-T/F 1776 04-05-2009 19:18:51 18.9 C 3.24 g/m*3 18.9 C 0 km/h
1777 04-05-2009 19:30:52 17.9 C 3.05 g/m*3 17.9 C 0 km/h
1778 04-05-2009 19:42:52 17.7 C 3.02 g/m*3 17.7 C 0 km/h
1779 04-05-2009 19:54:51 16.1 C 3.56 g/m*3 16.1 C 0 km/h
1780 04-05-2009 20:06:51 14.8 C 3.8 g/m*3 14.8 C 0 km/h
1781 04-05-2009 20:18:51 13.8 C 3.93 g/m*3 13.8 C 0 km/h
1782 04-05-2009 20:30:51 12.8 C 3.92 g/m*3 12.8 C 0 km/h
1783 04-05-2009 20:42:52 12.6 C 3.98 g/m*3 12.6 C 0 km/h
1784 04-05-2009 20:54:50 12.7 C 4.01 g/m*3 12.7 C 0 km/h
1785 04-05-2009 21:06:51 12.8 C 4.03 g/m*3 12.8 C 0 km/h
1786 04-05-2009 21:18:50 12.8 C 4.03 g/m*3 12.8 C 0 km/h
1787 04-05-2009 21:30:50 12.8 C 4.14 g/m*3 12.8 C 0 km/h
1788 04-05-2009 21:42:50 12.7 C 4.34 g/m*3 12.7 C 0 km/h
1789 04-05-2009 21:54:50 12.3 C 4.34 g/m*3 12.3 C 0 km/h
1790 04-05-2009 22:07:51 12.1 C 4.61 g/m*3 12.1 C 0 km/h
1791 04-05-2009 22:19:51 11.9 C 4.77 g/m*3 11.9 C 0 km/h
1792 04-05-2009 22:31:51 11.7 C 4.71 g/m*3 11.7 C 0 km/h
1793 04-05-2009 22:43:51 11.8 C 4.74 g/m*3 11.8 C 0 km/h
1794 04-05-2009 22:55:52 11.8 C 4.63 g/m*3 11.8 C 0 km/h
1795 04-05-2009 23:07:52 11.7 C 4.81 g/m*3 11.7 C 0 km/h
1796 04-05-2009 23:19:52 11.5 C 4.85 g/m*3 11.5 C 0 km/h
1797 04-05-2009 23:31:52 11.4 C 4.72 g/m*3 11.4 C 0 km/h
1798 04-05-2009 23:43:52 11.1 C 4.73 g/m*3 11.1 C 0 km/h
1799 04-05-2009 23:55:52 10.8 C 4.74 g/m*3 10.8 C 0 km/h
1800 05-05-2009 00:07:52 10.5 C 4.66 g/m*3 10.5 C 0 km/h
Sensor: Nr:Datum:Temp:Abs-Feuchte:Windchill:Wind:
Aussen-T/F 1801 05-05-2009 00:19:52 10 C 4.6 g/m*3 10 C 0 km/h
1802 05-05-2009 00:31:52 9.6 C 4.67 g/m*3 9.6 C 0 km/h
1803 05-05-2009 00:43:52 9.3 C 4.67 g/m*3 9.3 C 0 km/h
1804 05-05-2009 00:55:52 9.1 C 4.79 g/m*3 9.1 C 0 km/h
1805 05-05-2009 01:07:52 8.9 C 4.73 g/m*3 8.9 C 0 km/h
1806 05-05-2009 01:19:52 8.7 C 4.93 g/m*3 8.7 C 0 km/h
1807 05-05-2009 01:31:52 8.4 C 5.01 g/m*3 8.4 C 0 km/h
1808 05-05-2009 01:43:52 8.1 C 4.99 g/m*3 8.1 C 0 km/h
1809 05-05-2009 01:55:52 8 C 4.96 g/m*3 8 C 0 km/h
1810 05-05-2009 02:07:52 8.2 C 5.19 g/m*3 8.2 C 0 km/h
1811 05-05-2009 02:19:52 8.2 C 5.28 g/m*3 8.2 C 0 km/h
1812 05-05-2009 02:31:52 8.2 C 5.28 g/m*3 8.2 C 0 km/h
1813 05-05-2009 02:43:52 8.2 C 5.28 g/m*3 8.2 C 0 km/h
1814 05-05-2009 02:55:53 8.2 C 5.28 g/m*3 8.2 C 0 km/h
1815 05-05-2009 03:07:53 7.9 C 5.42 g/m*3 7.9 C 0 km/h
1816 05-05-2009 03:19:53 7.9 C 5.42 g/m*3 7.9 C 0 km/h
1817 05-05-2009 03:31:53 7.8 C 5.39 g/m*3 7.8 C 0 km/h
1818 05-05-2009 03:43:53 7.9 C 5.26 g/m*3 7.9 C 0 km/h
1819 05-05-2009 03:55:53 7.9 C 5.17 g/m*3 7.9 C 0 km/h
1820 05-05-2009 04:07:53 8 C 4.96 g/m*3 8 C 0 km/h
1821 05-05-2009 04:19:53 7.9 C 5.09 g/m*3 7.9 C 0 km/h
1822 05-05-2009 04:31:53 7.8 C 5.22 g/m*3 7.8 C 0 km/h
1823 05-05-2009 04:43:53 7.9 C 5.17 g/m*3 7.9 C 0 km/h
1824 05-05-2009 04:55:53 7.9 C 5.17 g/m*3 7.9 C 0 km/h
1825 05-05-2009 05:07:53 7.9 C 5.34 g/m*3 7.9 C 0 km/h
Sensor: Nr:Datum:Temp:Abs-Feuchte:Windchill:Wind:
Aussen-T/F 1826 05-05-2009 05:19:53 7.8 C 5.39 g/m*3 7.8 C 0 km/h
1827 05-05-2009 05:31:53 7.8 C 5.47 g/m*3 7.8 C 0 km/h
1828 05-05-2009 05:43:53 7.7 C 5.43 g/m*3 7.7 C 0 km/h
1829 05-05-2009 05:55:53 7.9 C 5.42 g/m*3 7.9 C 0 km/h
1830 05-05-2009 06:07:53 8 C 5.29 g/m*3 8 C 0 km/h
1831 05-05-2009 06:19:53 8 C 5.29 g/m*3 8 C 0 km/h
1832 05-05-2009 06:31:53 8.1 C 5.33 g/m*3 8.1 C 0 km/h
1833 05-05-2009 06:43:53 8.2 C 5.36 g/m*3 8.2 C 0 km/h
1834 05-05-2009 06:55:54 8.3 C 5.39 g/m*3 8.3 C 0 km/h
1835 05-05-2009 07:07:54 8.5 C 5.46 g/m*3 8.5 C 0 km/h
1836 05-05-2009 07:19:54 8.6 C 5.41 g/m*3 8.6 C 0 km/h
1837 05-05-2009 07:31:54 8.9 C 5.43 g/m*3 8.9 C 0 km/h
1838 05-05-2009 07:43:54 9.2 C 5.36 g/m*3 9.2 C 0 km/h
1839 05-05-2009 07:55:54 9.4 C 5.43 g/m*3 9.4 C 0 km/h
1840 05-05-2009 08:07:54 9.5 C 5.28 g/m*3 9.5 C 0 km/h
1841 05-05-2009 08:19:54 9.6 C 5.13 g/m*3 9.6 C 0 km/h
1842 05-05-2009 08:31:54 9.8 C 5.1 g/m*3 9.8 C 0 km/h
1843 05-05-2009 08:43:54 9.9 C 5.14 g/m*3 9.9 C 0 km/h
1844 05-05-2009 08:55:50 10.4 C 5.3 g/m*3 10.4 C 0 km/h
1845 05-05-2009 09:07:50 10.5 C 5.14 g/m*3 10.5 C 0 km/h
1846 05-05-2009 09:19:50 10.4 C 5.3 g/m*3 10.4 C 0 km/h
1847 05-05-2009 09:31:50 10.6 C 5.56 g/m*3 10.6 C 0 km/h
1848 05-05-2009 09:43:50 10.8 C 5.54 g/m*3 10.8 C 0 km/h
1849 05-05-2009 09:55:49 11 C 5.51 g/m*3 11 C 0 km/h
1850 05-05-2009 10:07:50 11.2 C 5.57 g/m*3 11.2 C 0 km/h
Sensor: Nr:Datum:Temp:Abs-Feuchte:Windchill:Wind:
Aussen-T/F 1851 05-05-2009 10:19:50 11.3 C 5.51 g/m*3 11.3 C 0 km/h
1852 05-05-2009 10:31:49 11.4 C 5.44 g/m*3 11.4 C 0 km/h
1853 05-05-2009 10:43:49 12 C 5.44 g/m*3 12 C 0 km/h
1854 05-05-2009 10:55:50 12 C 5.44 g/m*3 12 C 0 km/h
1855 05-05-2009 11:07:49 12.4 C 5.57 g/m*3 12.4 C 0 km/h
1856 05-05-2009 11:19:49 12.6 C 5.64 g/m*3 12.6 C 0 km/h
1857 05-05-2009 11:31:48 12.7 C 5.9 g/m*3 12.7 C 0 km/h
1858 05-05-2009 11:43:48 12.7 C 6.01 g/m*3 12.7 C 0 km/h
1859 05-05-2009 11:55:49 12.8 C 6.27 g/m*3 12.8 C 0 km/h
1860 05-05-2009 12:07:48 12.7 C 6.12 g/m*3 12.7 C 0 km/h
1861 05-05-2009 12:19:48 12.9 C 6.42 g/m*3 12.9 C 0 km/h
1862 05-05-2009 12:31:49 12.5 C 6.49 g/m*3 12.5 C 0 km/h
1863 05-05-2009 12:43:49 12.4 C 6.66 g/m*3 12.4 C 0 km/h
1864 05-05-2009 12:55:48 11.8 C 6.84 g/m*3 11.8 C 0 km/h
1865 05-05-2009 13:07:48 11.8 C 6.95 g/m*3 11.8 C 0 km/h
1866 05-05-2009 13:19:48 11.8 C 6.74 g/m*3 11.8 C 0 km/h
1867 05-05-2009 13:31:48 12 C 6.5 g/m*3 12 C 0 km/h
1868 05-05-2009 13:43:48 12.1 C 6.54 g/m*3 12.1 C 0 km/h
1869 05-05-2009 13:55:47 12.6 C 6.64 g/m*3 12.6 C 0 km/h
1870 05-05-2009 14:07:48 12.8 C 6.61 g/m*3 12.8 C 0 km/h
1871 05-05-2009 14:19:47 12.5 C 6.6 g/m*3 12.5 C 0 km/h
1872 05-05-2009 14:31:47 12.3 C 6.62 g/m*3 12.3 C 0 km/h
1873 05-05-2009 14:43:47 12.4 C 6.77 g/m*3 12.4 C 0 km/h
1874 05-05-2009 14:55:47 13.1 C 6.73 g/m*3 13.1 C 0 km/h
1875 05-05-2009 15:07:47 13.4 C 6.74 g/m*3 13.4 C 0 km/h
Sensor: Nr:Datum:Temp:Abs-Feuchte:Windchill:Wind:
Aussen-T/F 1876 05-05-2009 15:19:47 13.4 C 6.74 g/m*3 13.4 C 0 km/h
1877 05-05-2009 15:31:46 13.1 C 6.85 g/m*3 13.1 C 0 km/h
1878 05-05-2009 15:43:46 12.2 C 7.34 g/m*3 12.2 C 0 km/h
1879 05-05-2009 15:55:47 11.6 C 7.8 g/m*3 11.6 C 0 km/h
1880 05-05-2009 16:07:46 11.2 C 7.91 g/m*3 11.2 C 0 km/h
1881 05-05-2009 16:19:46 11.2 C 8.11 g/m*3 11.2 C 0 km/h
1882 05-05-2009 16:31:46 11.5 C 8.37 g/m*3 11.5 C 0 km/h
1883 05-05-2009 16:43:46 11.7 C 8.26 g/m*3 11.7 C 0 km/h
1884 05-05-2009 16:55:46 11.8 C 8.31 g/m*3 11.8 C 0 km/h
1885 05-05-2009 17:07:45 11.6 C 8.21 g/m*3 11.6 C 0 km/h
1886 05-05-2009 17:19:46 11.7 C 8.37 g/m*3 11.7 C 0 km/h
1887 05-05-2009 17:31:46 11.8 C 8.31 g/m*3 11.8 C 0 km/h
1888 05-05-2009 17:43:46 12 C 8.42 g/m*3 12 C 0 km/h
1889 05-05-2009 17:55:45 11.8 C 8.42 g/m*3 11.8 C 0 km/h
1890 05-05-2009 18:07:44 11.6 C 8.52 g/m*3 11.6 C 0 km/h
1891 05-05-2009 18:19:45 11.5 C 8.57 g/m*3 11.5 C 0 km/h
1892 05-05-2009 18:31:45 11.3 C 8.57 g/m*3 11.3 C 0 km/h
1893 05-05-2009 18:43:45 11.2 C 8.72 g/m*3 11.2 C 0 km/h
1894 05-05-2009 18:55:45 11.2 C 8.72 g/m*3 11.2 C 0 km/h
1895 05-05-2009 19:07:45 11.2 C 8.82 g/m*3 11.2 C 0 km/h
1896 05-05-2009 19:19:44 11.2 C 8.92 g/m*3 11.2 C 0 km/h
1897 05-05-2009 19:31:44 11.2 C 8.92 g/m*3 11.2 C 0 km/h
1898 05-05-2009 19:43:44 11.1 C 8.96 g/m*3 11.1 C 0 km/h
1899 05-05-2009 19:55:44 11.1 C 8.96 g/m*3 11.1 C 0 km/h
1900 05-05-2009 20:07:44 11.1 C 9.07 g/m*3 11.1 C 0 km/h
Sensor: Nr:Datum:Temp:Abs-Feuchte:Windchill:Wind:
Aussen-T/F 1901 05-05-2009 20:19:43 11 C 9.01 g/m*3 11 C 0 km/h
1902 05-05-2009 20:31:44 11.1 C 9.07 g/m*3 11.1 C 0 km/h
1903 05-05-2009 20:43:44 11.1 C 9.17 g/m*3 11.1 C 0 km/h
1904 05-05-2009 20:55:43 11 C 9.11 g/m*3 11 C 0 km/h
1905 05-05-2009 21:07:43 11.1 C 9.17 g/m*3 11.1 C 0 km/h
1906 05-05-2009 21:19:43 11.1 C 9.27 g/m*3 11.1 C 0 km/h
1907 05-05-2009 21:31:43 11.2 C 9.33 g/m*3 11.2 C 0 km/h
1908 05-05-2009 21:43:43 11.2 C 9.33 g/m*3 11.2 C 0 km/h
1909 05-05-2009 21:55:43 11.2 C 9.33 g/m*3 11.2 C 0 km/h
1910 05-05-2009 22:07:42 11.2 C 9.33 g/m*3 11.2 C 0 km/h
1911 05-05-2009 22:19:43 11.2 C 9.33 g/m*3 11.2 C 0 km/h
1912 05-05-2009 22:31:43 11.3 C 9.38 g/m*3 11.3 C 0 km/h
1913 05-05-2009 22:43:43 11.4 C 9.44 g/m*3 11.4 C 0 km/h
1914 05-05-2009 22:55:42 11.3 C 9.38 g/m*3 11.3 C 0 km/h
1915 05-05-2009 23:07:43 11.4 C 9.44 g/m*3 11.4 C 0 km/h
1916 05-05-2009 23:19:42 11.4 C 9.44 g/m*3 11.4 C 0 km/h
1917 05-05-2009 23:32:43 11.4 C 9.44 g/m*3 11.4 C 0 km/h
1918 05-05-2009 23:44:43 11.3 C 9.38 g/m*3 11.3 C 0 km/h
1919 05-05-2009 23:56:43 11.4 C 9.44 g/m*3 11.4 C 0 km/h
1920 06-05-2009 00:08:43 11.8 C 9.58 g/m*3 11.8 C 0 km/h
1921 06-05-2009 00:20:43 11.9 C 9.43 g/m*3 11.9 C 0 km/h
1922 06-05-2009 00:32:43 12 C 9.27 g/m*3 12 C 0 km/h
1923 06-05-2009 00:44:43 12 C 9.06 g/m*3 12 C 0 km/h
1924 06-05-2009 00:56:43 12.1 C 9.01 g/m*3 12.1 C 0 km/h
1925 06-05-2009 01:08:43 12.2 C 8.96 g/m*3 12.2 C 0 km/h
Sensor: Nr:Datum:Temp:Abs-Feuchte:Windchill:Wind:
Aussen-T/F 1926 06-05-2009 01:20:43 12.2 C 8.85 g/m*3 12.2 C 0 km/h
1927 06-05-2009 01:32:44 12.1 C 8.79 g/m*3 12.1 C 0 km/h
1928 06-05-2009 01:44:44 12.1 C 8.79 g/m*3 12.1 C 0 km/h
1929 06-05-2009 01:56:44 12.1 C 8.79 g/m*3 12.1 C 0 km/h
1930 06-05-2009 02:08:44 12.3 C 8.8 g/m*3 12.3 C 0 km/h
1931 06-05-2009 02:20:44 12.4 C 8.74 g/m*3 12.4 C 0 km/h
1932 06-05-2009 02:32:44 12.4 C 8.74 g/m*3 12.4 C 0 km/h
1933 06-05-2009 02:44:44 12.4 C 8.63 g/m*3 12.4 C 0 km/h
1934 06-05-2009 02:56:44 12.4 C 8.63 g/m*3 12.4 C 0 km/h
1935 06-05-2009 03:08:44 12.2 C 8.63 g/m*3 12.2 C 0 km/h
1936 06-05-2009 03:20:44 12.2 C 8.52 g/m*3 12.2 C 0 km/h
1937 06-05-2009 03:32:44 12.4 C 8.3 g/m*3 12.4 C 0 km/h
1938 06-05-2009 03:44:44 12.4 C 8.3 g/m*3 12.4 C 0 km/h
1939 06-05-2009 03:56:44 12.4 C 8.3 g/m*3 12.4 C 0 km/h
1940 06-05-2009 04:08:44 12.4 C 8.09 g/m*3 12.4 C 0 km/h
1941 06-05-2009 04:20:44 12.4 C 7.98 g/m*3 12.4 C 0 km/h
1942 06-05-2009 04:32:44 12.2 C 7.99 g/m*3 12.2 C 0 km/h
1943 06-05-2009 04:44:44 12 C 7.99 g/m*3 12 C 0 km/h
1944 06-05-2009 04:56:44 12 C 7.99 g/m*3 12 C 0 km/h
1945 06-05-2009 05:08:44 12 C 7.78 g/m*3 12 C 0 km/h
1946 06-05-2009 05:20:44 12 C 7.57 g/m*3 12 C 0 km/h
1947 06-05-2009 05:32:45 11.9 C 7.41 g/m*3 11.9 C 0 km/h
1948 06-05-2009 05:44:45 11.8 C 7.26 g/m*3 11.8 C 0 km/h
1949 06-05-2009 05:56:45 11.8 C 7.05 g/m*3 11.8 C 0 km/h
1950 06-05-2009 06:08:45 11.8 C 6.95 g/m*3 11.8 C 0 km/h
Sensor: Nr:Datum:Temp:Abs-Feuchte:Windchill:Wind:
Aussen-T/F 1951 06-05-2009 06:20:45 11.8 C 7.05 g/m*3 11.8 C 0 km/h
1952 06-05-2009 06:32:45 11.8 C 7.05 g/m*3 11.8 C 0 km/h
1953 06-05-2009 06:44:45 11.8 C 7.16 g/m*3 11.8 C 0 km/h
1954 06-05-2009 06:56:45 11.8 C 7.16 g/m*3 11.8 C 0 km/h
1955 06-05-2009 07:08:45 11.8 C 6.95 g/m*3 11.8 C 0 km/h
1956 06-05-2009 07:20:45 11.9 C 6.99 g/m*3 11.9 C 0 km/h
1957 06-05-2009 07:32:45 12 C 6.71 g/m*3 12 C 0 km/h
1958 06-05-2009 07:44:45 12.2 C 6.91 g/m*3 12.2 C 0 km/h
1959 06-05-2009 07:56:45 12.3 C 6.84 g/m*3 12.3 C 0 km/h
1960 06-05-2009 08:08:43 12.3 C 6.73 g/m*3 12.3 C 0 km/h
1961 06-05-2009 08:20:43 12.3 C 6.73 g/m*3 12.3 C 0 km/h
1962 06-05-2009 08:32:43 12.2 C 6.69 g/m*3 12.2 C 0 km/h
1963 06-05-2009 08:44:43 12.2 C 6.69 g/m*3 12.2 C 0 km/h
1964 06-05-2009 08:56:43 12.4 C 6.88 g/m*3 12.4 C 0 km/h
1965 06-05-2009 09:08:42 12.3 C 6.41 g/m*3 12.3 C 0 km/h
1966 06-05-2009 09:20:43 12.5 C 6.38 g/m*3 12.5 C 0 km/h
1967 06-05-2009 09:32:42 13.1 C 6.73 g/m*3 13.1 C 0 km/h
1968 06-05-2009 09:44:42 13.2 C 6.54 g/m*3 13.2 C 0 km/h
1969 06-05-2009 09:56:43 13.7 C 6.16 g/m*3 13.7 C 0 km/h
1970 06-05-2009 10:08:42 14.1 C 6.31 g/m*3 14.1 C 0 km/h
1971 06-05-2009 10:20:42 14 C 6.03 g/m*3 14 C 0 km/h
1972 06-05-2009 10:32:42 14.4 C 6.18 g/m*3 14.4 C 0 km/h
1973 06-05-2009 10:44:41 14.1 C 5.95 g/m*3 14.1 C 0 km/h
1974 06-05-2009 10:56:41 14.4 C 5.93 g/m*3 14.4 C 0 km/h
1975 06-05-2009 11:08:42 14.7 C 5.92 g/m*3 14.7 C 0 km/h
Sensor: Nr:Datum:Temp:Abs-Feuchte:Windchill:Wind:
Aussen-T/F 1976 06-05-2009 11:20:41 14.7 C 5.79 g/m*3 14.7 C 0 km/h
1977 06-05-2009 11:32:41 15.2 C 5.84 g/m*3 15.2 C 0 km/h
1978 06-05-2009 11:44:41 15.4 C 5.78 g/m*3 15.4 C 0 km/h
1979 06-05-2009 11:56:41 15.5 C 5.82 g/m*3 15.5 C 0 km/h
1980 06-05-2009 12:08:41 15.8 C 5.79 g/m*3 15.8 C 0 km/h
1981 06-05-2009 12:20:40 16.2 C 5.79 g/m*3 16.2 C 0 km/h
1982 06-05-2009 12:32:41 16.2 C 5.65 g/m*3 16.2 C 0 km/h
1983 06-05-2009 12:44:40 16.2 C 5.93 g/m*3 16.2 C 0 km/h
1984 06-05-2009 12:56:40 15.4 C 5.91 g/m*3 15.4 C 0 km/h
1985 06-05-2009 13:08:40 15.4 C 5.91 g/m*3 15.4 C 0 km/h
1986 06-05-2009 13:20:41 15.3 C 6.14 g/m*3 15.3 C 0 km/h
1987 06-05-2009 13:32:40 15.4 C 6.18 g/m*3 15.4 C 0 km/h
1988 06-05-2009 13:44:40 15.6 C 6.25 g/m*3 15.6 C 0 km/h
1989 06-05-2009 13:56:40 15.9 C 6.23 g/m*3 15.9 C 0 km/h
1990 06-05-2009 14:08:40 16 C 6.4 g/m*3 16 C 0 km/h
1991 06-05-2009 14:20:40 16 C 6.13 g/m*3 16 C 0 km/h
1992 06-05-2009 14:32:39 15.8 C 6.33 g/m*3 15.8 C 0 km/h
1993 06-05-2009 14:44:40 15.6 C 6.38 g/m*3 15.6 C 0 km/h
1994 06-05-2009 14:56:40 15.5 C 6.48 g/m*3 15.5 C 0 km/h
1995 06-05-2009 15:08:39 15.4 C 6.57 g/m*3 15.4 C 0 km/h
1996 06-05-2009 15:20:39 15.5 C 6.61 g/m*3 15.5 C 0 km/h
1997 06-05-2009 15:32:39 15.4 C 6.57 g/m*3 15.4 C 0 km/h
1998 06-05-2009 15:44:39 15.6 C 6.78 g/m*3 15.6 C 0 km/h
1999 06-05-2009 15:56:39 15.7 C 6.69 g/m*3 15.7 C 0 km/h
2000 06-05-2009 16:02:38 15.7 C 6.82 g/m*3 15.7 C 0 km/h
Sensor: Nr:Datum:Temp:Abs-Feuchte:Windchill:Wind:
Aussen-T/F 2001 06-05-2009 16:17:39 15.6 C 6.78 g/m*3 15.6 C 0 km/h
2002 06-05-2009 16:32:38 15.6 C 6.78 g/m*3 15.6 C 0 km/h
2003 06-05-2009 16:47:38 15.7 C 6.96 g/m*3 15.7 C 0 km/h
2004 06-05-2009 17:02:38 15.9 C 7.04 g/m*3 15.9 C 0 km/h
2005 06-05-2009 17:17:38 15.8 C 7 g/m*3 15.8 C 0 km/h
2006 06-05-2009 17:32:38 15.7 C 7.09 g/m*3 15.7 C 0 km/h
2007 06-05-2009 17:47:38 15.8 C 7.13 g/m*3 15.8 C 0 km/h
2008 06-05-2009 18:02:38 16 C 6.81 g/m*3 16 C 0 km/h
2009 06-05-2009 18:17:37 16 C 6.81 g/m*3 16 C 0 km/h
2010 06-05-2009 18:32:37 15.8 C 7 g/m*3 15.8 C 0 km/h
2011 06-05-2009 18:47:37 15.7 C 7.09 g/m*3 15.7 C 0 km/h
2012 06-05-2009 19:02:37 15.7 C 7.09 g/m*3 15.7 C 0 km/h
2013 06-05-2009 19:17:36 15.6 C 7.31 g/m*3 15.6 C 0 km/h
2014 06-05-2009 19:32:36 15.5 C 7.27 g/m*3 15.5 C 0 km/h
2015 06-05-2009 19:47:36 15.3 C 7.18 g/m*3 15.3 C 0 km/h
2016 06-05-2009 20:02:36 15.2 C 7.14 g/m*3 15.2 C 0 km/h
2017 06-05-2009 20:17:36 15.1 C 7.22 g/m*3 15.1 C 0 km/h
2018 06-05-2009 20:32:36 15 C 7.31 g/m*3 15 C 0 km/h
2019 06-05-2009 20:47:36 14.8 C 7.35 g/m*3 14.8 C 0 km/h
2020 06-05-2009 21:02:36 14.7 C 7.3 g/m*3 14.7 C 0 km/h
2021 06-05-2009 21:17:01 14.6 C 7.26 g/m*3 14.6 C 0 km/h
2022 06-05-2009 21:33:36 14.5 C 7.21 g/m*3 14.5 C 0 km/h
2023 06-05-2009 21:48:36 14.4 C 7.17 g/m*3 14.4 C 0 km/h
2024 06-05-2009 22:03:36 14.2 C 7.2 g/m*3 14.2 C 0 km/h
2025 06-05-2009 22:18:36 14.3 C 7.25 g/m*3 14.3 C 0 km/h
Sensor: Nr:Datum:Temp:Abs-Feuchte:Windchill:Wind:
Aussen-T/F 2026 06-05-2009 22:33:36 14.1 C 7.16 g/m*3 14.1 C 0 km/h
2027 06-05-2009 22:48:36 14.1 C 7.16 g/m*3 14.1 C 0 km/h
2028 06-05-2009 23:03:36 14 C 7.12 g/m*3 14 C 0 km/h
2029 06-05-2009 23:18:36 13.9 C 7.19 g/m*3 13.9 C 0 km/h
2030 06-05-2009 23:33:36 13.7 C 7.1 g/m*3 13.7 C 0 km/h
2031 06-05-2009 23:48:37 13.6 C 7.06 g/m*3 13.6 C 0 km/h
2032 07-05-2009 00:03:37 13.5 C 7.13 g/m*3 13.5 C 0 km/h
2033 07-05-2009 00:18:37 13.4 C 7.09 g/m*3 13.4 C 0 km/h
2034 07-05-2009 00:33:37 13.1 C 7.19 g/m*3 13.1 C 0 km/h
2035 07-05-2009 00:48:37 12.8 C 7.28 g/m*3 12.8 C 0 km/h
2036 07-05-2009 01:03:37 12.4 C 7.21 g/m*3 12.4 C 0 km/h
2037 07-05-2009 01:18:37 12.1 C 7.29 g/m*3 12.1 C 0 km/h
2038 07-05-2009 01:33:37 11.8 C 7.37 g/m*3 11.8 C 0 km/h
2039 07-05-2009 01:48:37 11.6 C 7.38 g/m*3 11.6 C 0 km/h
2040 07-05-2009 02:03:37 11.3 C 7.34 g/m*3 11.3 C 0 km/h
2041 07-05-2009 02:18:37 11 C 7.31 g/m*3 11 C 0 km/h
2042 07-05-2009 02:33:37 11 C 7.41 g/m*3 11 C 0 km/h
2043 07-05-2009 02:48:37 10.9 C 7.46 g/m*3 10.9 C 0 km/h
2044 07-05-2009 03:03:37 10.8 C 7.41 g/m*3 10.8 C 0 km/h
2045 07-05-2009 03:18:37 10.7 C 7.37 g/m*3 10.7 C 0 km/h
2046 07-05-2009 03:33:37 10.5 C 7.37 g/m*3 10.5 C 0 km/h
2047 07-05-2009 03:48:37 10.3 C 7.28 g/m*3 10.3 C 0 km/h
2048 07-05-2009 04:03:37 10.2 C 7.23 g/m*3 10.2 C 0 km/h
2049 07-05-2009 04:18:37 10.2 C 7.33 g/m*3 10.2 C 0 km/h
2050 07-05-2009 04:33:38 9.7 C 7.19 g/m*3 9.7 C 0 km/h
Sensor: Nr:Datum:Temp:Abs-Feuchte:Windchill:Wind:
Aussen-T/F 2051 07-05-2009 04:48:38 9.3 C 7.1 g/m*3 9.3 C 0 km/h
2052 07-05-2009 05:03:38 8.9 C 7.01 g/m*3 8.9 C 0 km/h
2053 07-05-2009 05:18:38 8.7 C 7.01 g/m*3 8.7 C 0 km/h
2054 07-05-2009 05:33:38 8.5 C 7 g/m*3 8.5 C 0 km/h
2055 07-05-2009 05:48:38 8.4 C 7.04 g/m*3 8.4 C 0 km/h
2056 07-05-2009 06:03:38 8.3 C 7.08 g/m*3 8.3 C 0 km/h
2057 07-05-2009 06:18:38 8.2 C 7.03 g/m*3 8.2 C 0 km/h
2058 07-05-2009 06:33:38 8.2 C 7.03 g/m*3 8.2 C 0 km/h
2059 07-05-2009 06:48:38 8.3 C 7.16 g/m*3 8.3 C 0 km/h
2060 07-05-2009 07:03:36 8.5 C 7.26 g/m*3 8.5 C 0 km/h
2061 07-05-2009 07:18:36 8.6 C 7.39 g/m*3 8.6 C 0 km/h
2062 07-05-2009 07:33:35 9.2 C 7.59 g/m*3 9.2 C 0 km/h
2063 07-05-2009 07:48:36 9.9 C 7.84 g/m*3 9.9 C 0 km/h
2064 07-05-2009 08:03:35 10.1 C 7.47 g/m*3 10.1 C 0 km/h
2065 07-05-2009 08:18:35 10.2 C 7.52 g/m*3 10.2 C 0 km/h
2066 07-05-2009 08:33:35 10.7 C 7.66 g/m*3 10.7 C 0 km/h
2067 07-05-2009 08:56:02 11.4 C 7.6 g/m*3 11.4 C 0 km/h
2068 07-05-2009 09:11:02 11.9 C 7.63 g/m*3 11.9 C 0 km/h
2069 07-05-2009 09:26:02 12.5 C 7.48 g/m*3 12.5 C 0 km/h
2070 07-05-2009 09:41:02 13 C 7.37 g/m*3 13 C 0 km/h
2071 07-05-2009 09:56:02 13.5 C 7.49 g/m*3 13.5 C 0 km/h
2072 07-05-2009 10:11:02 13.8 C 7.51 g/m*3 13.8 C 0 km/h
2073 07-05-2009 10:26:02 14.6 C 7.38 g/m*3 14.6 C 0 km/h
2074 07-05-2009 10:41:02 15 C 7.05 g/m*3 15 C 0 km/h
2075 07-05-2009 10:56:02 15.4 C 7.36 g/m*3 15.4 C 0 km/h
Sensor: Nr:Datum:Temp:Abs-Feuchte:Windchill:Wind:
Aussen-T/F 2076 07-05-2009 11:11:03 16.1 C 6.99 g/m*3 16.1 C 0 km/h
2077 07-05-2009 11:26:03 16.4 C 6.98 g/m*3 16.4 C 0 km/h
2078 07-05-2009 11:41:03 16.7 C 7.11 g/m*3 16.7 C 0 km/h
2079 07-05-2009 11:56:03 17 C 6.66 g/m*3 17 C 0 km/h
2080 07-05-2009 12:11:03 17.6 C 6.45 g/m*3 17.6 C 0 km/h
2081 07-05-2009 12:26:03 17.7 C 6.49 g/m*3 17.7 C 0 km/h
2082 07-05-2009 12:41:03 17.2 C 6.3 g/m*3 17.2 C 0 km/h
2083 07-05-2009 12:56:03 18.5 C 6.65 g/m*3 18.5 C 0 km/h
2084 07-05-2009 13:11:03 19.3 C 6.47 g/m*3 19.3 C 0 km/h
2085 07-05-2009 13:26:03 19.7 C 6.28 g/m*3 19.7 C 0 km/h
2086 07-05-2009 13:41:03 20.5 C 5.69 g/m*3 20.5 C 0 km/h
2087 07-05-2009 13:56:03 20.5 C 5.69 g/m*3 20.5 C 0 km/h
2088 07-05-2009 14:11:03 20.5 C 5.52 g/m*3 20.5 C 0 km/h
2089 07-05-2009 14:26:03 20.3 C 5.45 g/m*3 20.3 C 0 km/h
2090 07-05-2009 14:41:03 20.9 C 5.83 g/m*3 20.9 C 0 km/h
2091 07-05-2009 14:56:03 21.5 C 5.85 g/m*3 21.5 C 0 km/h
2092 07-05-2009 15:11:03 21.9 C 5.79 g/m*3 21.9 C 0 km/h
2093 07-05-2009 15:26:03 22.7 C 5.66 g/m*3 22.7 C 0 km/h
2094 07-05-2009 15:41:03 23.1 C 5.17 g/m*3 23.1 C 0 km/h
2095 07-05-2009 15:56:04 24.1 C 5.47 g/m*3 24.1 C 0 km/h
2096 07-05-2009 16:11:04 23.6 C 5.1 g/m*3 23.6 C 0 km/h
2097 07-05-2009 16:26:04 24.5 C 5.6 g/m*3 24.5 C 0 km/h
2098 07-05-2009 16:41:04 24.5 C 5.6 g/m*3 24.5 C 0 km/h
2099 07-05-2009 16:56:04 24.1 C 5.47 g/m*3 24.1 C 0 km/h
2100 07-05-2009 17:11:04 25.1 C 5.56 g/m*3 25.1 C 0 km/h
Sensor: Nr:Datum:Temp:Abs-Feuchte:Windchill:Wind:
Aussen-T/F 2101 07-05-2009 17:26:04 25.4 C 5.41 g/m*3 25.4 C 0 km/h
2102 07-05-2009 17:41:04 24.9 C 5.72 g/m*3 24.9 C 0 km/h
2103 07-05-2009 17:56:04 26.4 C 5.73 g/m*3 26.4 C 0 km/h
2104 07-05-2009 18:11:04 26 C 5.11 g/m*3 26 C 0 km/h
2105 07-05-2009 18:26:04 25.5 C 4.97 g/m*3 25.5 C 0 km/h
2106 07-05-2009 18:41:04 25.1 C 5.09 g/m*3 25.1 C 0 km/h
2107 07-05-2009 18:56:04 25 C 5.29 g/m*3 25 C 0 km/h
2108 07-05-2009 19:11:04 25.7 C 5.99 g/m*3 25.7 C 0 km/h
2109 07-05-2009 19:26:04 26.4 C 5.73 g/m*3 26.4 C 0 km/h
2110 07-05-2009 19:41:04 25.9 C 5.57 g/m*3 25.9 C 0 km/h
2111 07-05-2009 19:56:04 25.5 C 5.92 g/m*3 25.5 C 0 km/h
2112 07-05-2009 20:11:04 25.1 C 6.48 g/m*3 25.1 C 0 km/h
2113 07-05-2009 20:26:04 24.1 C 6.56 g/m*3 24.1 C 0 km/h
2114 07-05-2009 20:41:04 22.4 C 6.55 g/m*3 22.4 C 0 km/h
2115 07-05-2009 20:56:04 20.8 C 6.88 g/m*3 20.8 C 0 km/h
2116 07-05-2009 21:11:05 19.9 C 7.39 g/m*3 19.9 C 0 km/h
2117 07-05-2009 21:26:05 19.3 C 7.3 g/m*3 19.3 C 0 km/h
2118 07-05-2009 21:41:05 18.9 C 7.29 g/m*3 18.9 C 0 km/h
2119 07-05-2009 21:56:05 18.6 C 7.32 g/m*3 18.6 C 0 km/h
2120 07-05-2009 22:11:05 18.1 C 7.26 g/m*3 18.1 C 0 km/h
2121 07-05-2009 22:26:05 17.7 C 7.39 g/m*3 17.7 C 0 km/h
2122 07-05-2009 22:41:05 17.2 C 7.47 g/m*3 17.2 C 0 km/h
2123 07-05-2009 22:56:05 16.8 C 7.43 g/m*3 16.8 C 0 km/h
2124 07-05-2009 23:11:05 16.6 C 7.49 g/m*3 16.6 C 0 km/h
2125 07-05-2009 23:26:05 16.4 C 7.68 g/m*3 16.4 C 0 km/h
Sensor: Nr:Datum:Temp:Abs-Feuchte:Windchill:Wind:
Aussen-T/F 2126 07-05-2009 23:41:05 16 C 7.49 g/m*3 16 C 0 km/h
2127 07-05-2009 23:56:05 15.7 C 7.63 g/m*3 15.7 C 0 km/h
2128 08-05-2009 00:11:05 15.4 C 7.75 g/m*3 15.4 C 0 km/h
2129 08-05-2009 00:26:05 14.8 C 7.85 g/m*3 14.8 C 0 km/h
2130 08-05-2009 00:41:05 14.6 C 7.88 g/m*3 14.6 C 0 km/h
2131 08-05-2009 00:56:05 14.4 C 7.79 g/m*3 14.4 C 0 km/h
2132 08-05-2009 01:11:05 14.2 C 7.94 g/m*3 14.2 C 0 km/h
2133 08-05-2009 01:26:05 13.9 C 8.15 g/m*3 13.9 C 0 km/h
2134 08-05-2009 01:41:05 14 C 7.96 g/m*3 14 C 0 km/h
2135 08-05-2009 01:56:05 13.6 C 8 g/m*3 13.6 C 0 km/h
2136 08-05-2009 02:11:06 13.2 C 7.92 g/m*3 13.2 C 0 km/h
2137 08-05-2009 02:26:06 13.1 C 7.99 g/m*3 13.1 C 0 km/h
2138 08-05-2009 02:41:06 12.8 C 8.06 g/m*3 12.8 C 0 km/h
2139 08-05-2009 02:56:06 12.7 C 8.01 g/m*3 12.7 C 0 km/h
2140 08-05-2009 03:11:06 12.5 C 8.03 g/m*3 12.5 C 0 km/h
2141 08-05-2009 03:26:06 12.4 C 8.09 g/m*3 12.4 C 0 km/h
2142 08-05-2009 03:41:06 12.2 C 8.09 g/m*3 12.2 C 0 km/h
2143 08-05-2009 03:56:06 12.4 C 8.09 g/m*3 12.4 C 0 km/h
2144 08-05-2009 04:11:06 12.1 C 8.04 g/m*3 12.1 C 0 km/h
2145 08-05-2009 04:26:06 12.1 C 8.04 g/m*3 12.1 C 0 km/h
2146 08-05-2009 04:41:06 12.4 C 8.19 g/m*3 12.4 C 0 km/h
2147 08-05-2009 04:56:06 12.2 C 8.2 g/m*3 12.2 C 0 km/h
2148 08-05-2009 05:11:06 11.5 C 8.57 g/m*3 11.5 C 0 km/h
2149 08-05-2009 05:26:06 11.7 C 9.2 g/m*3 11.7 C 0 km/h
2150 08-05-2009 05:41:06 12 C 9.48 g/m*3 12 C 0 km/h
Sensor: Nr:Datum:Temp:Abs-Feuchte:Windchill:Wind:
Aussen-T/F 2151 08-05-2009 05:56:06 12.6 C 10.07 g/m*3 12.6 C 0 km/h
2152 08-05-2009 06:11:06 13.3 C 10.4 g/m*3 13.3 C 0 km/h
2153 08-05-2009 06:26:06 13.5 C 10.18 g/m*3 13.5 C 0 km/h
2154 08-05-2009 06:41:06 13.3 C 9.94 g/m*3 13.3 C 0 km/h
2155 08-05-2009 06:56:06 13.2 C 9.99 g/m*3 13.2 C 0 km/h
2156 08-05-2009 07:11:06 13 C 9.98 g/m*3 13 C 0 km/h
2157 08-05-2009 07:26:07 13.1 C 10.16 g/m*3 13.1 C 0 km/h
2158 08-05-2009 07:41:07 12.6 C 10.07 g/m*3 12.6 C 0 km/h
2159 08-05-2009 07:56:07 13.4 C 10.58 g/m*3 13.4 C 0 km/h
2160 08-05-2009 08:11:07 13.9 C 10.91 g/m*3 13.9 C 0 km/h
2161 08-05-2009 08:26:07 14.4 C 11.13 g/m*3 14.4 C 0 km/h
2162 08-05-2009 08:41:07 15 C 11.28 g/m*3 15 C 0 km/h
2163 08-05-2009 08:56:07 15.5 C 11.24 g/m*3 15.5 C 0 km/h
2164 08-05-2009 09:11:07 16.2 C 11.17 g/m*3 16.2 C 0 km/h
2165 08-05-2009 09:26:07 16.6 C 11.3 g/m*3 16.6 C 0 km/h
2166 08-05-2009 09:41:07 15.2 C 10.12 g/m*3 15.2 C 0 km/h
2167 08-05-2009 09:56:07 15.1 C 10.45 g/m*3 15.1 C 0 km/h
2168 08-05-2009 10:11:07 16 C 10.63 g/m*3 16 C 0 km/h
2169 08-05-2009 10:26:07 16.3 C 10.41 g/m*3 16.3 C 0 km/h
2170 08-05-2009 10:41:07 17 C 10.56 g/m*3 17 C 0 km/h
2171 08-05-2009 10:56:07 18.1 C 10.35 g/m*3 18.1 C 0 km/h
2172 08-05-2009 11:11:07 18.4 C 10.38 g/m*3 18.4 C 0 km/h
2173 08-05-2009 11:26:07 18.9 C 10.04 g/m*3 18.9 C 0 km/h
2174 08-05-2009 11:41:07 19.4 C 9.51 g/m*3 19.4 C 0 km/h
2175 08-05-2009 11:56:07 19.5 C 9.4 g/m*3 19.5 C 0 km/h
Sensor: Nr:Datum:Temp:Abs-Feuchte:Windchill:Wind:
Aussen-T/F 2176 08-05-2009 12:11:07 19.9 C 9.45 g/m*3 19.9 C 0 km/h
2177 08-05-2009 12:26:08 20.5 C 9.25 g/m*3 20.5 C 0 km/h
2178 08-05-2009 12:41:08 20 C 9.16 g/m*3 20 C 0 km/h
2179 08-05-2009 12:56:08 20.1 C 9.04 g/m*3 20.1 C 0 km/h
2180 08-05-2009 13:11:08 20 C 8.99 g/m*3 20 C 0 km/h
2181 08-05-2009 13:26:08 20.2 C 8.92 g/m*3 20.2 C 0 km/h
2182 08-05-2009 13:41:08 19.9 C 9.11 g/m*3 19.9 C 0 km/h
2183 08-05-2009 13:56:08 21 C 8.98 g/m*3 21 C 0 km/h
2184 08-05-2009 14:11:08 21 C 8.79 g/m*3 21 C 0 km/h
2185 08-05-2009 14:26:08 21.2 C 8.52 g/m*3 21.2 C 0 km/h
2186 08-05-2009 14:41:08 22.3 C 8.49 g/m*3 22.3 C 0 km/h
2187 08-05-2009 14:56:08 22 C 8.15 g/m*3 22 C 0 km/h
2188 08-05-2009 15:11:08 21.9 C 8.1 g/m*3 21.9 C 0 km/h
2189 08-05-2009 15:26:08 22 C 7.96 g/m*3 22 C 0 km/h
2190 08-05-2009 15:41:08 21.9 C 7.72 g/m*3 21.9 C 0 km/h
2191 08-05-2009 15:56:08 21.1 C 7 g/m*3 21.1 C 0 km/h
2192 08-05-2009 16:11:08 21.8 C 7.1 g/m*3 21.8 C 0 km/h
2193 08-05-2009 16:26:08 21.3 C 6.71 g/m*3 21.3 C 0 km/h
2194 08-05-2009 16:41:08 22.4 C 6.36 g/m*3 22.4 C 0 km/h
2195 08-05-2009 16:56:08 22.2 C 6.48 g/m*3 22.2 C 0 km/h
2196 08-05-2009 17:11:08 21.5 C 6.03 g/m*3 21.5 C 0 km/h
2197 08-05-2009 17:26:08 20.9 C 6.37 g/m*3 20.9 C 0 km/h
2198 08-05-2009 17:41:09 20.8 C 6.52 g/m*3 20.8 C 0 km/h
2199 08-05-2009 17:56:09 21.1 C 6.45 g/m*3 21.1 C 0 km/h
2200 08-05-2009 18:11:09 21.7 C 6.29 g/m*3 21.7 C 0 km/h
Sensor: Nr:Datum:Temp:Abs-Feuchte:Windchill:Wind:
Aussen-T/F 2201 08-05-2009 18:26:09 21.4 C 6.37 g/m*3 21.4 C 0 km/h
2202 08-05-2009 18:41:09 20.7 C 6.3 g/m*3 20.7 C 0 km/h
2203 08-05-2009 18:56:09 19.6 C 6.42 g/m*3 19.6 C 0 km/h
2204 08-05-2009 19:11:09 20.2 C 6.47 g/m*3 20.2 C 0 km/h
2205 08-05-2009 19:26:09 20 C 6.39 g/m*3 20 C 0 km/h
2206 08-05-2009 19:41:09 19.1 C 6.23 g/m*3 19.1 C 0 km/h
2207 08-05-2009 19:56:09 18.3 C 5.79 g/m*3 18.3 C 0 km/h
2208 08-05-2009 20:11:09 17.8 C 5.01 g/m*3 17.8 C 0 km/h
2209 08-05-2009 20:26:09 17.7 C 5.28 g/m*3 17.7 C 0 km/h
2210 08-05-2009 20:41:09 17.3 C 5.6 g/m*3 17.3 C 0 km/h
2211 08-05-2009 20:56:09 16.9 C 5.75 g/m*3 16.9 C 0 km/h
2212 08-05-2009 21:11:09 16.3 C 5.83 g/m*3 16.3 C 0 km/h
2213 08-05-2009 21:26:09 15.8 C 6.19 g/m*3 15.8 C 0 km/h
2214 08-05-2009 21:41:09 15.4 C 6.44 g/m*3 15.4 C 0 km/h
2215 08-05-2009 21:56:09 14.7 C 6.55 g/m*3 14.7 C 0 km/h
2216 08-05-2009 22:11:09 14.3 C 6.76 g/m*3 14.3 C 0 km/h
2217 08-05-2009 22:26:10 14.1 C 6.67 g/m*3 14.1 C 0 km/h
2218 08-05-2009 22:41:10 14.2 C 6.47 g/m*3 14.2 C 0 km/h
2219 08-05-2009 22:56:10 13.9 C 6.23 g/m*3 13.9 C 0 km/h
2220 08-05-2009 23:11:10 13.5 C 6.55 g/m*3 13.5 C 0 km/h
2221 08-05-2009 23:26:10 13 C 6.24 g/m*3 13 C 0 km/h
2222 08-05-2009 23:41:10 12.7 C 6.23 g/m*3 12.7 C 0 km/h
2223 08-05-2009 23:56:10 12.4 C 6.12 g/m*3 12.4 C 0 km/h
2224 09-05-2009 00:11:10 12.1 C 6.11 g/m*3 12.1 C 0 km/h
2225 09-05-2009 00:26:10 11.7 C 6.38 g/m*3 11.7 C 0 km/h
Sensor: Nr:Datum:Temp:Abs-Feuchte:Windchill:Wind:
Aussen-T/F 2226 09-05-2009 00:41:10 11.4 C 6.57 g/m*3 11.4 C 0 km/h
2227 09-05-2009 00:56:10 11 C 6.71 g/m*3 11 C 0 km/h
2228 09-05-2009 01:11:10 10.8 C 6.72 g/m*3 10.8 C 0 km/h
2229 09-05-2009 01:26:10 10.5 C 6.6 g/m*3 10.5 C 0 km/h
2230 09-05-2009 01:41:10 10.2 C 6.66 g/m*3 10.2 C 0 km/h
2231 09-05-2009 01:56:10 9.9 C 6.82 g/m*3 9.9 C 0 km/h
2232 09-05-2009 02:11:10 9.7 C 6.82 g/m*3 9.7 C 0 km/h
2233 09-05-2009 02:26:10 9.5 C 6.83 g/m*3 9.5 C 0 km/h
2234 09-05-2009 02:41:10 9.3 C 6.74 g/m*3 9.3 C 0 km/h
2235 09-05-2009 02:56:10 9.1 C 6.65 g/m*3 9.1 C 0 km/h
2236 09-05-2009 03:11:11 8.9 C 6.75 g/m*3 8.9 C 0 km/h
2237 09-05-2009 03:26:11 8.6 C 6.7 g/m*3 8.6 C 0 km/h
2238 09-05-2009 03:41:11 8.4 C 6.7 g/m*3 8.4 C 0 km/h
2239 09-05-2009 03:56:11 8.1 C 6.57 g/m*3 8.1 C 0 km/h
2240 09-05-2009 04:11:11 8 C 6.53 g/m*3 8 C 0 km/h
2241 09-05-2009 04:26:11 7.9 C 6.65 g/m*3 7.9 C 0 km/h
2242 09-05-2009 04:41:11 7.8 C 6.61 g/m*3 7.8 C 0 km/h
2243 09-05-2009 04:56:11 7.5 C 6.64 g/m*3 7.5 C 0 km/h
2244 09-05-2009 05:11:11 7.4 C 6.6 g/m*3 7.4 C 0 km/h
2245 09-05-2009 05:26:11 7.5 C 6.64 g/m*3 7.5 C 0 km/h
2246 09-05-2009 05:41:11 7.4 C 6.68 g/m*3 7.4 C 0 km/h
2247 09-05-2009 05:56:11 7.2 C 6.59 g/m*3 7.2 C 0 km/h
2248 09-05-2009 06:11:11 7.1 C 6.55 g/m*3 7.1 C 0 km/h
2249 09-05-2009 06:26:11 7.2 C 6.59 g/m*3 7.2 C 0 km/h
2250 09-05-2009 06:41:11 7.3 C 6.64 g/m*3 7.3 C 0 km/h
Sensor: Nr:Datum:Temp:Abs-Feuchte:Windchill:Wind:
Aussen-T/F 2251 09-05-2009 06:56:11 7.7 C 6.81 g/m*3 7.7 C 0 km/h
2252 09-05-2009 07:11:11 7.8 C 6.77 g/m*3 7.8 C 0 km/h
2253 09-05-2009 07:26:11 8 C 6.78 g/m*3 8 C 0 km/h
2254 09-05-2009 07:41:11 7.8 C 6.77 g/m*3 7.8 C 0 km/h
2255 09-05-2009 07:56:12 8.3 C 6.91 g/m*3 8.3 C 0 km/h
2256 09-05-2009 08:11:12 9 C 6.96 g/m*3 9 C 0 km/h
2257 09-05-2009 08:26:12 9.5 C 6.92 g/m*3 9.5 C 0 km/h
2258 09-05-2009 08:41:12 10.2 C 6.95 g/m*3 10.2 C 0 km/h
2259 09-05-2009 08:56:12 10.7 C 6.97 g/m*3 10.7 C 0 km/h
2260 09-05-2009 09:11:12 11.4 C 7.19 g/m*3 11.4 C 0 km/h
2261 09-05-2009 09:26:12 12.1 C 7.18 g/m*3 12.1 C 0 km/h
2262 09-05-2009 09:41:12 11.9 C 7.1 g/m*3 11.9 C 0 km/h
2263 09-05-2009 09:56:12 12.6 C 7.3 g/m*3 12.6 C 0 km/h
2264 09-05-2009 10:11:12 13.5 C 7.25 g/m*3 13.5 C 0 km/h
2265 09-05-2009 10:26:12 14.3 C 7.25 g/m*3 14.3 C 0 km/h
2266 09-05-2009 10:41:12 15 C 7.31 g/m*3 15 C 0 km/h
2267 09-05-2009 10:56:12 16.1 C 7.26 g/m*3 16.1 C 0 km/h
2268 09-05-2009 11:11:12 16.4 C 6.98 g/m*3 16.4 C 0 km/h
2269 09-05-2009 11:26:12 17.3 C 6.78 g/m*3 17.3 C 0 km/h
2270 09-05-2009 11:41:12 18 C 6.6 g/m*3 18 C 0 km/h
2271 09-05-2009 11:56:12 18.6 C 6.53 g/m*3 18.6 C 0 km/h
2272 09-05-2009 12:11:12 18.4 C 6.76 g/m*3 18.4 C 0 km/h
2273 09-05-2009 12:26:12 18.7 C 6.72 g/m*3 18.7 C 0 km/h
2274 09-05-2009 12:41:12 19.5 C 7.05 g/m*3 19.5 C 0 km/h
2275 09-05-2009 12:56:13 19.3 C 6.47 g/m*3 19.3 C 0 km/h
Sensor: Nr:Datum:Temp:Abs-Feuchte:Windchill:Wind:
Aussen-T/F 2276 09-05-2009 13:11:13 19.5 C 6.71 g/m*3 19.5 C 0 km/h
2277 09-05-2009 13:26:13 20.1 C 6.43 g/m*3 20.1 C 0 km/h
2278 09-05-2009 13:41:13 20.4 C 6.55 g/m*3 20.4 C 0 km/h
2279 09-05-2009 13:56:13 21.1 C 6.45 g/m*3 21.1 C 0 km/h
2280 09-05-2009 14:11:13 20.1 C 6.43 g/m*3 20.1 C 0 km/h
2281 09-05-2009 14:26:13 19.8 C 7 g/m*3 19.8 C 0 km/h
2282 09-05-2009 14:41:13 20.6 C 6.62 g/m*3 20.6 C 0 km/h
2283 09-05-2009 14:56:13 21.1 C 6.63 g/m*3 21.1 C 0 km/h
2284 09-05-2009 15:11:13 20.8 C 6.7 g/m*3 20.8 C 0 km/h
2285 09-05-2009 15:26:13 20.4 C 6.9 g/m*3 20.4 C 0 km/h
2286 09-05-2009 15:41:13 20.1 C 6.95 g/m*3 20.1 C 0 km/h
2287 09-05-2009 15:56:13 20.8 C 7.06 g/m*3 20.8 C 0 km/h
2288 09-05-2009 16:11:13 22.6 C 7.23 g/m*3 22.6 C 0 km/h
2289 09-05-2009 16:26:13 22.7 C 7.07 g/m*3 22.7 C 0 km/h
2290 09-05-2009 16:41:13 22.7 C 7.07 g/m*3 22.7 C 0 km/h
2291 09-05-2009 16:56:13 22.6 C 7.63 g/m*3 22.6 C 0 km/h
2292 09-05-2009 17:11:13 23.4 C 7.36 g/m*3 23.4 C 0 km/h
2293 09-05-2009 17:26:13 23.5 C 6.98 g/m*3 23.5 C 0 km/h
2294 09-05-2009 17:41:13 23.2 C 7.28 g/m*3 23.2 C 0 km/h
2295 09-05-2009 17:56:14 22.4 C 7.35 g/m*3 22.4 C 0 km/h
2296 09-05-2009 18:11:14 21.2 C 7.78 g/m*3 21.2 C 0 km/h
2297 09-05-2009 18:26:14 21.3 C 8.2 g/m*3 21.3 C 0 km/h
2298 09-05-2009 18:41:14 21.8 C 7.87 g/m*3 21.8 C 0 km/h
2299 09-05-2009 18:56:14 20.9 C 8.2 g/m*3 20.9 C 0 km/h
2300 09-05-2009 19:11:14 20.1 C 8.69 g/m*3 20.1 C 0 km/h
Sensor: Nr:Datum:Temp:Abs-Feuchte:Windchill:Wind:
Aussen-T/F 2301 09-05-2009 19:26:14 17.8 C 10.47 g/m*3 17.8 C 0 km/h
2302 09-05-2009 19:41:14 17 C 10.56 g/m*3 17 C 0 km/h
2303 09-05-2009 19:56:14 17 C 10.56 g/m*3 17 C 0 km/h
2304 09-05-2009 20:11:14 16.8 C 10.72 g/m*3 16.8 C 0 km/h
2305 09-05-2009 20:26:14 15.6 C 10.91 g/m*3 15.6 C 0 km/h
2306 09-05-2009 20:41:14 15.3 C 11.1 g/m*3 15.3 C 0 km/h
2307 09-05-2009 20:56:14 14.9 C 11.22 g/m*3 14.9 C 0 km/h
2308 09-05-2009 21:11:14 13.9 C 10.67 g/m*3 13.9 C 0 km/h
2309 09-05-2009 21:26:14 13.4 C 10.46 g/m*3 13.4 C 0 km/h
2310 09-05-2009 21:41:14 13.4 C 10.69 g/m*3 13.4 C 0 km/h
2311 09-05-2009 21:56:14 13.4 C 10.81 g/m*3 13.4 C 0 km/h
2312 09-05-2009 22:11:14 13.5 C 10.88 g/m*3 13.5 C 0 km/h
2313 09-05-2009 22:26:14 13.5 C 10.88 g/m*3 13.5 C 0 km/h
2314 09-05-2009 22:41:14 13 C 10.55 g/m*3 13 C 0 km/h
2315 09-05-2009 22:56:15 13.3 C 10.86 g/m*3 13.3 C 0 km/h
2316 09-05-2009 23:11:15 13.2 C 10.79 g/m*3 13.2 C 0 km/h
2317 09-05-2009 23:26:15 13.1 C 10.73 g/m*3 13.1 C 0 km/h
2318 09-05-2009 23:41:15 13.1 C 10.73 g/m*3 13.1 C 0 km/h
2319 09-05-2009 23:56:15 13.2 C 10.79 g/m*3 13.2 C 0 km/h
2320 10-05-2009 00:11:15 13.1 C 10.73 g/m*3 13.1 C 0 km/h
2321 10-05-2009 00:26:15 13 C 10.66 g/m*3 13 C 0 km/h
2322 10-05-2009 00:41:15 13 C 10.66 g/m*3 13 C 0 km/h
2323 10-05-2009 00:56:15 13 C 10.66 g/m*3 13 C 0 km/h
2324 10-05-2009 01:11:15 13 C 10.66 g/m*3 13 C 0 km/h
2325 10-05-2009 01:26:15 12.9 C 10.71 g/m*3 12.9 C 0 km/h
Sensor: Nr:Datum:Temp:Abs-Feuchte:Windchill:Wind:
Aussen-T/F 2326 10-05-2009 01:41:15 12.9 C 10.71 g/m*3 12.9 C 0 km/h
2327 10-05-2009 01:56:15 12.9 C 10.71 g/m*3 12.9 C 0 km/h
2328 10-05-2009 02:11:15 12.8 C 10.64 g/m*3 12.8 C 0 km/h
2329 10-05-2009 02:26:15 12.6 C 10.51 g/m*3 12.6 C 0 km/h
2330 10-05-2009 02:41:15 12.6 C 10.51 g/m*3 12.6 C 0 km/h
2331 10-05-2009 02:56:15 12.5 C 10.44 g/m*3 12.5 C 0 km/h
2332 10-05-2009 03:11:15 12.5 C 10.44 g/m*3 12.5 C 0 km/h
2333 10-05-2009 03:26:15 12.5 C 10.44 g/m*3 12.5 C 0 km/h
2334 10-05-2009 03:41:15 12.3 C 10.32 g/m*3 12.3 C 0 km/h
2335 10-05-2009 03:56:16 12.2 C 10.25 g/m*3 12.2 C 0 km/h
2336 10-05-2009 04:11:16 12.2 C 10.25 g/m*3 12.2 C 0 km/h
2337 10-05-2009 04:26:16 12.3 C 10.32 g/m*3 12.3 C 0 km/h
2338 10-05-2009 04:41:16 12.2 C 10.25 g/m*3 12.2 C 0 km/h
2339 10-05-2009 04:56:16 12.2 C 10.25 g/m*3 12.2 C 0 km/h
2340 10-05-2009 05:11:16 12.2 C 10.25 g/m*3 12.2 C 0 km/h
2341 10-05-2009 05:26:16 12 C 10.12 g/m*3 12 C 0 km/h
2342 10-05-2009 05:41:16 11.8 C 10 g/m*3 11.8 C 0 km/h
2343 10-05-2009 05:56:16 12 C 10.12 g/m*3 12 C 0 km/h
2344 10-05-2009 06:11:16 12 C 10.12 g/m*3 12 C 0 km/h
2345 10-05-2009 06:26:16 12.2 C 10.25 g/m*3 12.2 C 0 km/h
2346 10-05-2009 06:41:16 12.4 C 10.38 g/m*3 12.4 C 0 km/h
2347 10-05-2009 06:56:16 12.7 C 10.58 g/m*3 12.7 C 0 km/h
2348 10-05-2009 07:11:16 12.9 C 10.71 g/m*3 12.9 C 0 km/h
2349 10-05-2009 07:26:16 13.1 C 10.84 g/m*3 13.1 C 0 km/h
2350 10-05-2009 07:41:16 13.1 C 10.84 g/m*3 13.1 C 0 km/h
Sensor: Nr:Datum:Temp:Abs-Feuchte:Windchill:Wind:
Aussen-T/F 2351 10-05-2009 07:56:16 13.1 C 10.84 g/m*3 13.1 C 0 km/h
2352 10-05-2009 08:11:16 13.3 C 10.98 g/m*3 13.3 C 0 km/h
2353 10-05-2009 08:26:16 13.3 C 10.86 g/m*3 13.3 C 0 km/h
2354 10-05-2009 08:41:16 13.4 C 10.81 g/m*3 13.4 C 0 km/h
2355 10-05-2009 08:56:17 13.8 C 10.84 g/m*3 13.8 C 0 km/h
2356 10-05-2009 09:11:17 14.4 C 10.38 g/m*3 14.4 C 0 km/h
2357 10-05-2009 09:26:17 14.5 C 9.83 g/m*3 14.5 C 0 km/h
2358 10-05-2009 09:41:17 15.4 C 9.99 g/m*3 15.4 C 0 km/h
2359 10-05-2009 09:56:17 15.5 C 9.78 g/m*3 15.5 C 0 km/h
2360 10-05-2009 10:11:17 15.5 C 9.78 g/m*3 15.5 C 0 km/h
2361 10-05-2009 10:26:17 15.8 C 9.83 g/m*3 15.8 C 0 km/h
2362 10-05-2009 10:41:17 16.3 C 9.99 g/m*3 16.3 C 0 km/h
2363 10-05-2009 10:56:17 16.8 C 9.58 g/m*3 16.8 C 0 km/h
2364 10-05-2009 11:11:17 17.5 C 9.69 g/m*3 17.5 C 0 km/h
2365 10-05-2009 11:26:17 17.7 C 8.75 g/m*3 17.7 C 0 km/h
2366 10-05-2009 11:41:17 18.5 C 7.28 g/m*3 18.5 C 0 km/h
2367 10-05-2009 11:56:17 18.9 C 6.32 g/m*3 18.9 C 0 km/h
2368 10-05-2009 12:11:17 19.3 C 5.97 g/m*3 19.3 C 0 km/h
2369 10-05-2009 12:26:17 19.9 C 6.01 g/m*3 19.9 C 0 km/h
2370 10-05-2009 12:41:17 20.8 C 5.79 g/m*3 20.8 C 0 km/h
2371 10-05-2009 12:56:17 21.6 C 5.5 g/m*3 21.6 C 0 km/h
2372 10-05-2009 13:11:17 22.2 C 4.91 g/m*3 22.2 C 0 km/h
2373 10-05-2009 13:26:17 22.6 C 5.22 g/m*3 22.6 C 0 km/h
2374 10-05-2009 13:41:17 22.5 C 5.19 g/m*3 22.5 C 0 km/h
2375 10-05-2009 13:56:18 21.8 C 5.76 g/m*3 21.8 C 0 km/h
Sensor: Nr:Datum:Temp:Abs-Feuchte:Windchill:Wind:
Aussen-T/F 2376 10-05-2009 14:11:18 22.4 C 5.76 g/m*3 22.4 C 0 km/h
2377 10-05-2009 14:26:18 23.4 C 5.89 g/m*3 23.4 C 0 km/h
2378 10-05-2009 14:41:18 23.5 C 5.5 g/m*3 23.5 C 0 km/h
2379 10-05-2009 14:56:18 23.9 C 5.62 g/m*3 23.9 C 0 km/h
2380 10-05-2009 15:11:18 24.9 C 5.72 g/m*3 24.9 C 0 km/h
2381 10-05-2009 15:26:18 25.3 C 5.15 g/m*3 25.3 C 0 km/h
2382 10-05-2009 15:41:18 25.4 C 5.41 g/m*3 25.4 C 0 km/h
2383 10-05-2009 15:56:18 26.3 C 5.2 g/m*3 26.3 C 0 km/h
2384 10-05-2009 16:11:18 25.8 C 4.82 g/m*3 25.8 C 0 km/h
2385 10-05-2009 16:26:18 26.8 C 5.09 g/m*3 26.8 C 0 km/h
2386 10-05-2009 16:41:18 27.9 C 5.41 g/m*3 27.9 C 0 km/h
2387 10-05-2009 16:56:18 28.1 C 5.47 g/m*3 28.1 C 0 km/h
2388 10-05-2009 17:11:18 28.3 C 5.53 g/m*3 28.3 C 0 km/h
2389 10-05-2009 17:26:18 27.7 C 5.35 g/m*3 27.7 C 0 km/h
2390 10-05-2009 17:41:18 27.4 C 5.26 g/m*3 27.4 C 0 km/h
2391 10-05-2009 17:56:18 27.5 C 5.29 g/m*3 27.5 C 0 km/h
2392 10-05-2009 18:11:18 26.6 C 5.03 g/m*3 26.6 C 0 km/h
2393 10-05-2009 18:26:18 25.5 C 5.92 g/m*3 25.5 C 0 km/h
2394 10-05-2009 18:41:19 24.6 C 6.98 g/m*3 24.6 C 0 km/h
2395 10-05-2009 18:56:19 24.5 C 6.71 g/m*3 24.5 C 0 km/h
2396 10-05-2009 19:11:19 23.4 C 6.94 g/m*3 23.4 C 0 km/h
2397 10-05-2009 19:26:19 22.5 C 7.39 g/m*3 22.5 C 0 km/h
2398 10-05-2009 19:41:19 21.5 C 7.73 g/m*3 21.5 C 0 km/h
2399 10-05-2009 19:56:19 20.8 C 7.79 g/m*3 20.8 C 0 km/h
2400 10-05-2009 20:11:19 20.1 C 7.65 g/m*3 20.1 C 0 km/h
Sensor: Nr:Datum:Temp:Abs-Feuchte:Windchill:Wind:
Aussen-T/F 2401 10-05-2009 20:26:19 19.6 C 7.6 g/m*3 19.6 C 0 km/h
2402 10-05-2009 20:41:19 19.2 C 7.75 g/m*3 19.2 C 0 km/h
2403 10-05-2009 20:56:19 19.1 C 7.7 g/m*3 19.1 C 0 km/h
2404 10-05-2009 21:11:19 18.9 C 7.78 g/m*3 18.9 C 0 km/h
2405 10-05-2009 21:26:19 18.1 C 8.03 g/m*3 18.1 C 0 km/h
2406 10-05-2009 21:41:19 18.3 C 8.29 g/m*3 18.3 C 0 km/h
2407 10-05-2009 21:56:19 16.7 C 9.81 g/m*3 16.7 C 0 km/h
2408 10-05-2009 22:11:19 15.7 C 10.44 g/m*3 15.7 C 0 km/h
2409 10-05-2009 22:26:19 15.7 C 11.24 g/m*3 15.7 C 0 km/h
2410 10-05-2009 22:41:19 15.6 C 11.57 g/m*3 15.6 C 0 km/h
2411 10-05-2009 22:56:19 15.6 C 11.84 g/m*3 15.6 C 0 km/h
2412 10-05-2009 23:11:19 15.4 C 11.82 g/m*3 15.4 C 0 km/h
2413 10-05-2009 23:26:20 15.4 C 11.96 g/m*3 15.4 C 0 km/h
2414 10-05-2009 23:41:20 15.2 C 11.81 g/m*3 15.2 C 0 km/h
2415 10-05-2009 23:56:20 15.1 C 11.74 g/m*3 15.1 C 0 km/h
2416 11-05-2009 00:11:20 15.1 C 11.87 g/m*3 15.1 C 0 km/h
2417 11-05-2009 00:26:20 15.2 C 11.94 g/m*3 15.2 C 0 km/h
2418 11-05-2009 00:41:20 14.8 C 11.78 g/m*3 14.8 C 0 km/h
2419 11-05-2009 00:56:20 14.7 C 11.71 g/m*3 14.7 C 0 km/h
2420 11-05-2009 01:11:20 14.5 C 11.57 g/m*3 14.5 C 0 km/h
2421 11-05-2009 01:26:20 14.6 C 11.64 g/m*3 14.6 C 0 km/h
2422 11-05-2009 01:41:20 14.6 C 11.64 g/m*3 14.6 C 0 km/h
2423 11-05-2009 01:56:20 14.6 C 11.64 g/m*3 14.6 C 0 km/h
2424 11-05-2009 02:11:20 14.5 C 11.57 g/m*3 14.5 C 0 km/h
2425 11-05-2009 02:26:20 14.5 C 11.57 g/m*3 14.5 C 0 km/h
Sensor: Nr:Datum:Temp:Abs-Feuchte:Windchill:Wind:
Aussen-T/F 2426 11-05-2009 02:41:20 14.4 C 11.5 g/m*3 14.4 C 0 km/h
2427 11-05-2009 02:56:20 14.3 C 11.43 g/m*3 14.3 C 0 km/h
2428 11-05-2009 03:11:20 14.4 C 11.5 g/m*3 14.4 C 0 km/h
2429 11-05-2009 03:26:20 14.4 C 11.5 g/m*3 14.4 C 0 km/h
2430 11-05-2009 03:41:20 14.4 C 11.62 g/m*3 14.4 C 0 km/h
2431 11-05-2009 03:56:20 14 C 11.22 g/m*3 14 C 0 km/h
2432 11-05-2009 04:11:20 13.7 C 11.13 g/m*3 13.7 C 0 km/h
2433 11-05-2009 04:26:21 13.5 C 10.99 g/m*3 13.5 C 0 km/h
2434 11-05-2009 04:41:21 13.5 C 10.99 g/m*3 13.5 C 0 km/h
2435 11-05-2009 04:56:21 13.4 C 10.93 g/m*3 13.4 C 0 km/h
2436 11-05-2009 05:11:21 13.5 C 10.99 g/m*3 13.5 C 0 km/h
2437 11-05-2009 05:26:21 13.7 C 11.25 g/m*3 13.7 C 0 km/h
2438 11-05-2009 05:41:21 13.6 C 11.18 g/m*3 13.6 C 0 km/h
2439 11-05-2009 05:56:21 13.2 C 10.79 g/m*3 13.2 C 0 km/h
2440 11-05-2009 06:11:21 13.1 C 10.73 g/m*3 13.1 C 0 km/h
2441 11-05-2009 06:26:21 13.4 C 11.04 g/m*3 13.4 C 0 km/h
2442 11-05-2009 06:41:21 13.3 C 10.98 g/m*3 13.3 C 0 km/h
2443 11-05-2009 06:56:21 13.4 C 11.04 g/m*3 13.4 C 0 km/h
2444 11-05-2009 07:11:21 13.4 C 11.04 g/m*3 13.4 C 0 km/h
2445 11-05-2009 07:26:21 13.5 C 11.11 g/m*3 13.5 C 0 km/h
2446 11-05-2009 07:41:21 13.7 C 11.25 g/m*3 13.7 C 0 km/h
2447 11-05-2009 07:56:21 13.6 C 11.18 g/m*3 13.6 C 0 km/h
2448 11-05-2009 08:11:21 13.6 C 11.18 g/m*3 13.6 C 0 km/h
2449 11-05-2009 08:26:21 13.7 C 11.25 g/m*3 13.7 C 0 km/h
2450 11-05-2009 08:41:21 13.6 C 11.18 g/m*3 13.6 C 0 km/h
Sensor: Nr:Datum:Temp:Abs-Feuchte:Windchill:Wind:
Aussen-T/F 2451 11-05-2009 08:56:21 13.5 C 11.11 g/m*3 13.5 C 0 km/h
2452 11-05-2009 09:11:21 13.7 C 11.25 g/m*3 13.7 C 0 km/h
2453 11-05-2009 09:26:21 14 C 11.46 g/m*3 14 C 0 km/h
2454 11-05-2009 09:41:22 14.1 C 11.53 g/m*3 14.1 C 0 km/h
2455 11-05-2009 09:56:22 14.1 C 11.53 g/m*3 14.1 C 0 km/h
2456 11-05-2009 10:11:22 14.2 C 11.6 g/m*3 14.2 C 0 km/h
2457 11-05-2009 10:26:22 14.5 C 11.82 g/m*3 14.5 C 0 km/h
2458 11-05-2009 10:41:22 14.1 C 11.53 g/m*3 14.1 C 0 km/h
2459 11-05-2009 10:56:22 14 C 11.46 g/m*3 14 C 0 km/h
2460 11-05-2009 11:11:22 14.4 C 11.74 g/m*3 14.4 C 0 km/h
2461 11-05-2009 11:26:22 14.4 C 11.74 g/m*3 14.4 C 0 km/h
2462 11-05-2009 11:41:22 14.5 C 11.82 g/m*3 14.5 C 0 km/h
2463 11-05-2009 11:56:22 14.6 C 11.89 g/m*3 14.6 C 0 km/h
2464 11-05-2009 12:11:22 14.6 C 11.76 g/m*3 14.6 C 0 km/h
2465 11-05-2009 12:26:22 14.5 C 11.69 g/m*3 14.5 C 0 km/h
2466 11-05-2009 12:41:22 14.5 C 11.69 g/m*3 14.5 C 0 km/h
2467 11-05-2009 12:56:22 14.3 C 11.43 g/m*3 14.3 C 0 km/h
2468 11-05-2009 13:11:22 14.1 C 11.41 g/m*3 14.1 C 0 km/h
2469 11-05-2009 13:26:22 13.7 C 11.13 g/m*3 13.7 C 0 km/h
2470 11-05-2009 13:41:22 13.8 C 11.2 g/m*3 13.8 C 0 km/h
2471 11-05-2009 13:56:22 13.8 C 11.2 g/m*3 13.8 C 0 km/h
2472 11-05-2009 14:11:22 14 C 11.34 g/m*3 14 C 0 km/h
2473 11-05-2009 14:26:22 13.8 C 11.2 g/m*3 13.8 C 0 km/h
2474 11-05-2009 14:41:23 13.9 C 11.27 g/m*3 13.9 C 0 km/h
2475 11-05-2009 14:56:23 13.7 C 11.13 g/m*3 13.7 C 0 km/h
Sensor: Nr:Datum:Temp:Abs-Feuchte:Windchill:Wind:
Aussen-T/F 2476 11-05-2009 15:11:23 13.5 C 10.99 g/m*3 13.5 C 0 km/h
2477 11-05-2009 15:26:23 13.3 C 10.74 g/m*3 13.3 C 0 km/h
2478 11-05-2009 15:41:23 13.3 C 10.74 g/m*3 13.3 C 0 km/h
2479 11-05-2009 15:56:23 13.2 C 10.68 g/m*3 13.2 C 0 km/h
2480 11-05-2009 16:11:23 13.4 C 10.81 g/m*3 13.4 C 0 km/h
2481 11-05-2009 16:26:23 13.6 C 10.95 g/m*3 13.6 C 0 km/h
2482 11-05-2009 16:41:23 13.7 C 11.01 g/m*3 13.7 C 0 km/h
2483 11-05-2009 16:56:23 13.6 C 10.95 g/m*3 13.6 C 0 km/h
2484 11-05-2009 17:11:23 13.5 C 10.88 g/m*3 13.5 C 0 km/h
2485 11-05-2009 17:26:23 13.5 C 10.88 g/m*3 13.5 C 0 km/h
2486 11-05-2009 17:41:23 13.4 C 10.93 g/m*3 13.4 C 0 km/h
2487 11-05-2009 17:56:23 13.1 C 10.73 g/m*3 13.1 C 0 km/h
2488 11-05-2009 18:11:23 13.2 C 10.79 g/m*3 13.2 C 0 km/h
2489 11-05-2009 18:26:23 13.2 C 10.79 g/m*3 13.2 C 0 km/h
2490 11-05-2009 18:41:23 13.2 C 10.79 g/m*3 13.2 C 0 km/h
2491 11-05-2009 18:56:23 13 C 10.66 g/m*3 13 C 0 km/h
2492 11-05-2009 19:11:23 13 C 10.66 g/m*3 13 C 0 km/h
2493 11-05-2009 19:26:23 13 C 10.66 g/m*3 13 C 0 km/h
2494 11-05-2009 19:41:24 12.8 C 10.64 g/m*3 12.8 C 0 km/h
2495 11-05-2009 19:56:24 12.7 C 10.58 g/m*3 12.7 C 0 km/h
2496 11-05-2009 20:11:24 12.3 C 10.32 g/m*3 12.3 C 0 km/h
2497 11-05-2009 20:26:24 12.3 C 10.32 g/m*3 12.3 C 0 km/h
2498 11-05-2009 20:41:24 12.4 C 10.38 g/m*3 12.4 C 0 km/h
2499 11-05-2009 20:56:24 12.5 C 10.44 g/m*3 12.5 C 0 km/h
2500 11-05-2009 21:11:24 12.6 C 10.51 g/m*3 12.6 C 0 km/h
Sensor: Nr:Datum:Temp:Abs-Feuchte:Windchill:Wind:
Aussen-T/F 2501 11-05-2009 21:26:24 12.6 C 10.51 g/m*3 12.6 C 0 km/h
2502 11-05-2009 21:41:24 12.4 C 10.38 g/m*3 12.4 C 0 km/h
2503 11-05-2009 21:56:24 12.3 C 10.32 g/m*3 12.3 C 0 km/h
2504 11-05-2009 22:11:24 12.1 C 10.19 g/m*3 12.1 C 0 km/h
2505 11-05-2009 22:26:24 12.1 C 10.19 g/m*3 12.1 C 0 km/h
2506 11-05-2009 22:41:24 12 C 10.12 g/m*3 12 C 0 km/h
2507 11-05-2009 22:56:24 11.9 C 10.06 g/m*3 11.9 C 0 km/h
2508 11-05-2009 23:11:24 12 C 10.12 g/m*3 12 C 0 km/h
2509 11-05-2009 23:26:24 12 C 10.12 g/m*3 12 C 0 km/h
2510 11-05-2009 23:41:24 12 C 10.12 g/m*3 12 C 0 km/h
2511 11-05-2009 23:56:24 12 C 10.12 g/m*3 12 C 0 km/h
2512 12-05-2009 00:11:24 11.8 C 10 g/m*3 11.8 C 0 km/h
2513 12-05-2009 00:26:24 11.8 C 10 g/m*3 11.8 C 0 km/h
2514 12-05-2009 00:41:25 11.8 C 10 g/m*3 11.8 C 0 km/h
2515 12-05-2009 00:56:25 11.8 C 10 g/m*3 11.8 C 0 km/h
2516 12-05-2009 01:11:25 11.7 C 9.94 g/m*3 11.7 C 0 km/h
2517 12-05-2009 01:26:25 11.8 C 10 g/m*3 11.8 C 0 km/h
2518 12-05-2009 01:41:25 11.7 C 9.94 g/m*3 11.7 C 0 km/h
2519 12-05-2009 01:56:25 11.7 C 9.83 g/m*3 11.7 C 0 km/h
2520 12-05-2009 02:11:25 11.7 C 9.83 g/m*3 11.7 C 0 km/h
2521 12-05-2009 02:26:25 11.6 C 9.67 g/m*3 11.6 C 0 km/h
2522 12-05-2009 02:41:25 11.6 C 9.56 g/m*3 11.6 C 0 km/h
2523 12-05-2009 02:56:25 11.5 C 9.5 g/m*3 11.5 C 0 km/h
2524 12-05-2009 03:11:25 11.5 C 9.4 g/m*3 11.5 C 0 km/h
2525 12-05-2009 03:26:25 11.4 C 9.34 g/m*3 11.4 C 0 km/h
Sensor: Nr:Datum:Temp:Abs-Feuchte:Windchill:Wind:
Aussen-T/F 2526 12-05-2009 03:41:25 11.4 C 9.14 g/m*3 11.4 C 0 km/h
2527 12-05-2009 03:56:25 11.3 C 8.98 g/m*3 11.3 C 0 km/h
2528 12-05-2009 04:11:25 11.2 C 8.82 g/m*3 11.2 C 0 km/h
2529 12-05-2009 04:26:25 11.1 C 8.66 g/m*3 11.1 C 0 km/h
2530 12-05-2009 04:41:25 11.1 C 8.56 g/m*3 11.1 C 0 km/h
2531 12-05-2009 04:56:25 11 C 8.41 g/m*3 11 C 0 km/h
2532 12-05-2009 05:11:25 11 C 8.31 g/m*3 11 C 0 km/h
2533 12-05-2009 05:26:26 10.9 C 8.16 g/m*3 10.9 C 0 km/h
2534 12-05-2009 05:41:26 10.8 C 8.01 g/m*3 10.8 C 0 km/h
2535 12-05-2009 05:56:26 10.6 C 8 g/m*3 10.6 C 0 km/h
2536 12-05-2009 06:11:26 10.6 C 8 g/m*3 10.6 C 0 km/h
2537 12-05-2009 06:26:26 10.7 C 8.05 g/m*3 10.7 C 0 km/h
2538 12-05-2009 06:41:26 10.9 C 8.06 g/m*3 10.9 C 0 km/h
2539 12-05-2009 06:56:26 11.1 C 8.06 g/m*3 11.1 C 0 km/h
2540 12-05-2009 07:11:26 11.4 C 8.11 g/m*3 11.4 C 0 km/h
2541 12-05-2009 07:26:26 11.5 C 8.06 g/m*3 11.5 C 0 km/h
2542 12-05-2009 07:41:26 11.7 C 8.05 g/m*3 11.7 C 0 km/h
2543 12-05-2009 07:56:26 12.1 C 8.04 g/m*3 12.1 C 0 km/h
2544 12-05-2009 08:11:26 12.2 C 7.99 g/m*3 12.2 C 0 km/h
2545 12-05-2009 08:26:26 12.3 C 7.93 g/m*3 12.3 C 0 km/h
2546 12-05-2009 08:41:26 12.6 C 7.97 g/m*3 12.6 C 0 km/h
2547 12-05-2009 08:56:26 12.7 C 8.01 g/m*3 12.7 C 0 km/h
2548 12-05-2009 09:11:26 12.9 C 8 g/m*3 12.9 C 0 km/h
2549 12-05-2009 09:26:26 13.5 C 7.95 g/m*3 13.5 C 0 km/h
2550 12-05-2009 09:41:26 14.1 C 7.77 g/m*3 14.1 C 0 km/h
Sensor: Nr:Datum:Temp:Abs-Feuchte:Windchill:Wind:
Aussen-T/F 2551 12-05-2009 09:56:26 13.6 C 7.77 g/m*3 13.6 C 0 km/h
2552 12-05-2009 10:11:27 13.5 C 7.95 g/m*3 13.5 C 0 km/h
2553 12-05-2009 10:26:27 13.2 C 7.92 g/m*3 13.2 C 0 km/h
2554 12-05-2009 10:41:27 12.5 C 8.36 g/m*3 12.5 C 0 km/h
2555 12-05-2009 10:56:27 12 C 8.53 g/m*3 12 C 0 km/h
2556 12-05-2009 11:11:27 11.4 C 8.93 g/m*3 11.4 C 0 km/h
2557 12-05-2009 11:26:27 11.4 C 9.24 g/m*3 11.4 C 0 km/h
2558 12-05-2009 11:41:27 11.6 C 9.46 g/m*3 11.6 C 0 km/h
2559 12-05-2009 11:56:27 11.7 C 9.52 g/m*3 11.7 C 0 km/h
2560 12-05-2009 12:11:27 11.8 C 9.68 g/m*3 11.8 C 0 km/h
2561 12-05-2009 12:26:27 11.9 C 9.74 g/m*3 11.9 C 0 km/h
2562 12-05-2009 12:41:27 11.7 C 9.62 g/m*3 11.7 C 0 km/h
2563 12-05-2009 12:56:27 11.8 C 9.68 g/m*3 11.8 C 0 km/h
2564 12-05-2009 13:11:27 12.1 C 9.87 g/m*3 12.1 C 0 km/h
2565 12-05-2009 13:26:27 12 C 9.8 g/m*3 12 C 0 km/h
2566 12-05-2009 13:41:27 11.8 C 9.79 g/m*3 11.8 C 0 km/h
2567 12-05-2009 13:56:27 12.1 C 9.97 g/m*3 12.1 C 0 km/h
2568 12-05-2009 14:11:27 12.3 C 10.1 g/m*3 12.3 C 0 km/h
2569 12-05-2009 14:26:27 12 C 9.91 g/m*3 12 C 0 km/h
2570 12-05-2009 14:41:27 11.8 C 9.79 g/m*3 11.8 C 0 km/h
2571 12-05-2009 14:56:28 12.2 C 10.04 g/m*3 12.2 C 0 km/h
2572 12-05-2009 15:11:28 12.3 C 9.99 g/m*3 12.3 C 0 km/h
2573 12-05-2009 15:26:28 12.5 C 9.89 g/m*3 12.5 C 0 km/h
2574 12-05-2009 15:41:28 12.6 C 9.51 g/m*3 12.6 C 0 km/h
2575 12-05-2009 15:56:28 12.5 C 9.35 g/m*3 12.5 C 0 km/h
Sensor: Nr:Datum:Temp:Abs-Feuchte:Windchill:Wind:
Aussen-T/F 2576 12-05-2009 16:11:28 12.4 C 9.18 g/m*3 12.4 C 0 km/h
2577 12-05-2009 16:26:28 12.2 C 9.17 g/m*3 12.2 C 0 km/h
2578 12-05-2009 16:41:28 12 C 9.17 g/m*3 12 C 0 km/h
2579 12-05-2009 16:56:28 12 C 9.38 g/m*3 12 C 0 km/h
2580 12-05-2009 17:11:28 11.9 C 9.43 g/m*3 11.9 C 0 km/h
2581 12-05-2009 17:26:28 11.8 C 9.47 g/m*3 11.8 C 0 km/h
2582 12-05-2009 17:41:28 12.1 C 9.54 g/m*3 12.1 C 0 km/h
2583 12-05-2009 17:56:28 12.4 C 9.72 g/m*3 12.4 C 0 km/h
2584 12-05-2009 18:11:28 12.4 C 9.51 g/m*3 12.4 C 0 km/h
2585 12-05-2009 18:26:28 11.8 C 9.16 g/m*3 11.8 C 0 km/h
2586 12-05-2009 18:41:28 11.7 C 9.31 g/m*3 11.7 C 0 km/h
2587 12-05-2009 18:56:28 11.6 C 9.46 g/m*3 11.6 C 0 km/h
2588 12-05-2009 19:11:28 11.7 C 9.62 g/m*3 11.7 C 0 km/h
2589 12-05-2009 19:26:29 12 C 9.8 g/m*3 12 C 0 km/h
2590 12-05-2009 19:41:29 12.2 C 9.82 g/m*3 12.2 C 0 km/h
2591 12-05-2009 19:56:29 12.3 C 9.88 g/m*3 12.3 C 0 km/h
2592 12-05-2009 20:11:29 12.2 C 9.82 g/m*3 12.2 C 0 km/h
2593 12-05-2009 20:26:29 12.1 C 9.76 g/m*3 12.1 C 0 km/h
2594 12-05-2009 20:41:29 12.1 C 9.65 g/m*3 12.1 C 0 km/h
2595 12-05-2009 20:56:29 11.9 C 9.64 g/m*3 11.9 C 0 km/h
2596 12-05-2009 21:11:29 12 C 9.59 g/m*3 12 C 0 km/h
2597 12-05-2009 21:26:29 11.7 C 9.52 g/m*3 11.7 C 0 km/h
2598 12-05-2009 21:41:29 11.6 C 9.46 g/m*3 11.6 C 0 km/h
2599 12-05-2009 21:56:29 11.6 C 9.46 g/m*3 11.6 C 0 km/h
2600 12-05-2009 22:11:29 11.4 C 9.34 g/m*3 11.4 C 0 km/h
Sensor: Nr:Datum:Temp:Abs-Feuchte:Windchill:Wind:
Aussen-T/F 2601 12-05-2009 22:26:29 11.4 C 9.44 g/m*3 11.4 C 0 km/h
2602 12-05-2009 22:41:29 11.4 C 9.44 g/m*3 11.4 C 0 km/h
2603 12-05-2009 22:56:29 11.3 C 9.38 g/m*3 11.3 C 0 km/h
2604 12-05-2009 23:11:29 11.2 C 9.33 g/m*3 11.2 C 0 km/h
2605 12-05-2009 23:26:29 11.1 C 9.27 g/m*3 11.1 C 0 km/h
2606 12-05-2009 23:41:29 11.1 C 9.27 g/m*3 11.1 C 0 km/h
2607 12-05-2009 23:56:29 11 C 9.21 g/m*3 11 C 0 km/h
2608 13-05-2009 00:11:30 11 C 9.21 g/m*3 11 C 0 km/h
2609 13-05-2009 00:26:30 11 C 9.21 g/m*3 11 C 0 km/h
2610 13-05-2009 00:41:30 10.9 C 9.15 g/m*3 10.9 C 0 km/h
2611 13-05-2009 00:56:30 10.9 C 9.15 g/m*3 10.9 C 0 km/h
2612 13-05-2009 01:11:30 10.8 C 8.99 g/m*3 10.8 C 0 km/h
2613 13-05-2009 01:26:30 10.8 C 8.9 g/m*3 10.8 C 0 km/h
2614 13-05-2009 01:41:30 10.7 C 8.84 g/m*3 10.7 C 0 km/h
2615 13-05-2009 01:56:30 10.7 C 8.84 g/m*3 10.7 C 0 km/h
2616 13-05-2009 02:11:30 10.6 C 8.59 g/m*3 10.6 C 0 km/h
2617 13-05-2009 02:26:30 10.5 C 8.53 g/m*3 10.5 C 0 km/h
2618 13-05-2009 02:41:30 10.5 C 8.53 g/m*3 10.5 C 0 km/h
2619 13-05-2009 02:56:30 10.4 C 8.48 g/m*3 10.4 C 0 km/h
2620 13-05-2009 03:11:30 10.2 C 8.37 g/m*3 10.2 C 0 km/h
2621 13-05-2009 03:26:30 10.2 C 8.28 g/m*3 10.2 C 0 km/h
2622 13-05-2009 03:41:30 10.1 C 8.23 g/m*3 10.1 C 0 km/h
2623 13-05-2009 03:56:30 10.1 C 8.13 g/m*3 10.1 C 0 km/h
2624 13-05-2009 04:11:30 10.2 C 8.18 g/m*3 10.2 C 0 km/h
2625 13-05-2009 04:26:30 10.2 C 8.18 g/m*3 10.2 C 0 km/h
Sensor: Nr:Datum:Temp:Abs-Feuchte:Windchill:Wind:
Aussen-T/F 2626 13-05-2009 04:41:30 10.1 C 8.13 g/m*3 10.1 C 0 km/h
2627 13-05-2009 04:56:31 10.1 C 8.13 g/m*3 10.1 C 0 km/h
2628 13-05-2009 05:11:31 10.1 C 8.13 g/m*3 10.1 C 0 km/h
2629 13-05-2009 05:26:31 10.2 C 8.18 g/m*3 10.2 C 0 km/h
2630 13-05-2009 05:41:31 10.1 C 8.13 g/m*3 10.1 C 0 km/h
2631 13-05-2009 05:56:31 10.2 C 8.18 g/m*3 10.2 C 0 km/h
2632 13-05-2009 06:11:31 10.2 C 8.18 g/m*3 10.2 C 0 km/h
2633 13-05-2009 06:26:31 10.3 C 8.24 g/m*3 10.3 C 0 km/h
2634 13-05-2009 06:41:31 10.5 C 8.34 g/m*3 10.5 C 0 km/h
2635 13-05-2009 06:56:31 10.7 C 8.45 g/m*3 10.7 C 0 km/h
2636 13-05-2009 07:11:31 11 C 8.51 g/m*3 11 C 0 km/h
2637 13-05-2009 07:26:31 11.2 C 8.51 g/m*3 11.2 C 0 km/h
2638 13-05-2009 07:41:31 11.8 C 8.53 g/m*3 11.8 C 0 km/h
2639 13-05-2009 07:56:31 12.4 C 7.65 g/m*3 12.4 C 0 km/h
2640 13-05-2009 08:11:31 12.9 C 7.66 g/m*3 12.9 C 0 km/h
2641 13-05-2009 08:26:31 13 C 7.48 g/m*3 13 C 0 km/h
2642 13-05-2009 08:41:31 13.4 C 7.79 g/m*3 13.4 C 0 km/h
2643 13-05-2009 08:56:31 13.3 C 7.51 g/m*3 13.3 C 0 km/h
2644 13-05-2009 09:11:31 13.4 C 7.56 g/m*3 13.4 C 0 km/h
2645 13-05-2009 09:26:31 13.6 C 7.65 g/m*3 13.6 C 0 km/h
2646 13-05-2009 09:41:32 13.8 C 7.51 g/m*3 13.8 C 0 km/h
2647 13-05-2009 09:56:32 14.1 C 7.4 g/m*3 14.1 C 0 km/h
2648 13-05-2009 10:11:32 15.3 C 7.44 g/m*3 15.3 C 0 km/h
2649 13-05-2009 10:26:32 15.8 C 7.54 g/m*3 15.8 C 0 km/h
2650 13-05-2009 10:41:32 15.9 C 7.31 g/m*3 15.9 C 0 km/h
Sensor: Nr:Datum:Temp:Abs-Feuchte:Windchill:Wind:
Aussen-T/F 2651 13-05-2009 10:56:32 16.7 C 7.53 g/m*3 16.7 C 0 km/h
2652 13-05-2009 11:11:32 17.4 C 7.56 g/m*3 17.4 C 0 km/h
2653 13-05-2009 11:26:32 18.8 C 7.73 g/m*3 18.8 C 0 km/h
2654 13-05-2009 11:41:32 19.3 C 7.46 g/m*3 19.3 C 0 km/h
2655 13-05-2009 11:56:32 19.1 C 7.87 g/m*3 19.1 C 0 km/h
2656 13-05-2009 12:11:32 19.5 C 7.72 g/m*3 19.5 C 0 km/h
2657 13-05-2009 12:26:32 20.1 C 7.82 g/m*3 20.1 C 0 km/h
2658 13-05-2009 12:41:32 20.5 C 7.83 g/m*3 20.5 C 0 km/h
2659 13-05-2009 12:56:32 21.1 C 7.55 g/m*3 21.1 C 0 km/h
2660 13-05-2009 13:11:32 21.3 C 7.83 g/m*3 21.3 C 0 km/h
2661 13-05-2009 13:26:32 21.1 C 7.55 g/m*3 21.1 C 0 km/h
2662 13-05-2009 13:41:32 21.4 C 7.87 g/m*3 21.4 C 0 km/h
2663 13-05-2009 13:56:32 22 C 7.38 g/m*3 22 C 0 km/h
2664 13-05-2009 14:11:32 22.2 C 7.85 g/m*3 22.2 C 0 km/h
2665 13-05-2009 14:26:33 22.4 C 7.94 g/m*3 22.4 C 0 km/h
2666 13-05-2009 14:41:33 22.9 C 7.97 g/m*3 22.9 C 0 km/h
2667 13-05-2009 14:56:33 22.7 C 8.28 g/m*3 22.7 C 0 km/h
2668 13-05-2009 15:11:33 23.3 C 7.74 g/m*3 23.3 C 0 km/h
2669 13-05-2009 15:26:33 22.7 C 8.08 g/m*3 22.7 C 0 km/h
2670 13-05-2009 15:41:33 22.7 C 8.28 g/m*3 22.7 C 0 km/h
2671 13-05-2009 15:56:33 21.7 C 8.2 g/m*3 21.7 C 0 km/h
2672 13-05-2009 16:11:33 22 C 7.96 g/m*3 22 C 0 km/h
2673 13-05-2009 16:26:33 21.1 C 8.48 g/m*3 21.1 C 0 km/h
2674 13-05-2009 16:41:33 20.7 C 9.36 g/m*3 20.7 C 0 km/h
2675 13-05-2009 16:56:33 20.4 C 9.91 g/m*3 20.4 C 0 km/h
Sensor: Nr:Datum:Temp:Abs-Feuchte:Windchill:Wind:
Aussen-T/F 2676 13-05-2009 17:11:33 20.2 C 8.74 g/m*3 20.2 C 0 km/h
2677 13-05-2009 17:26:33 19.7 C 9.68 g/m*3 19.7 C 0 km/h
2678 13-05-2009 17:41:33 19.3 C 9.62 g/m*3 19.3 C 0 km/h
2679 13-05-2009 17:56:33 19.1 C 9.18 g/m*3 19.1 C 0 km/h
2680 13-05-2009 18:11:33 19.1 C 9.34 g/m*3 19.1 C 0 km/h
2681 13-05-2009 18:26:33 18.7 C 9.29 g/m*3 18.7 C 0 km/h
2682 13-05-2009 18:41:33 18.3 C 9.22 g/m*3 18.3 C 0 km/h
2683 13-05-2009 18:56:33 18.3 C 9.54 g/m*3 18.3 C 0 km/h
2684 13-05-2009 19:11:34 18.3 C 9.54 g/m*3 18.3 C 0 km/h
2685 13-05-2009 19:26:34 18.4 C 9.91 g/m*3 18.4 C 0 km/h
2686 13-05-2009 19:41:34 18.5 C 9.97 g/m*3 18.5 C 0 km/h
2687 13-05-2009 19:56:34 18.4 C 10.22 g/m*3 18.4 C 0 km/h
2688 13-05-2009 20:11:34 17.9 C 10.38 g/m*3 17.9 C 0 km/h
2689 13-05-2009 20:26:34 17.5 C 10.29 g/m*3 17.5 C 0 km/h
2690 13-05-2009 20:41:34 17.1 C 10.34 g/m*3 17.1 C 0 km/h
2691 13-05-2009 20:56:34 16.8 C 10.29 g/m*3 16.8 C 0 km/h
2692 13-05-2009 21:11:34 16.2 C 10.07 g/m*3 16.2 C 0 km/h
2693 13-05-2009 21:26:34 15.9 C 10.16 g/m*3 15.9 C 0 km/h
2694 13-05-2009 21:41:34 15.6 C 10.11 g/m*3 15.6 C 0 km/h
2695 13-05-2009 21:56:34 15.1 C 9.93 g/m*3 15.1 C 0 km/h
2696 13-05-2009 22:11:34 14.8 C 10.01 g/m*3 14.8 C 0 km/h
2697 13-05-2009 22:26:34 14.6 C 10.01 g/m*3 14.6 C 0 km/h
2698 13-05-2009 22:41:34 14.5 C 9.95 g/m*3 14.5 C 0 km/h
2699 13-05-2009 22:56:34 14.4 C 10.01 g/m*3 14.4 C 0 km/h
2700 13-05-2009 23:11:34 14.4 C 10.01 g/m*3 14.4 C 0 km/h
Sensor: Nr:Datum:Temp:Abs-Feuchte:Windchill:Wind:
Aussen-T/F 2701 13-05-2009 23:26:34 14.2 C 9.89 g/m*3 14.2 C 0 km/h
2702 13-05-2009 23:41:34 14 C 9.89 g/m*3 14 C 0 km/h
2703 13-05-2009 23:56:34 14.1 C 9.95 g/m*3 14.1 C 0 km/h
2704 14-05-2009 00:11:35 14 C 10.01 g/m*3 14 C 0 km/h
2705 14-05-2009 00:26:35 14 C 10.01 g/m*3 14 C 0 km/h
2706 14-05-2009 00:41:35 13.8 C 9.89 g/m*3 13.8 C 0 km/h
2707 14-05-2009 00:56:35 13.8 C 9.89 g/m*3 13.8 C 0 km/h
2708 14-05-2009 01:11:35 13.7 C 9.83 g/m*3 13.7 C 0 km/h
2709 14-05-2009 01:26:35 13.5 C 9.71 g/m*3 13.5 C 0 km/h
2710 14-05-2009 01:41:35 13.4 C 9.65 g/m*3 13.4 C 0 km/h
2711 14-05-2009 01:56:35 13.2 C 9.53 g/m*3 13.2 C 0 km/h
2712 14-05-2009 02:11:35 13.1 C 9.59 g/m*3 13.1 C 0 km/h
2713 14-05-2009 02:26:35 13 C 9.53 g/m*3 13 C 0 km/h
2714 14-05-2009 02:41:35 12.9 C 9.58 g/m*3 12.9 C 0 km/h
2715 14-05-2009 02:56:35 13 C 9.53 g/m*3 13 C 0 km/h
2716 14-05-2009 03:11:35 13.3 C 9.7 g/m*3 13.3 C 0 km/h
2717 14-05-2009 03:26:35 13.4 C 9.65 g/m*3 13.4 C 0 km/h
2718 14-05-2009 03:41:35 13.2 C 9.42 g/m*3 13.2 C 0 km/h
2719 14-05-2009 03:56:35 13.1 C 9.36 g/m*3 13.1 C 0 km/h
2720 14-05-2009 04:11:35 13.1 C 9.13 g/m*3 13.1 C 0 km/h
2721 14-05-2009 04:26:35 13.2 C 8.84 g/m*3 13.2 C 0 km/h
2722 14-05-2009 04:41:35 13.4 C 8.6 g/m*3 13.4 C 0 km/h
2723 14-05-2009 04:56:36 13.4 C 8.49 g/m*3 13.4 C 0 km/h
2724 14-05-2009 05:11:36 13.5 C 8.66 g/m*3 13.5 C 0 km/h
2725 14-05-2009 05:26:36 13.5 C 8.54 g/m*3 13.5 C 0 km/h
Sensor: Nr:Datum:Temp:Abs-Feuchte:Windchill:Wind:
Aussen-T/F 2726 14-05-2009 05:41:36 13.4 C 8.72 g/m*3 13.4 C 0 km/h
2727 14-05-2009 05:56:36 13.3 C 8.66 g/m*3 13.3 C 0 km/h
2728 14-05-2009 06:11:36 13.2 C 8.73 g/m*3 13.2 C 0 km/h
2729 14-05-2009 06:26:36 13.3 C 8.66 g/m*3 13.3 C 0 km/h
2730 14-05-2009 06:41:36 13.4 C 8.6 g/m*3 13.4 C 0 km/h
2731 14-05-2009 06:56:36 13.6 C 8.36 g/m*3 13.6 C 0 km/h
2732 14-05-2009 07:11:36 13.7 C 8.64 g/m*3 13.7 C 0 km/h
2733 14-05-2009 07:26:36 13.8 C 8.82 g/m*3 13.8 C 0 km/h
2734 14-05-2009 07:41:36 13.8 C 8.82 g/m*3 13.8 C 0 km/h
2735 14-05-2009 07:56:36 13.7 C 8.76 g/m*3 13.7 C 0 km/h
2736 14-05-2009 08:11:36 13.7 C 8.76 g/m*3 13.7 C 0 km/h
2737 14-05-2009 08:26:36 13.9 C 8.75 g/m*3 13.9 C 0 km/h
2738 14-05-2009 08:41:36 14.4 C 8.53 g/m*3 14.4 C 0 km/h
2739 14-05-2009 08:56:36 14.5 C 8.71 g/m*3 14.5 C 0 km/h
2740 14-05-2009 09:11:36 14.7 C 8.81 g/m*3 14.7 C 0 km/h
2741 14-05-2009 09:26:36 15 C 8.59 g/m*3 15 C 0 km/h
2742 14-05-2009 09:41:37 15.1 C 7.74 g/m*3 15.1 C 0 km/h
2743 14-05-2009 09:56:37 15.5 C 8.06 g/m*3 15.5 C 0 km/h
2744 14-05-2009 10:11:37 15.5 C 8.06 g/m*3 15.5 C 0 km/h
2745 14-05-2009 10:26:37 15.5 C 8.46 g/m*3 15.5 C 0 km/h
2746 14-05-2009 10:41:37 15.6 C 8.11 g/m*3 15.6 C 0 km/h
2747 14-05-2009 10:56:37 15.6 C 7.98 g/m*3 15.6 C 0 km/h
2748 14-05-2009 11:11:37 15.8 C 7.94 g/m*3 15.8 C 0 km/h
2749 14-05-2009 11:26:37 16.3 C 8.19 g/m*3 16.3 C 0 km/h
2750 14-05-2009 11:41:37 16.9 C 8.2 g/m*3 16.9 C 0 km/h
Sensor: Nr:Datum:Temp:Abs-Feuchte:Windchill:Wind:
Aussen-T/F 2751 14-05-2009 11:56:37 17.2 C 8.2 g/m*3 17.2 C 0 km/h
2752 14-05-2009 12:11:37 17 C 8.39 g/m*3 17 C 0 km/h
2753 14-05-2009 12:26:37 17 C 8.54 g/m*3 17 C 0 km/h
2754 14-05-2009 12:41:37 17.4 C 8.45 g/m*3 17.4 C 0 km/h
2755 14-05-2009 12:56:37 17.5 C 8.8 g/m*3 17.5 C 0 km/h
2756 14-05-2009 13:11:37 17.5 C 8.65 g/m*3 17.5 C 0 km/h
2757 14-05-2009 13:26:37 17.9 C 8.7 g/m*3 17.9 C 0 km/h
2758 14-05-2009 13:41:37 18.4 C 8.65 g/m*3 18.4 C 0 km/h
2759 14-05-2009 13:56:37 18.9 C 8.59 g/m*3 18.9 C 0 km/h
2760 14-05-2009 14:11:37 19.9 C 8.42 g/m*3 19.9 C 0 km/h
2761 14-05-2009 14:26:38 21.1 C 8.29 g/m*3 21.1 C 0 km/h
2762 14-05-2009 14:41:38 21.5 C 8.11 g/m*3 21.5 C 0 km/h
2763 14-05-2009 14:56:38 22.3 C 7.9 g/m*3 22.3 C 0 km/h
2764 14-05-2009 15:11:38 21.2 C 8.34 g/m*3 21.2 C 0 km/h
2765 14-05-2009 15:26:38 21.1 C 8.29 g/m*3 21.1 C 0 km/h
2766 14-05-2009 15:41:38 22 C 8.54 g/m*3 22 C 0 km/h
2767 14-05-2009 15:56:38 24.9 C 8.01 g/m*3 24.9 C 0 km/h
2768 14-05-2009 16:11:38 25.4 C 7.53 g/m*3 25.4 C 0 km/h
2769 14-05-2009 16:26:38 23 C 7.81 g/m*3 23 C 0 km/h
2770 14-05-2009 16:41:38 21.8 C 8.44 g/m*3 21.8 C 0 km/h
2771 14-05-2009 16:56:38 20.5 C 8.54 g/m*3 20.5 C 0 km/h
2772 14-05-2009 17:11:38 20.2 C 8.57 g/m*3 20.2 C 0 km/h
2773 14-05-2009 17:26:38 19.6 C 8.95 g/m*3 19.6 C 0 km/h
2774 14-05-2009 17:41:38 19.6 C 8.95 g/m*3 19.6 C 0 km/h
2775 14-05-2009 17:56:38 19.3 C 9.29 g/m*3 19.3 C 0 km/h
Sensor: Nr:Datum:Temp:Abs-Feuchte:Windchill:Wind:
Aussen-T/F 2776 14-05-2009 18:11:38 19.1 C 9.51 g/m*3 19.1 C 0 km/h
2777 14-05-2009 18:26:38 19 C 9.13 g/m*3 19 C 0 km/h
2778 14-05-2009 18:41:38 18.9 C 9.56 g/m*3 18.9 C 0 km/h
2779 14-05-2009 18:56:38 18.7 C 9.77 g/m*3 18.7 C 0 km/h
2780 14-05-2009 19:11:39 18.3 C 9.38 g/m*3 18.3 C 0 km/h
2781 14-05-2009 19:26:39 18 C 9.52 g/m*3 18 C 0 km/h
2782 14-05-2009 19:41:39 17.4 C 9.93 g/m*3 17.4 C 0 km/h
2783 14-05-2009 19:56:39 16.4 C 10.61 g/m*3 16.4 C 0 km/h
2784 14-05-2009 20:11:39 16 C 11.04 g/m*3 16 C 0 km/h
2785 14-05-2009 20:26:39 15.6 C 11.3 g/m*3 15.6 C 0 km/h
2786 14-05-2009 20:41:39 15.6 C 11.44 g/m*3 15.6 C 0 km/h
2787 14-05-2009 20:56:39 15.3 C 11.36 g/m*3 15.3 C 0 km/h
2788 14-05-2009 21:11:39 15.3 C 11.49 g/m*3 15.3 C 0 km/h
2789 14-05-2009 21:26:39 15.1 C 11.35 g/m*3 15.1 C 0 km/h
2790 14-05-2009 21:41:39 15 C 11.41 g/m*3 15 C 0 km/h
2791 14-05-2009 21:56:39 14.5 C 11.19 g/m*3 14.5 C 0 km/h
2792 14-05-2009 22:11:39 14.1 C 10.92 g/m*3 14.1 C 0 km/h
2793 14-05-2009 22:26:39 14 C 10.98 g/m*3 14 C 0 km/h
2794 14-05-2009 22:41:39 13.6 C 10.83 g/m*3 13.6 C 0 km/h
2795 14-05-2009 22:56:39 13.6 C 10.83 g/m*3 13.6 C 0 km/h
2796 14-05-2009 23:11:39 13.3 C 10.74 g/m*3 13.3 C 0 km/h
2797 14-05-2009 23:26:39 13.2 C 10.68 g/m*3 13.2 C 0 km/h
2798 14-05-2009 23:41:39 13.2 C 10.68 g/m*3 13.2 C 0 km/h
2799 14-05-2009 23:56:40 13 C 10.55 g/m*3 13 C 0 km/h
2800 15-05-2009 00:11:40 12.9 C 10.59 g/m*3 12.9 C 0 km/h
Sensor: Nr:Datum:Temp:Abs-Feuchte:Windchill:Wind:
Aussen-T/F 2801 15-05-2009 00:26:40 12.9 C 10.59 g/m*3 12.9 C 0 km/h
2802 15-05-2009 00:41:40 12.7 C 10.46 g/m*3 12.7 C 0 km/h
2803 15-05-2009 00:56:40 12.8 C 10.53 g/m*3 12.8 C 0 km/h
2804 15-05-2009 01:11:40 12.9 C 10.59 g/m*3 12.9 C 0 km/h
2805 15-05-2009 01:26:40 13 C 10.43 g/m*3 13 C 0 km/h
2806 15-05-2009 01:41:40 13.1 C 10.5 g/m*3 13.1 C 0 km/h
2807 15-05-2009 01:56:40 13 C 10.43 g/m*3 13 C 0 km/h
2808 15-05-2009 02:11:40 13.1 C 10.38 g/m*3 13.1 C 0 km/h
2809 15-05-2009 02:26:40 13.1 C 10.38 g/m*3 13.1 C 0 km/h
2810 15-05-2009 02:41:40 13.1 C 10.38 g/m*3 13.1 C 0 km/h
2811 15-05-2009 02:56:40 13.1 C 10.38 g/m*3 13.1 C 0 km/h
2812 15-05-2009 03:11:40 13.1 C 10.38 g/m*3 13.1 C 0 km/h
2813 15-05-2009 03:26:40 13.2 C 10.45 g/m*3 13.2 C 0 km/h
2814 15-05-2009 03:41:40 13.3 C 10.51 g/m*3 13.3 C 0 km/h
2815 15-05-2009 03:56:40 13.2 C 10.45 g/m*3 13.2 C 0 km/h
2816 15-05-2009 04:11:40 13.4 C 10.69 g/m*3 13.4 C 0 km/h
2817 15-05-2009 04:26:40 13.4 C 10.58 g/m*3 13.4 C 0 km/h
2818 15-05-2009 04:41:41 13.4 C 10.58 g/m*3 13.4 C 0 km/h
2819 15-05-2009 04:56:41 13.4 C 10.69 g/m*3 13.4 C 0 km/h
2820 15-05-2009 05:11:41 13.5 C 10.76 g/m*3 13.5 C 0 km/h
2821 15-05-2009 05:26:41 13.6 C 10.83 g/m*3 13.6 C 0 km/h
2822 15-05-2009 05:41:41 13.7 C 10.89 g/m*3 13.7 C 0 km/h
2823 15-05-2009 05:56:41 13.8 C 10.96 g/m*3 13.8 C 0 km/h
2824 15-05-2009 06:11:41 13.7 C 10.78 g/m*3 13.7 C 0 km/h
2825 15-05-2009 06:26:41 13.8 C 10.84 g/m*3 13.8 C 0 km/h
Sensor: Nr:Datum:Temp:Abs-Feuchte:Windchill:Wind:
Aussen-T/F 2826 15-05-2009 06:41:41 14.1 C 11.04 g/m*3 14.1 C 0 km/h
2827 15-05-2009 06:56:41 14.4 C 11.13 g/m*3 14.4 C 0 km/h
2828 15-05-2009 07:11:41 14.6 C 11.26 g/m*3 14.6 C 0 km/h
2829 15-05-2009 07:26:41 14.6 C 11.14 g/m*3 14.6 C 0 km/h
2830 15-05-2009 07:41:41 14.7 C 11.21 g/m*3 14.7 C 0 km/h
2831 15-05-2009 07:56:41 15 C 11.41 g/m*3 15 C 0 km/h
2832 15-05-2009 08:11:41 15.8 C 12.11 g/m*3 15.8 C 0 km/h
2833 15-05-2009 08:26:41 16.3 C 11.93 g/m*3 16.3 C 0 km/h
2834 15-05-2009 08:41:41 16.4 C 11.17 g/m*3 16.4 C 0 km/h
2835 15-05-2009 08:56:41 16.5 C 10.67 g/m*3 16.5 C 0 km/h
2836 15-05-2009 09:11:41 16.7 C 10.8 g/m*3 16.7 C 0 km/h
2837 15-05-2009 09:26:41 16.7 C 10.23 g/m*3 16.7 C 0 km/h
2838 15-05-2009 09:41:42 16.8 C 10.29 g/m*3 16.8 C 0 km/h
2839 15-05-2009 09:56:02 17.2 C 9.96 g/m*3 17.2 C 0 km/h
2840 15-05-2009 10:11:01 17.1 C 9.9 g/m*3 17.1 C 0 km/h
2841 15-05-2009 10:26:02 17.9 C 9.77 g/m*3 17.9 C 0 km/h
2842 15-05-2009 10:41:02 18.4 C 9.59 g/m*3 18.4 C 0 km/h
2843 15-05-2009 10:56:01 18.6 C 9.71 g/m*3 18.6 C 0 km/h
2844 15-05-2009 11:11:02 19.3 C 9.29 g/m*3 19.3 C 0 km/h
2845 15-05-2009 11:26:02 20.1 C 9.04 g/m*3 20.1 C 0 km/h
2846 15-05-2009 11:41:01 20.6 C 9.31 g/m*3 20.6 C 0 km/h
2847 15-05-2009 11:56:01 20.6 C 8.95 g/m*3 20.6 C 0 km/h
2848 15-05-2009 12:11:01 19.9 C 8.59 g/m*3 19.9 C 0 km/h
2849 15-05-2009 12:26:00 20 C 8.64 g/m*3 20 C 0 km/h
2850 15-05-2009 12:41:00 20.4 C 8.49 g/m*3 20.4 C 0 km/h
Sensor: Nr:Datum:Temp:Abs-Feuchte:Windchill:Wind:
Aussen-T/F 2851 15-05-2009 12:56:00 19.2 C 8.9 g/m*3 19.2 C 0 km/h
2852 15-05-2009 13:11:00 17.5 C 9.84 g/m*3 17.5 C 0 km/h
2853 15-05-2009 13:26:00 17 C 10.42 g/m*3 17 C 0 km/h
2854 15-05-2009 13:41:00 17.5 C 10.59 g/m*3 17.5 C 0 km/h
2855 15-05-2009 13:56:59 18.2 C 10.26 g/m*3 18.2 C 0 km/h
2856 15-05-2009 14:10:59 17.8 C 9.71 g/m*3 17.8 C 0 km/h
2857 15-05-2009 14:26:00 17.9 C 10.08 g/m*3 17.9 C 0 km/h
2858 15-05-2009 14:41:59 17.3 C 9.87 g/m*3 17.3 C 0 km/h
2859 15-05-2009 14:56:59 16.9 C 9.49 g/m*3 16.9 C 0 km/h
2860 15-05-2009 15:11:59 16.5 C 9.97 g/m*3 16.5 C 0 km/h
2861 15-05-2009 15:26:59 15.9 C 10.43 g/m*3 15.9 C 0 km/h
2862 15-05-2009 15:41:58 16.7 C 11.23 g/m*3 16.7 C 0 km/h
2863 15-05-2009 15:56:59 17.6 C 11.4 g/m*3 17.6 C 0 km/h
2864 15-05-2009 16:11:59 18.3 C 10.94 g/m*3 18.3 C 0 km/h
2865 15-05-2009 16:26:58 18.4 C 10.7 g/m*3 18.4 C 0 km/h
2866 15-05-2009 16:41:58 18.2 C 10.72 g/m*3 18.2 C 0 km/h
2867 15-05-2009 16:56:58 18.3 C 10.79 g/m*3 18.3 C 0 km/h
2868 15-05-2009 17:11:58 18 C 10.75 g/m*3 18 C 0 km/h
2869 15-05-2009 17:26:57 16.3 C 9.43 g/m*3 16.3 C 0 km/h
2870 15-05-2009 17:41:57 16.4 C 10.05 g/m*3 16.4 C 0 km/h
2871 15-05-2009 17:49:57 16.2 C 10.2 g/m*3 16.2 C 0 km/h
2872 15-05-2009 18:01:57 15.9 C 10.16 g/m*3 15.9 C 0 km/h
2873 15-05-2009 18:13:57 15.7 C 10.17 g/m*3 15.7 C 0 km/h
2874 15-05-2009 18:25:57 15.5 C 9.91 g/m*3 15.5 C 0 km/h
2875 15-05-2009 18:37:56 15.3 C 9.92 g/m*3 15.3 C 0 km/h
Sensor: Nr:Datum:Temp:Abs-Feuchte:Windchill:Wind:
Aussen-T/F 2876 15-05-2009 18:49:57 14.5 C 9.33 g/m*3 14.5 C 0 km/h
2877 15-05-2009 19:01:56 14.1 C 9.22 g/m*3 14.1 C 0 km/h
2878 15-05-2009 19:13:56 13.8 C 9.41 g/m*3 13.8 C 0 km/h
2879 15-05-2009 19:25:56 13.7 C 9.59 g/m*3 13.7 C 0 km/h
2880 15-05-2009 19:37:57 13.5 C 9.71 g/m*3 13.5 C 0 km/h
2881 15-05-2009 19:49:56 13.5 C 9.83 g/m*3 13.5 C 0 km/h
2882 15-05-2009 20:01:56 13.5 C 9.83 g/m*3 13.5 C 0 km/h
2883 15-05-2009 20:13:56 13.3 C 9.82 g/m*3 13.3 C 0 km/h
2884 15-05-2009 20:25:56 13.2 C 9.76 g/m*3 13.2 C 0 km/h
2885 15-05-2009 20:37:56 13.2 C 9.76 g/m*3 13.2 C 0 km/h
2886 15-05-2009 20:49:55 13.1 C 9.81 g/m*3 13.1 C 0 km/h
2887 15-05-2009 21:01:56 12.8 C 9.74 g/m*3 12.8 C 0 km/h
2888 15-05-2009 21:13:56 12.7 C 9.8 g/m*3 12.7 C 0 km/h
2889 15-05-2009 21:25:55 12.5 C 9.68 g/m*3 12.5 C 0 km/h
2890 15-05-2009 21:37:55 12.5 C 9.78 g/m*3 12.5 C 0 km/h
2891 15-05-2009 21:49:55 12.5 C 9.78 g/m*3 12.5 C 0 km/h
2892 15-05-2009 22:01:55 12.5 C 9.89 g/m*3 12.5 C 0 km/h
2893 15-05-2009 22:13:55 12.5 C 9.89 g/m*3 12.5 C 0 km/h
2894 15-05-2009 22:25:55 12.5 C 10 g/m*3 12.5 C 0 km/h
2895 15-05-2009 22:37:54 12.5 C 10 g/m*3 12.5 C 0 km/h
2896 15-05-2009 22:49:55 12.6 C 10.07 g/m*3 12.6 C 0 km/h
2897 15-05-2009 23:01:54 12.6 C 10.07 g/m*3 12.6 C 0 km/h
2898 15-05-2009 23:13:54 12.5 C 10 g/m*3 12.5 C 0 km/h
2899 15-05-2009 23:25:54 12.4 C 9.94 g/m*3 12.4 C 0 km/h
2900 15-05-2009 23:37:54 12.2 C 9.71 g/m*3 12.2 C 0 km/h
Sensor: Nr:Datum:Temp:Abs-Feuchte:Windchill:Wind:
Aussen-T/F 2901 15-05-2009 23:49:54 12.4 C 9.4 g/m*3 12.4 C 0 km/h
2902 16-05-2009 00:01:53 12.4 C 8.96 g/m*3 12.4 C 0 km/h
2903 16-05-2009 00:13:53 12.3 C 8.8 g/m*3 12.3 C 0 km/h
2904 16-05-2009 00:25:54 12.3 C 8.9 g/m*3 12.3 C 0 km/h
2905 16-05-2009 00:37:53 12.3 C 8.9 g/m*3 12.3 C 0 km/h
2906 16-05-2009 00:49:54 12.2 C 8.74 g/m*3 12.2 C 0 km/h
2907 16-05-2009 01:01:53 12.1 C 8.58 g/m*3 12.1 C 0 km/h
2908 16-05-2009 01:13:53 12 C 8.63 g/m*3 12 C 0 km/h
2909 16-05-2009 01:25:53 11.4 C 8.52 g/m*3 11.4 C 0 km/h
2910 16-05-2009 01:37:52 11.1 C 8.46 g/m*3 11.1 C 0 km/h
2911 16-05-2009 01:49:53 10.8 C 8.3 g/m*3 10.8 C 0 km/h
2912 16-05-2009 02:01:53 10.5 C 8.05 g/m*3 10.5 C 0 km/h
2913 16-05-2009 02:13:53 10.3 C 8.04 g/m*3 10.3 C 0 km/h
2914 16-05-2009 02:25:52 10 C 7.89 g/m*3 10 C 0 km/h
2915 16-05-2009 02:37:53 9.7 C 8.02 g/m*3 9.7 C 0 km/h
2916 16-05-2009 02:50:53 9.6 C 8.06 g/m*3 9.6 C 0 km/h
2917 16-05-2009 03:02:53 9.6 C 8.15 g/m*3 9.6 C 0 km/h
2918 16-05-2009 03:14:54 9.4 C 8.05 g/m*3 9.4 C 0 km/h
2919 16-05-2009 03:26:54 9.3 C 8 g/m*3 9.3 C 0 km/h
2920 16-05-2009 03:38:53 9.3 C 8.09 g/m*3 9.3 C 0 km/h
2921 16-05-2009 03:50:53 9.2 C 8.04 g/m*3 9.2 C 0 km/h
2922 16-05-2009 04:02:53 9.1 C 7.99 g/m*3 9.1 C 0 km/h
2923 16-05-2009 04:14:53 9.1 C 7.99 g/m*3 9.1 C 0 km/h
2924 16-05-2009 04:26:53 9.4 C 8.05 g/m*3 9.4 C 0 km/h
2925 16-05-2009 04:38:53 9.4 C 7.96 g/m*3 9.4 C 0 km/h
Sensor: Nr:Datum:Temp:Abs-Feuchte:Windchill:Wind:
Aussen-T/F 2926 16-05-2009 04:50:53 8.9 C 7.8 g/m*3 8.9 C 0 km/h
2927 16-05-2009 05:02:52 8.7 C 7.7 g/m*3 8.7 C 0 km/h
2928 16-05-2009 05:14:52 8.4 C 7.55 g/m*3 8.4 C 0 km/h
2929 16-05-2009 05:26:52 8.3 C 7.5 g/m*3 8.3 C 0 km/h
2930 16-05-2009 05:38:52 8.2 C 7.45 g/m*3 8.2 C 0 km/h
2931 16-05-2009 05:50:52 8.1 C 7.41 g/m*3 8.1 C 0 km/h
2932 16-05-2009 06:02:52 8 C 7.36 g/m*3 8 C 0 km/h
2933 16-05-2009 06:14:51 8 C 7.36 g/m*3 8 C 0 km/h
2934 16-05-2009 06:26:51 8 C 7.36 g/m*3 8 C 0 km/h
2935 16-05-2009 06:38:52 8.2 C 7.45 g/m*3 8.2 C 0 km/h
2936 16-05-2009 06:50:51 8.4 C 7.47 g/m*3 8.4 C 0 km/h
2937 16-05-2009 07:02:52 8.6 C 7.48 g/m*3 8.6 C 0 km/h
2938 16-05-2009 07:14:51 8.9 C 7.45 g/m*3 8.9 C 0 km/h
2939 16-05-2009 07:26:51 8.9 C 7.53 g/m*3 8.9 C 0 km/h
2940 16-05-2009 07:38:51 9 C 7.58 g/m*3 9 C 0 km/h
2941 16-05-2009 07:50:51 9.2 C 7.59 g/m*3 9.2 C 0 km/h
2942 16-05-2009 08:02:51 9.5 C 7.65 g/m*3 9.5 C 0 km/h
2943 16-05-2009 08:14:50 9.8 C 7.7 g/m*3 9.8 C 0 km/h
2944 16-05-2009 08:26:50 10.7 C 7.37 g/m*3 10.7 C 0 km/h
2945 16-05-2009 08:38:50 10.9 C 6.96 g/m*3 10.9 C 0 km/h
2946 16-05-2009 08:50:50 10.9 C 7.06 g/m*3 10.9 C 0 km/h
2947 16-05-2009 09:02:50 10.9 C 7.06 g/m*3 10.9 C 0 km/h
2948 16-05-2009 09:14:50 11.2 C 7.2 g/m*3 11.2 C 0 km/h
2949 16-05-2009 09:26:50 11.7 C 7.22 g/m*3 11.7 C 0 km/h
2950 16-05-2009 09:38:50 12 C 7.14 g/m*3 12 C 0 km/h
Sensor: Nr:Datum:Temp:Abs-Feuchte:Windchill:Wind:
Aussen-T/F 2951 16-05-2009 09:50:50 12.6 C 7.19 g/m*3 12.6 C 0 km/h
2952 16-05-2009 10:02:49 12.4 C 6.99 g/m*3 12.4 C 0 km/h
2953 16-05-2009 10:14:49 12.8 C 6.61 g/m*3 12.8 C 0 km/h
2954 16-05-2009 10:26:49 12.8 C 6.61 g/m*3 12.8 C 0 km/h
2955 16-05-2009 10:38:49 13.6 C 6.59 g/m*3 13.6 C 0 km/h
2956 16-05-2009 10:50:49 13.8 C 6.2 g/m*3 13.8 C 0 km/h
2957 16-05-2009 11:02:48 13.7 C 6.39 g/m*3 13.7 C 0 km/h
2958 16-05-2009 11:14:49 13.6 C 6.24 g/m*3 13.6 C 0 km/h
2959 16-05-2009 11:26:49 13.6 C 6.24 g/m*3 13.6 C 0 km/h
2960 16-05-2009 11:38:49 14.1 C 6.07 g/m*3 14.1 C 0 km/h
2961 16-05-2009 11:50:48 14.6 C 6.13 g/m*3 14.6 C 0 km/h
2962 16-05-2009 12:02:49 15.8 C 6.19 g/m*3 15.8 C 0 km/h
2963 16-05-2009 12:14:48 15.8 C 5.65 g/m*3 15.8 C 0 km/h
2964 16-05-2009 12:26:48 16.2 C 5.52 g/m*3 16.2 C 0 km/h
2965 16-05-2009 12:38:48 17 C 5.5 g/m*3 17 C 0 km/h
2966 16-05-2009 12:50:48 16.7 C 5.12 g/m*3 16.7 C 0 km/h
2967 16-05-2009 13:02:48 16.8 C 5.29 g/m*3 16.8 C 0 km/h
2968 16-05-2009 13:14:47 16.4 C 5.16 g/m*3 16.4 C 0 km/h
2969 16-05-2009 13:26:47 15.8 C 5.52 g/m*3 15.8 C 0 km/h
2970 16-05-2009 13:38:47 16.6 C 5.65 g/m*3 16.6 C 0 km/h
2971 16-05-2009 13:50:47 17.1 C 5.39 g/m*3 17.1 C 0 km/h
2972 16-05-2009 14:02:47 17.7 C 5.43 g/m*3 17.7 C 0 km/h
2973 16-05-2009 14:14:47 17.1 C 5.39 g/m*3 17.1 C 0 km/h
2974 16-05-2009 14:26:47 17 C 5.5 g/m*3 17 C 0 km/h
2975 16-05-2009 14:38:47 17.4 C 5.48 g/m*3 17.4 C 0 km/h
Sensor: Nr:Datum:Temp:Abs-Feuchte:Windchill:Wind:
Aussen-T/F 2976 16-05-2009 14:50:47 17.4 C 5.48 g/m*3 17.4 C 0 km/h
2977 16-05-2009 15:02:46 17.8 C 5.77 g/m*3 17.8 C 0 km/h
2978 16-05-2009 15:14:46 18.2 C 5.75 g/m*3 18.2 C 0 km/h
2979 16-05-2009 15:26:46 17.6 C 5.55 g/m*3 17.6 C 0 km/h
2980 16-05-2009 15:38:47 17.8 C 5.77 g/m*3 17.8 C 0 km/h
2981 16-05-2009 15:50:46 17.6 C 6 g/m*3 17.6 C 0 km/h
2982 16-05-2009 16:02:46 17.4 C 5.93 g/m*3 17.4 C 0 km/h
2983 16-05-2009 16:14:46 17.7 C 6.04 g/m*3 17.7 C 0 km/h
2984 16-05-2009 16:26:46 17.7 C 6.04 g/m*3 17.7 C 0 km/h
2985 16-05-2009 16:38:46 19.1 C 5.9 g/m*3 19.1 C 0 km/h
2986 16-05-2009 16:50:45 19 C 5.7 g/m*3 19 C 0 km/h
2987 16-05-2009 17:02:46 19.1 C 6.07 g/m*3 19.1 C 0 km/h
2988 16-05-2009 17:14:45 18.7 C 5.92 g/m*3 18.7 C 0 km/h
2989 16-05-2009 17:26:45 18.2 C 5.91 g/m*3 18.2 C 0 km/h
2990 16-05-2009 17:38:45 18.5 C 6.01 g/m*3 18.5 C 0 km/h
2991 16-05-2009 17:50:45 18.2 C 6.06 g/m*3 18.2 C 0 km/h
2992 16-05-2009 18:02:45 20.4 C 5.84 g/m*3 20.4 C 0 km/h
2993 16-05-2009 18:14:45 20.7 C 5.76 g/m*3 20.7 C 0 km/h
2994 16-05-2009 18:26:45 20.9 C 5.83 g/m*3 20.9 C 0 km/h
2995 16-05-2009 18:38:48 21 C 5.68 g/m*3 21 C 0 km/h
2996 16-05-2009 18:50:44 20.7 C 6.12 g/m*3 20.7 C 0 km/h
2997 16-05-2009 19:02:44 21.6 C 6.07 g/m*3 21.6 C 0 km/h
2998 16-05-2009 19:14:44 20.8 C 6.16 g/m*3 20.8 C 0 km/h
2999 16-05-2009 19:26:44 20.7 C 5.94 g/m*3 20.7 C 0 km/h
3000 16-05-2009 19:38:44 20.2 C 6.29 g/m*3 20.2 C 0 km/h
Sensor: Nr:Datum:Temp:Abs-Feuchte:Windchill:Wind:
Aussen-T/F 3001 16-05-2009 19:50:43 19.3 C 7.13 g/m*3 19.3 C 0 km/h
3002 16-05-2009 20:02:44 18.7 C 7.2 g/m*3 18.7 C 0 km/h
3003 16-05-2009 20:14:44 17.7 C 7.69 g/m*3 17.7 C 0 km/h
3004 16-05-2009 20:26:44 17.3 C 7.96 g/m*3 17.3 C 0 km/h
3005 16-05-2009 20:38:43 16.7 C 7.82 g/m*3 16.7 C 0 km/h
3006 16-05-2009 20:50:44 16.1 C 7.54 g/m*3 16.1 C 0 km/h
3007 16-05-2009 21:02:43 15.6 C 7.71 g/m*3 15.6 C 0 km/h
3008 16-05-2009 21:14:43 15.2 C 7.4 g/m*3 15.2 C 0 km/h
3009 16-05-2009 21:26:43 14.4 C 7.54 g/m*3 14.4 C 0 km/h
3010 16-05-2009 21:38:42 14.1 C 7.52 g/m*3 14.1 C 0 km/h
3011 16-05-2009 21:50:43 13.5 C 7.49 g/m*3 13.5 C 0 km/h
3012 16-05-2009 22:02:43 13.3 C 7.51 g/m*3 13.3 C 0 km/h
3013 16-05-2009 22:14:42 13.3 C 7.51 g/m*3 13.3 C 0 km/h
3014 16-05-2009 22:26:42 13.2 C 7.81 g/m*3 13.2 C 0 km/h
3015 16-05-2009 22:38:43 13.1 C 7.76 g/m*3 13.1 C 0 km/h
3016 16-05-2009 22:50:42 13.1 C 7.65 g/m*3 13.1 C 0 km/h
3017 16-05-2009 23:02:42 13.1 C 7.65 g/m*3 13.1 C 0 km/h
3018 16-05-2009 23:14:41 13.2 C 7.81 g/m*3 13.2 C 0 km/h
3019 16-05-2009 23:26:41 13.5 C 7.49 g/m*3 13.5 C 0 km/h
3020 16-05-2009 23:38:42 13.8 C 7.39 g/m*3 13.8 C 0 km/h
3021 16-05-2009 23:50:41 14 C 7.12 g/m*3 14 C 0 km/h
3022 17-05-2009 00:02:41 14 C 7 g/m*3 14 C 0 km/h
3023 17-05-2009 00:14:41 13.9 C 7.19 g/m*3 13.9 C 0 km/h
3024 17-05-2009 00:26:41 13.9 C 7.31 g/m*3 13.9 C 0 km/h
3025 17-05-2009 00:38:41 13.9 C 7.31 g/m*3 13.9 C 0 km/h
Sensor: Nr:Datum:Temp:Abs-Feuchte:Windchill:Wind:
Aussen-T/F 3026 17-05-2009 00:50:41 13.6 C 7.41 g/m*3 13.6 C 0 km/h
3027 17-05-2009 01:02:41 13.4 C 7.32 g/m*3 13.4 C 0 km/h
3028 17-05-2009 01:14:40 13.5 C 7.37 g/m*3 13.5 C 0 km/h
3029 17-05-2009 01:26:40 13.7 C 7.22 g/m*3 13.7 C 0 km/h
3030 17-05-2009 01:38:41 13.6 C 7.3 g/m*3 13.6 C 0 km/h
3031 17-05-2009 01:50:40 13.4 C 7.21 g/m*3 13.4 C 0 km/h
3032 17-05-2009 02:02:40 13.6 C 7.3 g/m*3 13.6 C 0 km/h
3033 17-05-2009 02:14:40 13.5 C 7.37 g/m*3 13.5 C 0 km/h
3034 17-05-2009 02:26:40 13.2 C 7.35 g/m*3 13.2 C 0 km/h
3035 17-05-2009 02:38:40 13.1 C 7.42 g/m*3 13.1 C 0 km/h
3036 17-05-2009 02:51:01 12.8 C 7.5 g/m*3 12.8 C 0 km/h
3037 17-05-2009 03:03:01 12.6 C 7.41 g/m*3 12.6 C 0 km/h
3038 17-05-2009 03:15:01 12.1 C 7.4 g/m*3 12.1 C 0 km/h
3039 17-05-2009 03:27:02 11.8 C 7.37 g/m*3 11.8 C 0 km/h
3040 17-05-2009 03:39:01 11.6 C 7.48 g/m*3 11.6 C 0 km/h
3041 17-05-2009 03:51:01 11.5 C 7.54 g/m*3 11.5 C 0 km/h
3042 17-05-2009 04:03:01 11.6 C 7.48 g/m*3 11.6 C 0 km/h
3043 17-05-2009 04:15:02 11.5 C 7.54 g/m*3 11.5 C 0 km/h
3044 17-05-2009 04:27:02 12.1 C 7.18 g/m*3 12.1 C 0 km/h
3045 17-05-2009 04:39:01 12.2 C 7.12 g/m*3 12.2 C 0 km/h
3046 17-05-2009 04:51:01 11.9 C 7.31 g/m*3 11.9 C 0 km/h
3047 17-05-2009 05:03:01 11.7 C 7.43 g/m*3 11.7 C 0 km/h
3048 17-05-2009 05:15:01 11.3 C 7.34 g/m*3 11.3 C 0 km/h
3049 17-05-2009 05:27:01 11 C 7.41 g/m*3 11 C 0 km/h
3050 17-05-2009 05:39:01 10.8 C 7.41 g/m*3 10.8 C 0 km/h
Sensor: Nr:Datum:Temp:Abs-Feuchte:Windchill:Wind:
Aussen-T/F 3051 17-05-2009 05:51:02 10.7 C 7.46 g/m*3 10.7 C 0 km/h
3052 17-05-2009 06:03:01 10.7 C 7.46 g/m*3 10.7 C 0 km/h
3053 17-05-2009 06:15:02 10.6 C 7.52 g/m*3 10.6 C 0 km/h
3054 17-05-2009 06:27:02 10.5 C 7.57 g/m*3 10.5 C 0 km/h
3055 17-05-2009 06:39:01 10.8 C 7.71 g/m*3 10.8 C 0 km/h
3056 17-05-2009 06:51:02 11.1 C 7.76 g/m*3 11.1 C 0 km/h
3057 17-05-2009 07:03:01 11.4 C 7.8 g/m*3 11.4 C 0 km/h
3058 17-05-2009 07:15:01 11.9 C 8.05 g/m*3 11.9 C 0 km/h
3059 17-05-2009 07:27:01 12.1 C 7.94 g/m*3 12.1 C 0 km/h
3060 17-05-2009 07:39:02 12.1 C 7.72 g/m*3 12.1 C 0 km/h
3061 17-05-2009 07:51:02 12.1 C 7.61 g/m*3 12.1 C 0 km/h
3062 17-05-2009 08:03:01 11.7 C 7.95 g/m*3 11.7 C 0 km/h
3063 17-05-2009 08:15:02 11.4 C 8.11 g/m*3 11.4 C 0 km/h
3064 17-05-2009 08:27:02 11.9 C 8.68 g/m*3 11.9 C 0 km/h
3065 17-05-2009 08:39:01 12.1 C 8.69 g/m*3 12.1 C 0 km/h
3066 17-05-2009 08:51:02 12.4 C 8.96 g/m*3 12.4 C 0 km/h
3067 17-05-2009 09:03:01 12.8 C 9.07 g/m*3 12.8 C 0 km/h
3068 17-05-2009 09:15:01 13.3 C 9.13 g/m*3 13.3 C 0 km/h
3069 17-05-2009 09:27:01 13.8 C 9.17 g/m*3 13.8 C 0 km/h
3070 17-05-2009 09:39:01 14.4 C 8.53 g/m*3 14.4 C 0 km/h
3071 17-05-2009 09:51:01 15.2 C 8.7 g/m*3 15.2 C 0 km/h
3072 17-05-2009 10:03:02 15.7 C 8.43 g/m*3 15.7 C 0 km/h
3073 17-05-2009 10:15:01 15.3 C 8.1 g/m*3 15.3 C 0 km/h
3074 17-05-2009 10:27:01 15.4 C 7.88 g/m*3 15.4 C 0 km/h
3075 17-05-2009 10:39:02 16.3 C 7.91 g/m*3 16.3 C 0 km/h
Sensor: Nr:Datum:Temp:Abs-Feuchte:Windchill:Wind:
Aussen-T/F 3076 17-05-2009 10:51:01 17.5 C 8.05 g/m*3 17.5 C 0 km/h
3077 17-05-2009 11:03:02 17.9 C 8.24 g/m*3 17.9 C 0 km/h
3078 17-05-2009 11:15:01 18.5 C 8.23 g/m*3 18.5 C 0 km/h
3079 17-05-2009 11:27:01 18.6 C 7.8 g/m*3 18.6 C 0 km/h
3080 17-05-2009 11:39:01 20 C 8.64 g/m*3 20 C 0 km/h
3081 17-05-2009 11:51:01 21.2 C 8.52 g/m*3 21.2 C 0 km/h
3082 17-05-2009 12:03:01 22.3 C 8.29 g/m*3 22.3 C 0 km/h
3083 17-05-2009 12:15:02 21.9 C 7.72 g/m*3 21.9 C 0 km/h
3084 17-05-2009 12:27:02 21.3 C 8.39 g/m*3 21.3 C 0 km/h
3085 17-05-2009 12:39:01 20.4 C 8.49 g/m*3 20.4 C 0 km/h
3086 17-05-2009 12:51:02 21.3 C 8.39 g/m*3 21.3 C 0 km/h
3087 17-05-2009 13:03:01 22 C 8.35 g/m*3 22 C 0 km/h
3088 17-05-2009 13:15:02 22.7 C 8.28 g/m*3 22.7 C 0 km/h
3089 17-05-2009 13:27:02 22.2 C 7.85 g/m*3 22.2 C 0 km/h
3090 17-05-2009 13:39:01 23.3 C 7.95 g/m*3 23.3 C 0 km/h
3091 17-05-2009 13:51:01 22.8 C 7.72 g/m*3 22.8 C 0 km/h
3092 17-05-2009 14:03:01 22.4 C 7.94 g/m*3 22.4 C 0 km/h
3093 17-05-2009 14:15:01 22 C 7.76 g/m*3 22 C 0 km/h
3094 17-05-2009 14:27:01 21.3 C 7.46 g/m*3 21.3 C 0 km/h
3095 17-05-2009 14:39:02 21.2 C 7.6 g/m*3 21.2 C 0 km/h
3096 17-05-2009 14:51:01 21.4 C 7.69 g/m*3 21.4 C 0 km/h
3097 17-05-2009 15:03:02 21.9 C 7.72 g/m*3 21.9 C 0 km/h
3098 17-05-2009 15:15:01 22.8 C 7.92 g/m*3 22.8 C 0 km/h
3099 17-05-2009 15:27:01 23 C 7.6 g/m*3 23 C 0 km/h
3100 17-05-2009 15:39:01 23.4 C 7.78 g/m*3 23.4 C 0 km/h
Sensor: Nr:Datum:Temp:Abs-Feuchte:Windchill:Wind:
Aussen-T/F 3101 17-05-2009 15:51:01 23.3 C 7.32 g/m*3 23.3 C 0 km/h
3102 17-05-2009 16:03:01 23.5 C 6.98 g/m*3 23.5 C 0 km/h
3103 17-05-2009 16:15:01 23.4 C 6.73 g/m*3 23.4 C 0 km/h
3104 17-05-2009 16:27:01 23.9 C 6.92 g/m*3 23.9 C 0 km/h
3105 17-05-2009 16:39:01 23.5 C 6.56 g/m*3 23.5 C 0 km/h
3106 17-05-2009 16:51:01 24.2 C 5.94 g/m*3 24.2 C 0 km/h
3107 17-05-2009 17:03:01 24.1 C 6.13 g/m*3 24.1 C 0 km/h
3108 17-05-2009 17:15:02 24.1 C 6.13 g/m*3 24.1 C 0 km/h
3109 17-05-2009 17:27:02 24.5 C 6.27 g/m*3 24.5 C 0 km/h
3110 17-05-2009 17:39:01 24 C 6.53 g/m*3 24 C 0 km/h
3111 17-05-2009 17:51:02 23.3 C 6.48 g/m*3 23.3 C 0 km/h
3112 17-05-2009 18:03:01 22.9 C 6.54 g/m*3 22.9 C 0 km/h
3113 17-05-2009 18:15:01 22.1 C 6.64 g/m*3 22.1 C 0 km/h
3114 17-05-2009 18:27:02 21 C 6.41 g/m*3 21 C 0 km/h
3115 17-05-2009 18:39:01 20.9 C 6.74 g/m*3 20.9 C 0 km/h
3116 17-05-2009 18:51:01 20.4 C 7.25 g/m*3 20.4 C 0 km/h
3117 17-05-2009 19:03:01 20.5 C 7.12 g/m*3 20.5 C 0 km/h
3118 17-05-2009 19:15:01 20.9 C 7.29 g/m*3 20.9 C 0 km/h
3119 17-05-2009 19:27:01 20.7 C 7.56 g/m*3 20.7 C 0 km/h
3120 17-05-2009 19:39:02 20.4 C 7.43 g/m*3 20.4 C 0 km/h
3121 17-05-2009 19:51:01 20.1 C 7.3 g/m*3 20.1 C 0 km/h
3122 17-05-2009 20:03:02 19.7 C 7.64 g/m*3 19.7 C 0 km/h
3123 17-05-2009 20:15:01 19.5 C 7.72 g/m*3 19.5 C 0 km/h
3124 17-05-2009 20:27:01 19.3 C 7.96 g/m*3 19.3 C 0 km/h
3125 17-05-2009 20:39:01 18.9 C 8.59 g/m*3 18.9 C 0 km/h
Sensor: Nr:Datum:Temp:Abs-Feuchte:Windchill:Wind:
Aussen-T/F 3126 17-05-2009 20:51:01 19 C 8.15 g/m*3 19 C 0 km/h
3127 17-05-2009 21:03:01 18.9 C 8.1 g/m*3 18.9 C 0 km/h
3128 17-05-2009 21:15:01 18.5 C 7.59 g/m*3 18.5 C 0 km/h
3129 17-05-2009 21:27:01 18.3 C 7.66 g/m*3 18.3 C 0 km/h
3130 17-05-2009 21:39:02 18 C 7.68 g/m*3 18 C 0 km/h
3131 17-05-2009 21:51:01 17.7 C 7.69 g/m*3 17.7 C 0 km/h
3132 17-05-2009 22:03:02 17.5 C 7.45 g/m*3 17.5 C 0 km/h
3133 17-05-2009 22:15:01 17.3 C 7.37 g/m*3 17.3 C 0 km/h
3134 17-05-2009 22:27:01 17.2 C 7.47 g/m*3 17.2 C 0 km/h
3135 17-05-2009 22:39:01 16.9 C 7.19 g/m*3 16.9 C 0 km/h
3136 17-05-2009 22:51:01 16.8 C 7.15 g/m*3 16.8 C 0 km/h
3137 17-05-2009 23:03:01 16.6 C 7.35 g/m*3 16.6 C 0 km/h
3138 17-05-2009 23:15:01 16.3 C 7.08 g/m*3 16.3 C 0 km/h
3139 17-05-2009 23:27:01 16.2 C 6.9 g/m*3 16.2 C 0 km/h
3140 17-05-2009 23:39:01 16.2 C 6.48 g/m*3 16.2 C 0 km/h
3141 17-05-2009 23:51:02 16.2 C 6.48 g/m*3 16.2 C 0 km/h
3142 18-05-2009 00:03:01 16.1 C 6.58 g/m*3 16.1 C 0 km/h
3143 18-05-2009 00:15:01 15.8 C 6.87 g/m*3 15.8 C 0 km/h
3144 18-05-2009 00:27:01 15.6 C 7.05 g/m*3 15.6 C 0 km/h
3145 18-05-2009 00:39:01 15.4 C 7.09 g/m*3 15.4 C 0 km/h
3146 18-05-2009 00:51:01 15.4 C 7.23 g/m*3 15.4 C 0 km/h
3147 18-05-2009 01:03:01 15.1 C 7.22 g/m*3 15.1 C 0 km/h
3148 18-05-2009 01:15:02 14.9 C 7.39 g/m*3 14.9 C 0 km/h
3149 18-05-2009 01:27:02 14.7 C 7.43 g/m*3 14.7 C 0 km/h
3150 18-05-2009 01:39:01 14.7 C 7.3 g/m*3 14.7 C 0 km/h
Sensor: Nr:Datum:Temp:Abs-Feuchte:Windchill:Wind:
Aussen-T/F 3151 18-05-2009 01:51:02 14.5 C 7.21 g/m*3 14.5 C 0 km/h
3152 18-05-2009 02:03:01 14.5 C 7.34 g/m*3 14.5 C 0 km/h
3153 18-05-2009 02:15:02 14.3 C 7.25 g/m*3 14.3 C 0 km/h
3154 18-05-2009 02:27:02 14.2 C 7.33 g/m*3 14.2 C 0 km/h
3155 18-05-2009 02:39:01 14 C 7.36 g/m*3 14 C 0 km/h
3156 18-05-2009 02:51:30 13.7 C 7.34 g/m*3 13.7 C 0 km/h
3157 18-05-2009 03:03:30 13.6 C 7.3 g/m*3 13.6 C 0 km/h
3158 18-05-2009 03:15:29 13.3 C 7.28 g/m*3 13.3 C 0 km/h
3159 18-05-2009 03:27:29 13 C 7.26 g/m*3 13 C 0 km/h
3160 18-05-2009 03:39:29 12.6 C 7.3 g/m*3 12.6 C 0 km/h
3161 18-05-2009 03:51:29 12.8 C 7.5 g/m*3 12.8 C 0 km/h
3162 18-05-2009 04:03:28 13 C 7.6 g/m*3 13 C 0 km/h
3163 18-05-2009 04:15:29 13.1 C 7.65 g/m*3 13.1 C 0 km/h
3164 18-05-2009 04:27:29 12.8 C 7.62 g/m*3 12.8 C 0 km/h
3165 18-05-2009 04:39:28 12.4 C 7.43 g/m*3 12.4 C 0 km/h
3166 18-05-2009 04:51:28 12 C 7.46 g/m*3 12 C 0 km/h
3167 18-05-2009 05:03:28 11.6 C 7.38 g/m*3 11.6 C 0 km/h
3168 18-05-2009 05:15:28 11.7 C 7.64 g/m*3 11.7 C 0 km/h
3169 18-05-2009 05:27:28 11.2 C 7.4 g/m*3 11.2 C 0 km/h
3170 18-05-2009 05:39:28 11 C 7.41 g/m*3 11 C 0 km/h
3171 18-05-2009 05:51:28 10.9 C 7.56 g/m*3 10.9 C 0 km/h
3172 18-05-2009 06:03:28 10.8 C 7.61 g/m*3 10.8 C 0 km/h
3173 18-05-2009 06:15:27 10.7 C 7.66 g/m*3 10.7 C 0 km/h
3174 18-05-2009 06:27:27 10.7 C 7.76 g/m*3 10.7 C 0 km/h
3175 18-05-2009 06:39:27 10.7 C 7.86 g/m*3 10.7 C 0 km/h
Sensor: Nr:Datum:Temp:Abs-Feuchte:Windchill:Wind:
Aussen-T/F 3176 18-05-2009 06:51:27 10.8 C 7.91 g/m*3 10.8 C 0 km/h
3177 18-05-2009 07:03:27 11 C 7.91 g/m*3 11 C 0 km/h
3178 18-05-2009 07:15:27 11.3 C 8.06 g/m*3 11.3 C 0 km/h
3179 18-05-2009 07:27:27 11.4 C 8.11 g/m*3 11.4 C 0 km/h
3180 18-05-2009 07:39:27 11.6 C 8.21 g/m*3 11.6 C 0 km/h
3181 18-05-2009 07:51:27 11.9 C 8.26 g/m*3 11.9 C 0 km/h
3182 18-05-2009 08:03:26 12.1 C 8.26 g/m*3 12.1 C 0 km/h
3183 18-05-2009 08:15:26 12.4 C 8.3 g/m*3 12.4 C 0 km/h
3184 18-05-2009 08:27:26 12.8 C 8.51 g/m*3 12.8 C 0 km/h
3185 18-05-2009 08:39:26 13.2 C 8.38 g/m*3 13.2 C 0 km/h
3186 18-05-2009 08:51:26 13.7 C 8.41 g/m*3 13.7 C 0 km/h
3187 18-05-2009 09:03:25 14.8 C 8.11 g/m*3 14.8 C 0 km/h
3188 18-05-2009 09:15:26 15.4 C 7.49 g/m*3 15.4 C 0 km/h
3189 18-05-2009 09:27:26 15.2 C 7.53 g/m*3 15.2 C 0 km/h
3190 18-05-2009 09:39:26 15.2 C 7.53 g/m*3 15.2 C 0 km/h
3191 18-05-2009 09:51:25 15.9 C 7.58 g/m*3 15.9 C 0 km/h
3192 18-05-2009 10:03:26 16.5 C 7.44 g/m*3 16.5 C 0 km/h
3193 18-05-2009 10:15:25 16.7 C 7.25 g/m*3 16.7 C 0 km/h
3194 18-05-2009 10:27:25 17.1 C 6.99 g/m*3 17.1 C 0 km/h
3195 18-05-2009 10:39:25 16.5 C 7.02 g/m*3 16.5 C 0 km/h
3196 18-05-2009 10:51:25 16.6 C 7.06 g/m*3 16.6 C 0 km/h
3197 18-05-2009 11:03:25 17 C 6.95 g/m*3 17 C 0 km/h
3198 18-05-2009 11:15:24 17.3 C 6.78 g/m*3 17.3 C 0 km/h
3199 18-05-2009 11:27:24 18 C 6.45 g/m*3 18 C 0 km/h
3200 18-05-2009 11:39:24 17.6 C 6.3 g/m*3 17.6 C 0 km/h
Sensor: Nr:Datum:Temp:Abs-Feuchte:Windchill:Wind:
Aussen-T/F 3201 18-05-2009 11:51:24 18.4 C 6.29 g/m*3 18.4 C 0 km/h
3202 18-05-2009 12:03:24 18.5 C 6.17 g/m*3 18.5 C 0 km/h
3203 18-05-2009 12:15:24 18.7 C 6.24 g/m*3 18.7 C 0 km/h
3204 18-05-2009 12:27:24 19.4 C 6.01 g/m*3 19.4 C 0 km/h
3205 18-05-2009 12:39:24 19.3 C 5.47 g/m*3 19.3 C 0 km/h
3206 18-05-2009 12:51:24 19.3 C 4.98 g/m*3 19.3 C 0 km/h
3207 18-05-2009 13:03:23 19.2 C 5.11 g/m*3 19.2 C 0 km/h
3208 18-05-2009 13:15:23 20.6 C 5.19 g/m*3 20.6 C 0 km/h
3209 18-05-2009 13:27:23 20.8 C 3.98 g/m*3 20.8 C 0 km/h
3210 18-05-2009 13:39:24 21.1 C 3.69 g/m*3 21.1 C 0 km/h
3211 18-05-2009 13:51:23 21.1 C 3.69 g/m*3 21.1 C 0 km/h
3212 18-05-2009 14:03:23 20.7 C 3.6 g/m*3 20.7 C 0 km/h
3213 18-05-2009 14:15:23 20.6 C 3.58 g/m*3 20.6 C 0 km/h
3214 18-05-2009 14:27:23 20.8 C 3.62 g/m*3 20.8 C 0 km/h
3215 18-05-2009 14:39:23 20.9 C 3.64 g/m*3 20.9 C 0 km/h
3216 18-05-2009 14:51:22 21.6 C 3.79 g/m*3 21.6 C 0 km/h
3217 18-05-2009 15:03:23 22.5 C 3.99 g/m*3 22.5 C 0 km/h
3218 18-05-2009 15:15:22 22.2 C 3.93 g/m*3 22.2 C 0 km/h
3219 18-05-2009 15:27:22 21.2 C 3.89 g/m*3 21.2 C 0 km/h
3220 18-05-2009 15:39:22 22.3 C 3.95 g/m*3 22.3 C 0 km/h
3221 18-05-2009 15:51:21 22.6 C 4.02 g/m*3 22.6 C 0 km/h
3222 18-05-2009 16:03:22 22 C 4.08 g/m*3 22 C 0 km/h
3223 18-05-2009 16:15:22 21.8 C 4.22 g/m*3 21.8 C 0 km/h
3224 18-05-2009 16:27:22 21.4 C 4.12 g/m*3 21.4 C 0 km/h
3225 18-05-2009 16:39:21 22.6 C 4.02 g/m*3 22.6 C 0 km/h
Sensor: Nr:Datum:Temp:Abs-Feuchte:Windchill:Wind:
Aussen-T/F 3226 18-05-2009 16:51:22 22 C 3.88 g/m*3 22 C 0 km/h
3227 18-05-2009 17:03:21 21.8 C 4.22 g/m*3 21.8 C 0 km/h
3228 18-05-2009 17:15:21 22.8 C 4.27 g/m*3 22.8 C 0 km/h
3229 18-05-2009 17:27:21 22.8 C 4.06 g/m*3 22.8 C 0 km/h
3230 18-05-2009 17:39:21 22.2 C 4.12 g/m*3 22.2 C 0 km/h
3231 18-05-2009 17:51:21 23.1 C 4.13 g/m*3 23.1 C 0 km/h
3232 18-05-2009 18:03:21 22.4 C 3.97 g/m*3 22.4 C 0 km/h
3233 18-05-2009 18:15:20 22.8 C 4.27 g/m*3 22.8 C 0 km/h
3234 18-05-2009 18:27:20 22.6 C 4.02 g/m*3